Provisional Data: Little Clearfield Creek near Dimeling, PA


Please select a monitoring station.
Please select start date.
Please select start date.

Toggle Unit: C/F Toggle Unit: C/F
Sample Time Temperature (C) Temperature (F) Specific Conductivity (mS/cm) pH   Turbidity (NTU+) DO (mg/L)
9/6/2021 12:00:00 AM 17.45 63.41 0.28 7.44 297.87 8.71
9/6/2021 12:15:00 AM 17.43 63.374 0.281 7.43 285.37 8.58
9/6/2021 12:30:00 AM 17.4 63.32 0.281 7.43 271.79 8.66
9/6/2021 12:45:00 AM 17.38 63.284 0.281 7.43 283.19 8.63
9/6/2021 1:00:00 AM 17.34 63.212 0.282 7.43 246.94 8.69
9/6/2021 1:15:00 AM 17.3 63.14 0.282 7.45 271.62 8.76
9/6/2021 1:30:00 AM 17.27 63.086 0.283 7.46 290.68 8.71
9/6/2021 1:45:00 AM 17.23 63.014 0.283 7.45 276.44 8.71
9/6/2021 2:00:00 AM 17.19 62.942 0.284 7.45 308.3 8.76
9/6/2021 2:15:00 AM 17.14 62.852 0.285 7.45 266.82 8.76
9/6/2021 2:30:00 AM 17.1 62.78 0.285 7.45 306.52 8.75
9/6/2021 2:45:00 AM 17.06 62.708 0.286 7.45 311.76 8.73
9/6/2021 3:00:00 AM 17.02 62.636 0.286 7.46 303.85 8.78
9/6/2021 3:15:00 AM 16.99 62.582 0.287 7.46 295.38 8.75
9/6/2021 3:30:00 AM 16.96 62.528 0.287 7.45 312.21 8.79
9/6/2021 3:45:00 AM 16.92 62.456 0.287 7.45 294.3 8.74
9/6/2021 4:00:00 AM 16.87 62.366 0.287 7.46 305.12 8.75
9/6/2021 4:15:00 AM 16.84 62.312 0.287 7.44 274.77 8.74
9/6/2021 4:30:00 AM 16.8 62.24 0.288 7.44 270.64 8.81
9/6/2021 4:45:00 AM 16.76 62.168 0.288 7.45 285.41 8.78
9/6/2021 5:00:00 AM 16.72 62.096 0.289 7.44 269.88 8.81
9/6/2021 5:15:00 AM 16.67 62.006 0.289 7.44 266.55 8.8
9/6/2021 5:30:00 AM 16.63 61.934 0.289 7.45 257.18 8.68
9/6/2021 5:45:00 AM 16.58 61.844 0.289 7.46 257.06 8.77
9/6/2021 6:00:00 AM 16.53 61.754 0.29 7.47 286.13 8.83
9/6/2021 6:15:00 AM 16.49 61.682 0.29 7.47 264.62 8.72
9/6/2021 6:30:00 AM 16.44 61.592 0.29 7.46 268.11 8.83
9/6/2021 6:45:00 AM 16.39 61.502 0.29 7.46 227.54 8.85
9/6/2021 7:00:00 AM 16.35 61.43 0.29 7.45 243.36 8.68
9/6/2021 7:15:00 AM 16.3 61.34 0.291 7.45 232.28 8.89
9/6/2021 7:30:00 AM 16.25 61.25 0.291 7.45 233.81 8.86
9/6/2021 7:45:00 AM 16.2 61.16 0.291 7.46 232.74 8.85
9/6/2021 8:00:00 AM 16.16 61.088 0.291 7.46 233.14 8.91
9/6/2021 8:15:00 AM 16.13 61.034 0.291 7.49 234.86 9.03
9/6/2021 8:30:00 AM 16.11 60.998 0.291 7.51 230.74 9.1
9/6/2021 8:45:00 AM 16.08 60.944 0.291 7.51 232.27 9.21
9/6/2021 9:00:00 AM 16.05 60.89 0.291 7.52 229.09 9.26
9/6/2021 9:15:00 AM 16.02 60.836 0.291 7.52 227.34 9.31
9/6/2021 9:30:00 AM 15.99 60.782 0.292 7.53 229.9 9.32
9/6/2021 9:45:00 AM 16.01 60.818 0.292 7.54 228.47 9.25
9/6/2021 10:00:00 AM 16.07 60.926 0.292 7.55 224.33 9.42
9/6/2021 10:15:00 AM 16.12 61.016 0.292 7.56 231.01 9.44
9/6/2021 10:30:00 AM 16.18 61.124 0.292 7.57 226.05 9.51
9/6/2021 10:45:00 AM 16.22 61.196 0.292 7.58 226.53 9.52
9/6/2021 11:00:00 AM 16.26 61.268 0.292 7.59 238.08 9.46
9/6/2021 11:15:00 AM 16.35 61.43 0.292 7.6 222.73 9.61
9/6/2021 11:30:00 AM 16.4 61.52 0.292 7.61 235.2 9.61
9/6/2021 11:45:00 AM 16.49 61.682 0.293 7.63 225.73 9.62
9/6/2021 12:00:00 PM 16.6 61.88 0.293 7.64 228.06 9.67
9/6/2021 12:15:00 PM 16.75 62.15 0.294 7.65 221.46 9.69
9/6/2021 12:30:00 PM 16.88 62.384 0.295 7.66 222.46 9.67
9/6/2021 12:45:00 PM 16.97 62.546 0.296 7.65 222.72 9.75
9/6/2021 1:00:00 PM 17.15 62.87 0.295 7.68 224.67 9.78
9/6/2021 1:15:00 PM 17.19 62.942 0.295 7.69 221.74 9.71
9/6/2021 1:30:00 PM 17.24 63.032 0.295 7.7 220.94 9.64
9/6/2021 1:45:00 PM 17.34 63.212 0.295 7.71 219.66 9.64
9/6/2021 2:00:00 PM 17.56 63.608 0.295 7.71 225.94 9.7
9/6/2021 2:15:00 PM 17.8 64.04 0.295 7.72 219 9.67
9/6/2021 2:30:00 PM 17.95 64.31 0.295 7.72 218.95 9.75
9/6/2021 2:45:00 PM 18.07 64.526 0.295 7.74 225.31 9.72
9/6/2021 3:00:00 PM 18.13 64.634 0.295 7.76 231.3 9.65
9/6/2021 3:15:00 PM 18.19 64.742 0.295 7.76 222.02 9.57
9/6/2021 3:30:00 PM 18.33 64.994 0.295 7.76 223.91 9.62
9/6/2021 3:45:00 PM 18.42 65.156 0.296 7.74 218.05 9.51
9/6/2021 4:00:00 PM 18.45 65.21 0.296 7.75 230.1 9.46
9/6/2021 4:15:00 PM 18.51 65.318 0.293 7.75 201.69 9.33
9/6/2021 4:30:00 PM 18.51 65.318 0.297 7.73 178.83 9.38
9/6/2021 4:45:00 PM 18.57 65.426 0.297 7.73 174.8 9.4
9/6/2021 5:00:00 PM 18.57 65.426 0.297 7.71 173.3 9.18
9/6/2021 5:15:00 PM 18.55 65.39 0.296 7.71 174.59 9.2
9/6/2021 5:30:00 PM 18.47 65.246 0.296 7.72 172.25 9.23
9/6/2021 5:45:00 PM 18.41 65.138 0.297 7.7 188.39 9.16
9/6/2021 6:00:00 PM 18.36 65.048 0.297 7.69 197.88 9.09
9/6/2021 6:15:00 PM 18.32 64.976 0.297 7.68 201.35 8.77
9/6/2021 6:30:00 PM 18.29 64.922 0.297 7.67 197.86 8.99
9/6/2021 6:45:00 PM 18.24 64.832 0.297 7.67 198.68 8.92
9/6/2021 7:00:00 PM 18.2 64.76 0.297 7.65 198.03 8.9
9/6/2021 7:15:00 PM 18.16 64.688 0.297 7.63 196.88 8.38
9/6/2021 7:30:00 PM 18.09 64.562 0.297 7.62 194.82 8.81
9/6/2021 7:45:00 PM 18.05 64.49 0.297 7.6 197.51 8.3
9/6/2021 8:00:00 PM 18 64.4 0.297 7.59 201.54 8.38
9/6/2021 8:15:00 PM 17.93 64.274 0.298 7.54 205.27 8.49
9/6/2021 8:30:00 PM 17.86 64.148 0.298 7.54 202.8 8.63
9/6/2021 8:45:00 PM 17.8 64.04 0.298 7.53 200.2 8.66
9/6/2021 9:00:00 PM 17.72 63.896 0.298 7.54 205.99 8.67
9/6/2021 9:15:00 PM 17.66 63.788 0.298 7.54 209.97 8.71
9/6/2021 9:30:00 PM 17.58 63.644 0.297 7.54 210.62 8.57
9/6/2021 9:45:00 PM 17.5 63.5 0.298 7.52 217.8 8.62
9/6/2021 10:00:00 PM 17.45 63.41 0.299 7.51 216.98 8.68
9/6/2021 10:15:00 PM 17.36 63.248 0.299 7.51 216.42 8.69
9/6/2021 10:30:00 PM 17.28 63.104 0.299 7.52 217.64 8.45
9/6/2021 10:45:00 PM 17.19 62.942 0.299 7.51 215.71 8.71
9/6/2021 11:00:00 PM 17.11 62.798 0.299 7.51 215.52 8.59
9/6/2021 11:15:00 PM 17.02 62.636 0.299 7.51 217.71 8.58
9/6/2021 11:30:00 PM 16.96 62.528 0.3 7.49 216.71 8.4
9/6/2021 11:45:00 PM 16.86 62.348 0.299 7.46 222.68 8.72
9/7/2021 12:00:00 AM 16.8 62.24 0.3 7.46 224.42 8.75
9/7/2021 12:15:00 AM 16.7 62.06 0.3 7.44 222.87 8.76
9/7/2021 12:30:00 AM 16.62 61.916 0.299 7.44 228.65 8.8
9/7/2021 12:45:00 AM 16.54 61.772 0.3 7.43 186.15 8.78
9/7/2021 1:00:00 AM 16.47 61.646 0.3 7.45 183.45 8.81
9/7/2021 1:15:00 AM 16.38 61.484 0.3 7.44 189.07 8.83
9/7/2021 1:30:00 AM 16.32 61.376 0.301 7.41 178.95 8.71
9/7/2021 1:45:00 AM 16.26 61.268 0.301 7.41 154.35 8.89
9/7/2021 2:00:00 AM 16.17 61.106 0.301 7.41 152.32 8.85
9/7/2021 2:15:00 AM 16.1 60.98 0.301 7.41 152.64 8.67
9/7/2021 2:30:00 AM 16.05 60.89 0.301 7.42 152.86 8.68
9/7/2021 2:45:00 AM 15.99 60.782 0.301 7.43 152.18 8.84
9/7/2021 3:00:00 AM 15.94 60.692 0.3 7.45 153.78 8.79
9/7/2021 3:15:00 AM 15.87 60.566 0.301 7.46 155.51 8.99
9/7/2021 3:30:00 AM 15.83 60.494 0.301 7.46 157.6 8.9
9/7/2021 3:45:00 AM 15.77 60.386 0.301 7.44 153.11 8.81
9/7/2021 4:00:00 AM 15.7 60.26 0.301 7.44 151.52 9.07
9/7/2021 4:15:00 AM 15.66 60.188 0.302 7.43 151.5 9
9/7/2021 4:30:00 AM 15.6 60.08 0.302 7.43 151.89 8.96
9/7/2021 4:45:00 AM 15.52 59.936 0.302 7.44 151.83 9
9/7/2021 5:00:00 AM 15.44 59.792 0.302 7.45 150.62 9.1
9/7/2021 5:15:00 AM 15.4 59.72 0.302 7.45 151.98 9.13
9/7/2021 5:30:00 AM 15.34 59.612 0.303 7.42 152.33 9.11
9/7/2021 5:45:00 AM 15.26 59.468 0.302 7.42 148.65 9.13
9/7/2021 6:00:00 AM 15.22 59.396 0.303 7.42 148.94 9.01
9/7/2021 6:15:00 AM 15.16 59.288 0.304 7.42 148.89 9.2
9/7/2021 6:30:00 AM 15.11 59.198 0.304 7.43 149.09 8.94
9/7/2021 6:45:00 AM 15.05 59.09 0.304 7.43 149.5 9.15
9/7/2021 7:00:00 AM 15 59 0.305 7.43 151.18 9.19
9/7/2021 7:15:00 AM 14.94 58.892 0.305 7.43 151.31 9.11
9/7/2021 7:30:00 AM 14.89 58.802 0.305 7.45 150.25 9.32
9/7/2021 7:45:00 AM 14.84 58.712 0.305 7.46 149.68 8.91
9/7/2021 8:00:00 AM 14.8 58.64 0.306 7.47 150.28 9.37
9/7/2021 8:15:00 AM 14.76 58.568 0.306 7.45 150.26 9.34
9/7/2021 8:30:00 AM 14.74 58.532 0.306 7.46 149.6 9.49
9/7/2021 8:45:00 AM 14.71 58.478 0.306 7.47 149.27 9.57
9/7/2021 9:00:00 AM 14.7 58.46 0.306 7.48 149.97 9.62
9/7/2021 9:15:00 AM 14.69 58.442 0.307 7.5 149.07 9.69
9/7/2021 9:30:00 AM 14.68 58.424 0.307 7.5 148.39 9.54
9/7/2021 9:45:00 AM 14.7 58.46 0.307 7.48 147.75 9.55
9/7/2021 10:00:00 AM 14.78 58.604 0.307 7.48 148.56 9.58
9/7/2021 10:15:00 AM 14.87 58.766 0.307 7.47 148.53 9.67
9/7/2021 10:30:00 AM 14.94 58.892 0.308 7.47 149.26 9.73
9/7/2021 10:45:00 AM 15.01 59.018 0.308 7.48 149.37 9.65
9/7/2021 11:00:00 AM 15.07 59.126 0.308 7.49 148.31 9.85
9/7/2021 11:15:00 AM 15.15 59.27 0.308 7.51 148.28 9.78
9/7/2021 11:30:00 AM 15.25 59.45 0.308 7.49 147.69 9.65
9/7/2021 11:45:00 AM 15.37 59.666 0.308 7.48 148.16 9.74
9/7/2021 12:00:00 PM 15.51 59.918 0.308 7.49 148.52 9.93
9/7/2021 12:15:00 PM 15.69 60.242 0.308 7.49 148.49 9.91
9/7/2021 12:30:00 PM 15.86 60.548 0.308 7.52 147.2 10.05
9/7/2021 12:45:00 PM 16.01 60.818 0.308 7.56 146.56 9.99
9/7/2021 1:00:00 PM 16.2 61.16 0.308 7.59 146.25 10.01
9/7/2021 1:15:00 PM 16.43 61.574 0.307 7.64 146.84 10.06
9/7/2021 1:30:00 PM 16.64 61.952 0.307 7.69 146.25 10.14
9/7/2021 1:45:00 PM 16.78 62.204 0.306 7.67 146.34 10.03
9/7/2021 2:00:00 PM 17.04 62.672 0.306 7.68 159.36 10.14
9/7/2021 2:15:00 PM 17.27 63.086 0.307 7.68 157.4 10.12
9/7/2021 2:30:00 PM 17.48 63.464 0.307 7.72 158.12 10.06
9/7/2021 2:45:00 PM 17.6 63.68 0.307 7.73 158.13 9.96
9/7/2021 3:00:00 PM 17.76 63.968 0.307 7.73 157.07 9.92
9/7/2021 3:15:00 PM 18.03 64.454 0.307 7.71 157.05 9.87
9/7/2021 3:30:00 PM 18.12 64.616 0.308 7.73 156.65 9.82
9/7/2021 3:45:00 PM 18.26 64.868 0.308 7.72 156.79 9.83
9/7/2021 4:00:00 PM 18.36 65.048 0.308 7.7 154.83 9.71
9/7/2021 4:15:00 PM 18.48 65.264 0.308 7.67 155.6 9.51
9/7/2021 4:30:00 PM 18.6 65.48 0.309 7.66 154.98 9.57
9/7/2021 4:45:00 PM 18.66 65.588 0.309 7.67 155.15 9.54
9/7/2021 5:00:00 PM 18.68 65.624 0.309 7.71 154.53 9.53
9/7/2021 5:15:00 PM 18.7 65.66 0.309 7.69 154.63 9.51
9/7/2021 5:30:00 PM 18.68 65.624 0.309 7.66 155.52 9.39
9/7/2021 5:45:00 PM 18.62 65.516 0.309 7.65 157.16 9.28
9/7/2021 6:00:00 PM 18.58 65.444 0.31 7.65 156.3 9.25
9/7/2021 6:15:00 PM 18.54 65.372 0.31 7.64 157.17 9.2
9/7/2021 6:30:00 PM 18.5 65.3 0.31 7.66 157.26 9.11
9/7/2021 6:45:00 PM 18.47 65.246 0.31 7.65 156.97 8.99
9/7/2021 7:00:00 PM 18.42 65.156 0.31 7.63 157.4 8.9
9/7/2021 7:15:00 PM 18.38 65.084 0.31 7.6 157.68 8.83
9/7/2021 7:30:00 PM 18.37 65.066 0.311 7.58 158.04 8.76
9/7/2021 7:45:00 PM 18.33 64.994 0.311 7.56 161.18 8.74
9/7/2021 8:00:00 PM 18.31 64.958 0.311 7.55 161.19 8.73
9/7/2021 8:15:00 PM 18.29 64.922 0.312 7.52 161.24 8.66
9/7/2021 8:30:00 PM 18.26 64.868 0.312 7.51 160.17 8.6
9/7/2021 8:45:00 PM 18.22 64.796 0.312 7.49 159.38 8.6
9/7/2021 9:00:00 PM 18.18 64.724 0.312 7.48 161.75 8.6
9/7/2021 9:15:00 PM 18.14 64.652 0.313 7.48 160.19 8.42
9/7/2021 9:30:00 PM 18.1 64.58 0.313 7.45 160.16 8.34
9/7/2021 9:45:00 PM 18.05 64.49 0.313 7.46 211.24 8.58
9/7/2021 10:00:00 PM 17.97 64.346 0.313 7.45 160.16 8.51
9/7/2021 10:15:00 PM 17.92 64.256 0.313 7.43 160.18 8.63
9/7/2021 10:30:00 PM 17.85 64.13 0.314 7.43 160.16 8.53
9/7/2021 10:45:00 PM 17.76 63.968 0.314 7.43 160.07 8.65
9/7/2021 11:00:00 PM 17.69 63.842 0.314 7.42 159.38 8.64
9/7/2021 11:15:00 PM 17.64 63.752 0.315 7.43 159.46 8.63
9/7/2021 11:30:00 PM 17.57 63.626 0.315 7.43 160.22 8.36
9/7/2021 11:45:00 PM 17.51 63.518 0.315 7.44 159.43 8.66
9/8/2021 12:00:00 AM 17.44 63.392 0.315 7.44 159.13 8.69
9/8/2021 12:15:00 AM 17.4 63.32 0.315 7.44 159.06 8.68
9/8/2021 12:30:00 AM 17.36 63.248 0.315 7.44 159.16 8.6
9/8/2021 12:45:00 AM 17.32 63.176 0.315 7.43 159.55 8.6
9/8/2021 1:00:00 AM 17.29 63.122 0.316 7.42 159.44 8.67
9/8/2021 1:15:00 AM 17.25 63.05 0.316 7.41 159.42 8.61
9/8/2021 1:30:00 AM 17.21 62.978 0.316 7.41 159.72 8.71
9/8/2021 1:45:00 AM 17.18 62.924 0.316 7.41 159.86 8.69
9/8/2021 2:00:00 AM 17.14 62.852 0.317 7.42 160.43 8.62
9/8/2021 2:15:00 AM 17.11 62.798 0.316 7.42 160.15 8.72
9/8/2021 2:30:00 AM 17.08 62.744 0.316 7.41 159.21 8.61
9/8/2021 2:45:00 AM 17.05 62.69 0.316 7.42 160.24 8.62
9/8/2021 3:00:00 AM 17.02 62.636 0.315 7.41 160.59 8.74
9/8/2021 3:15:00 AM 16.99 62.582 0.316 7.41 160.82 8.69
9/8/2021 3:30:00 AM 16.96 62.528 0.317 7.41 160.07 8.48
9/8/2021 3:45:00 AM 16.94 62.492 0.317 7.4 160.62 8.34
9/8/2021 4:00:00 AM 16.91 62.438 0.317 7.42 161.28 8.69
9/8/2021 4:15:00 AM 16.88 62.384 0.317 7.42 161 8.77
9/8/2021 4:30:00 AM 16.84 62.312 0.318 7.43 160.36 8.58
9/8/2021 4:45:00 AM 16.8 62.24 0.318 7.42 161.52 8.79
9/8/2021 5:00:00 AM 16.77 62.186 0.318 7.42 161.04 8.61
9/8/2021 5:15:00 AM 16.72 62.096 0.318 7.41 160.84 8.79
9/8/2021 5:30:00 AM 16.68 62.024 0.318 7.4 161.36 8.76
9/8/2021 5:45:00 AM 16.63 61.934 0.32 7.4 161.19 8.8
9/8/2021 6:00:00 AM 16.59 61.862 0.321 7.41 160.7 8.8
9/8/2021 6:15:00 AM 16.55 61.79 0.321 7.4 160.25 8.75
9/8/2021 6:30:00 AM 16.5 61.7 0.321 7.4 160.69 8.78
9/8/2021 6:45:00 AM 16.47 61.646 0.321 7.4 160.73 8.41
9/8/2021 7:00:00 AM 16.42 61.556 0.322 7.39 160.77 8.56
9/8/2021 7:15:00 AM 16.37 61.466 0.322 7.41 162.14 8.68
9/8/2021 7:30:00 AM 16.34 61.412 0.322 7.41 161.45 8.83
9/8/2021 7:45:00 AM 16.32 61.376 0.322 7.42 161.89 8.91
9/8/2021 8:00:00 AM 16.31 61.358 0.322 7.41 161.64 9.01
9/8/2021 8:15:00 AM 16.32 61.376 0.322 7.4 161.5 9.15
9/8/2021 8:30:00 AM 16.33 61.394 0.322 7.39 161.49 9.12
9/8/2021 8:45:00 AM 16.35 61.43 0.322 7.43 162.21 9.29
9/8/2021 9:00:00 AM 16.41 61.538 0.322 7.42 160.78 9.38
9/8/2021 9:15:00 AM 16.48 61.664 0.322 7.41 161.01 9.33
9/8/2021 9:30:00 AM 16.53 61.754 0.322 7.44 161 9.48
9/8/2021 9:45:00 AM 16.62 61.916 0.322 7.46 160.25 9.53
9/8/2021 10:00:00 AM 16.74 62.132 0.322 7.51 161.2 9.7
9/8/2021 10:15:00 AM 16.85 62.33 0.322 7.54 166.45 9.67
9/8/2021 10:30:00 AM 16.97 62.546 0.322 7.55 166.55 9.63
9/8/2021 10:45:00 AM 17.08 62.744 0.322 7.54 165.74 9.73
9/8/2021 11:00:00 AM 17.17 62.906 0.322 7.56 165.81 9.75
9/8/2021 11:15:00 AM 17.29 63.122 0.322 7.56 165.15 9.73
9/8/2021 11:30:00 AM 17.38 63.284 0.322 7.55 163.73 9.81
9/8/2021 11:45:00 AM 17.43 63.374 0.322 7.59 164.16 9.8
9/8/2021 12:00:00 PM 17.51 63.518 0.322 7.6 162.94 9.83
9/8/2021 12:15:00 PM 17.6 63.68 0.322 7.59 163.36 9.83
9/8/2021 12:30:00 PM 17.76 63.968 0.322 7.6 161.5 9.94
9/8/2021 12:45:00 PM 17.8 64.04 0.322 7.62 162.34 9.79
9/8/2021 1:00:00 PM 17.77 63.986 0.322 7.57 162.15 9.64
9/8/2021 1:15:00 PM 17.76 63.968 0.323 7.54 162.74 9.46
9/8/2021 1:30:00 PM 17.74 63.932 0.323 7.52 161.71 9.22
9/8/2021 1:45:00 PM 17.75 63.95 0.323 7.53 160.55 9.21
9/8/2021 2:00:00 PM 17.74 63.932 0.322 7.5 160.11 9.11
9/8/2021 2:15:00 PM 17.73 63.914 0.322 7.49 161.05 9.07
9/8/2021 2:30:00 PM 17.73 63.914 0.321 7.45 161.67 9.1
9/8/2021 2:45:00 PM 17.72 63.896 0.323 7.41 161.15 8.96
9/8/2021 3:00:00 PM 17.73 63.914 0.322 7.41 162.74 8.96
9/8/2021 3:15:00 PM 17.76 63.968 0.324 7.39 162.56 8.99
9/8/2021 3:30:00 PM 17.78 64.004 0.323 7.39 162.4 9.08
9/8/2021 3:45:00 PM 17.8 64.04 0.323 7.4 162.88 9.04
9/8/2021 4:00:00 PM 17.82 64.076 0.323 7.39 161.69 9.08
9/8/2021 4:15:00 PM 17.83 64.094 0.323 7.39 160.77 9.15
9/8/2021 4:30:00 PM 17.85 64.13 0.323 7.38 161.6 8.86
9/8/2021 4:45:00 PM 17.87 64.166 0.323 7.37 161.17 9.03
9/8/2021 5:00:00 PM 17.88 64.184 0.323 7.37 162.17 9.23
9/8/2021 5:15:00 PM 17.88 64.184 0.324 7.36 162.17 9.17
9/8/2021 5:30:00 PM 17.86 64.148 0.324 7.39 162.72 9.15
9/8/2021 5:45:00 PM 17.86 64.148 0.324 7.4 162.01 9.06
9/8/2021 6:00:00 PM 17.85 64.13 0.324 7.4 161.36 8.97
9/8/2021 6:15:00 PM 17.85 64.13 0.325 7.38 160.86 9.07
9/8/2021 6:30:00 PM 17.83 64.094 0.325 7.37 159.87 8.97
9/8/2021 6:45:00 PM 17.82 64.076 0.325 7.36 159.56 8.92
9/8/2021 7:00:00 PM 17.81 64.058 0.326 7.34 160.4 8.88
9/8/2021 7:15:00 PM 17.81 64.058 0.325 7.35 160.94 8.95
9/8/2021 7:30:00 PM 17.79 64.022 0.326 7.34 160.18 8.88
9/8/2021 7:45:00 PM 17.76 63.968 0.326 7.34 157.96 8.8
9/8/2021 8:00:00 PM 17.7 63.86 0.327 7.34 160.35 8.72
9/8/2021 8:15:00 PM 17.66 63.788 0.327 7.34 163.38 8.59
9/8/2021 8:30:00 PM 17.64 63.752 0.327 7.36 161.8 8.36
9/8/2021 8:45:00 PM 17.59 63.662 0.327 7.36 163.94 8.71
9/8/2021 9:00:00 PM 17.55 63.59 0.328 7.35 164.53 8.25
9/8/2021 9:15:00 PM 17.52 63.536 0.328 7.34 163.64 8.57
9/8/2021 9:30:00 PM 17.48 63.464 0.329 7.34 164.42 8.66
9/8/2021 9:45:00 PM 17.46 63.428 0.329 7.34 164.42 8.7
9/8/2021 10:00:00 PM 17.45 63.41 0.329 7.34 163.53 8.7
9/8/2021 10:15:00 PM 17.43 63.374 0.33 7.33 163.29 8.65
9/8/2021 10:30:00 PM 17.42 63.356 0.33 7.34 162.48 8.61
9/8/2021 10:45:00 PM 17.41 63.338 0.33 7.36 161.84 8.72
9/8/2021 11:00:00 PM 17.39 63.302 0.33 7.35 162.86 8.62
9/8/2021 11:15:00 PM 17.38 63.284 0.33 7.36 162.32 8.69
9/8/2021 11:30:00 PM 17.36 63.248 0.331 7.35 161.52 8.71
9/8/2021 11:45:00 PM 17.34 63.212 0.331 7.36 163.21 8.69
9/9/2021 12:00:00 AM 17.3 63.14 0.332 7.34 421.52 8.7
9/9/2021 12:15:00 AM 17.26 63.068 0.332 7.34 388.86 8.7
9/9/2021 12:30:00 AM 17.22 62.996 0.332 7.33 370.8 8.74
9/9/2021 12:45:00 AM 17.18 62.924 0.332 7.34 363.49 8.63
9/9/2021 1:00:00 AM 17.13 62.834 0.333 7.35 356.25 8.74
9/9/2021 1:15:00 AM 17.1 62.78 0.333 7.34 347.71 8.74
9/9/2021 1:30:00 AM 17.05 62.69 0.333 7.34 336.62 8.63
9/9/2021 1:45:00 AM 17 62.6 0.334 7.34 335.67 8.71
9/9/2021 2:00:00 AM 16.96 62.528 0.334 7.33 328.25 8.72
9/9/2021 2:15:00 AM 16.93 62.474 0.335 7.33 323.19 8.7
9/9/2021 2:30:00 AM 16.91 62.438 0.335 7.37 322.56 8.66
9/9/2021 2:45:00 AM 16.89 62.402 0.335 7.37 314.97 8.76
9/9/2021 3:00:00 AM 16.86 62.348 0.335 7.36 311.49 8.8
9/9/2021 3:15:00 AM 16.83 62.294 0.335 7.35 307.91 8.77
9/9/2021 3:30:00 AM 16.8 62.24 0.335 7.35 304.29 8.81
9/9/2021 3:45:00 AM 16.78 62.204 0.335 7.33 301.58 8.83
9/9/2021 4:00:00 AM 16.76 62.168 0.335 7.33 297.4 8.76
9/9/2021 4:15:00 AM 16.74 62.132 0.336 7.34 298.75 8.68
9/9/2021 4:30:00 AM 16.71 62.078 0.335 7.34 291.77 8.83
9/9/2021 4:45:00 AM 16.69 62.042 0.335 7.37 289.93 8.82
9/9/2021 5:00:00 AM 16.68 62.024 0.335 7.38 289.06 8.8
9/9/2021 5:15:00 AM 16.66 61.988 0.335 7.36 286.87 8.82
9/9/2021 5:30:00 AM 16.64 61.952 0.335 7.37 282.79 8.86
9/9/2021 5:45:00 AM 16.63 61.934 0.335 7.39 281.09 8.71
9/9/2021 6:00:00 AM 16.62 61.916 0.336 7.39 277.34 8.87
9/9/2021 6:15:00 AM 16.61 61.898 0.336 7.38 275.52 8.78
9/9/2021 6:30:00 AM 16.58 61.844 0.336 7.37 272.17 8.88
9/9/2021 6:45:00 AM 16.55 61.79 0.336 7.36 267.66 8.65
9/9/2021 7:00:00 AM 16.52 61.736 0.336 7.38 268.57 8.86
9/9/2021 7:15:00 AM 16.5 61.7 0.336 7.42 268.83 8.89
9/9/2021 7:30:00 AM 16.49 61.682 0.336 7.39 269.36 8.87
9/9/2021 7:45:00 AM 16.47 61.646 0.337 7.38 267.08 8.92
9/9/2021 8:00:00 AM 16.46 61.628 0.337 7.39 268.55 8.92
9/9/2021 8:15:00 AM 16.45 61.61 0.337 7.4 269.63 8.62
9/9/2021 8:30:00 AM 16.45 61.61 0.337 7.38 266.59 8.92
9/9/2021 8:45:00 AM 16.45 61.61 0.338 7.37 264.15 8.99
9/9/2021 9:00:00 AM 16.45 61.61 0.338 7.38 265.14 9
9/9/2021 9:15:00 AM 16.46 61.628 0.338 7.36 263.2 8.99
9/9/2021 9:30:00 AM 16.47 61.646 0.338 7.35 261.06 9.11
9/9/2021 9:45:00 AM 16.49 61.682 0.339 7.35 260.56 9.11
9/9/2021 10:00:00 AM 16.53 61.754 0.339 7.34 258.69 9.18
9/9/2021 10:15:00 AM 16.58 61.844 0.339 7.35 257.24 9.39
9/9/2021 10:30:00 AM 16.63 61.934 0.339 7.38 255.36 9.45
9/9/2021 10:45:00 AM 16.71 62.078 0.338 7.33 255.92 9.5
9/9/2021 11:00:00 AM 16.76 62.168 0.339 7.32 253.96 9.68
9/9/2021 11:15:00 AM 16.87 62.366 0.34 7.33 251.96 9.66
9/9/2021 11:30:00 AM 16.93 62.474 0.34 7.37 250.71 9.69
9/9/2021 11:45:00 AM 16.98 62.564 0.34 7.37 250.43 9.65
9/9/2021 12:00:00 PM 17.01 62.618 0.34 7.37 248.25 9.53
9/9/2021 12:15:00 PM 17.01 62.618 0.34 7.4 248.26 9.52
9/9/2021 12:30:00 PM 17.01 62.618 0.339 7.43 247.14 9.57
9/9/2021 12:45:00 PM 17.02 62.636 0.339 7.45 245.34 9.12
9/9/2021 1:00:00 PM 17.09 62.762 0.34 7.43 244.5 9.63
9/9/2021 1:15:00 PM 17.17 62.906 0.34 7.43 242.82 9.8
9/9/2021 1:30:00 PM 17.38 63.284 0.34 7.39 242.5 9.93
9/9/2021 1:45:00 PM 17.5 63.5 0.341 7.42 242.33 9.99
9/9/2021 2:00:00 PM 17.73 63.914 0.34 7.46 240.53 9.77
9/9/2021 2:15:00 PM 17.73 63.914 0.34 7.47 241.28 9.92
9/9/2021 2:30:00 PM 17.89 64.202 0.34 7.45 239.78 9.87
9/9/2021 2:45:00 PM 17.99 64.382 0.34 7.48 239.57 9.77
9/9/2021 3:00:00 PM 17.89 64.202 0.341 7.48 239.5 9.37
9/9/2021 3:15:00 PM 17.88 64.184 0.341 7.45 238.14 9.66
9/9/2021 3:30:00 PM 17.99 64.382 0.341 7.44 236.75 9.72
9/9/2021 3:45:00 PM 18.18 64.724 0.341 7.49 235.71 9.81
9/9/2021 4:00:00 PM 18.19 64.742 0.341 7.54 235.79 9.61
9/9/2021 4:15:00 PM 18.14 64.652 0.34 7.57 235.54 9.68
9/9/2021 4:30:00 PM 18.12 64.616 0.341 7.53 236.28 9.57
9/9/2021 4:45:00 PM 18.2 64.76 0.341 7.5 236.1 9.55
9/9/2021 5:00:00 PM 18.26 64.868 0.34 7.51 235.53 9.57
9/9/2021 5:15:00 PM 18.28 64.904 0.341 7.49 235.25 9.49
9/9/2021 5:30:00 PM 18.25 64.85 0.341 7.46 235.3 9.19
9/9/2021 5:45:00 PM 18.22 64.796 0.342 7.43 235.65 9.25
9/9/2021 6:00:00 PM 18.18 64.724 0.342 7.44 235.2 9.33
9/9/2021 6:15:00 PM 18.16 64.688 0.342 7.44 234.94 9.14
9/9/2021 6:30:00 PM 18.11 64.598 0.343 7.41 233.02 8.98
9/9/2021 6:45:00 PM 18.05 64.49 0.343 7.39 232.35 9.11
9/9/2021 7:00:00 PM 17.98 64.364 0.343 7.37 232.48 9.05
9/9/2021 7:15:00 PM 17.93 64.274 0.344 7.34 232.31 7.64
9/9/2021 7:30:00 PM 17.85 64.13 0.344 7.35 232 8.89
9/9/2021 7:45:00 PM 17.78 64.004 0.345 7.34 237.68 8.79
9/9/2021 8:00:00 PM 17.71 63.878 0.346 7.34 236.94 8.32
9/9/2021 8:15:00 PM 17.65 63.77 0.346 7.32 235.88 8.68
9/9/2021 8:30:00 PM 17.6 63.68 0.347 7.31 236.13 8.55
9/9/2021 8:45:00 PM 17.55 63.59 0.347 7.32 237.81 8.52
9/9/2021 9:00:00 PM 17.48 63.464 0.347 7.31 236.27 8.44
9/9/2021 9:15:00 PM 17.42 63.356 0.348 7.31 241.4 8.38
9/9/2021 9:30:00 PM 17.34 63.212 0.348 7.3 242.87 8.69
9/9/2021 9:45:00 PM 17.29 63.122 0.348 7.31 240.67 8.26
9/9/2021 10:00:00 PM 17.21 62.978 0.349 7.29 241.58 7.6
9/9/2021 10:15:00 PM 17.12 62.816 0.349 7.29 243 8.58
9/9/2021 10:30:00 PM 17.05 62.69 0.349 7.3 243.16 8.7
9/9/2021 10:45:00 PM 16.98 62.564 0.35 7.31 241.64 8.75
9/9/2021 11:00:00 PM 16.9 62.42 0.35 7.3 239.02 8.61
9/9/2021 11:15:00 PM 16.81 62.258 0.351 7.31 239.28 8.81
9/9/2021 11:30:00 PM 16.72 62.096 0.351 7.31 239.89 8.73
9/9/2021 11:45:00 PM 16.64 61.952 0.351 7.31 238.35 8.49
9/10/2021 12:00:00 AM 16.54 61.772 0.352 7.32 240.12 8.83
9/10/2021 12:15:00 AM 16.46 61.628 0.352 7.34 240.1 8.31
9/10/2021 12:30:00 AM 16.37 61.466 0.352 7.34 239.56 8.83
9/10/2021 12:45:00 AM 16.3 61.34 0.353 7.33 240.51 8.44
9/10/2021 1:00:00 AM 16.22 61.196 0.353 7.33 241 8.64
9/10/2021 1:15:00 AM 16.18 61.124 0.353 7.35 239.18 8.73
9/10/2021 1:30:00 AM 16.13 61.034 0.353 7.35 241.37 8.9
9/10/2021 1:45:00 AM 16.07 60.926 0.353 7.34 269.89 8.75
9/10/2021 2:00:00 AM 15.99 60.782 0.354 7.34 263.87 8.96
9/10/2021 2:15:00 AM 15.92 60.656 0.354 7.35 269.33 9.01
9/10/2021 2:30:00 AM 15.85 60.53 0.354 7.36 269.17 8.94
9/10/2021 2:45:00 AM 15.77 60.386 0.355 7.36 293.25 8.86
9/10/2021 3:00:00 AM 15.72 60.296 0.355 7.37 292.23 8.95
9/10/2021 3:15:00 AM 15.62 60.116 0.355 7.39 299.18 8.99
9/10/2021 3:30:00 AM 15.58 60.044 0.355 7.42 300.05 9.02
9/10/2021 3:45:00 AM 15.51 59.918 0.355 7.46 306.75 9.04
9/10/2021 4:00:00 AM 15.46 59.828 0.356 7.46 304.65 9
9/10/2021 4:15:00 AM 15.4 59.72 0.356 7.46 303.79 9.11
9/10/2021 4:30:00 AM 15.34 59.612 0.356 7.43 305.96 9.08
9/10/2021 4:45:00 AM 15.26 59.468 0.357 7.42 299.44 9.08
9/10/2021 5:00:00 AM 15.21 59.378 0.357 7.44 299.09 9.18
9/10/2021 5:15:00 AM 15.18 59.324 0.354 7.44 297.39 9.08
9/10/2021 5:30:00 AM 15.13 59.234 0.358 7.46 319.82 9.12
9/10/2021 5:45:00 AM 15.09 59.162 0.358 7.48 314.31 9.23
9/10/2021 6:00:00 AM 15.05 59.09 0.358 7.46 324.45 9.25
9/10/2021 6:15:00 AM 14.98 58.964 0.359 7.44 346.14 9.25
9/10/2021 6:30:00 AM 14.94 58.892 0.359 7.42 358.83 9.04
9/10/2021 6:45:00 AM 14.88 58.784 0.36 7.41 362.16 9.2
9/10/2021 7:00:00 AM 14.82 58.676 0.36 7.42 366.74 9.25
9/10/2021 7:15:00 AM 14.76 58.568 0.36 7.42 362 9.3
9/10/2021 7:30:00 AM 14.7 58.46 0.36 7.42 363.6 9.26
9/10/2021 7:45:00 AM 14.64 58.352 0.361 7.41 366.57 9.34
9/10/2021 8:00:00 AM 14.6 58.28 0.361 7.46 372.35 9.24
9/10/2021 8:15:00 AM 14.57 58.226 0.361 7.44 370.16 9.49
9/10/2021 8:30:00 AM 14.56 58.208 0.361 7.42 371.9 9.52
9/10/2021 8:45:00 AM 14.59 58.262 0.361 7.4 375.59 9.52
9/10/2021 9:00:00 AM 14.59 58.262 0.361 7.39 373.34 9.57
9/10/2021 9:15:00 AM 14.61 58.298 0.362 7.38 377.44 9.1
9/10/2021 9:30:00 AM 14.66 58.388 0.362 7.4 369.62 9.7
9/10/2021 9:45:00 AM 14.75 58.55 0.362 7.44 377.53 9.82
9/10/2021 10:00:00 AM 14.82 58.676 0.362 7.46 368.4 9.97
9/10/2021 10:15:00 AM 14.93 58.874 0.362 7.46 372.38 9.81
9/10/2021 10:30:00 AM 15.01 59.018 0.362 7.48 378.29 9.95
9/10/2021 10:45:00 AM 15.06 59.108 0.362 7.51 376.99 10.06
9/10/2021 11:00:00 AM 15.1 59.18 0.361 7.53 380.7 10.1
9/10/2021 11:15:00 AM 15.14 59.252 0.361 7.55 383.52 10.12
9/10/2021 11:30:00 AM 15.2 59.36 0.361 7.58 387.67 10.03
9/10/2021 11:45:00 AM 15.33 59.594 0.361 7.59 386.44 10.17
9/10/2021 12:00:00 PM 15.44 59.792 0.361 7.6 399.07 10.13
9/10/2021 12:15:00 PM 15.54 59.972 0.361 7.59 395.55 10.01
9/10/2021 12:30:00 PM 15.65 60.17 0.361 7.55 397.96 10.12
9/10/2021 12:45:00 PM 15.85 60.53 0.36 7.57 386.69 10.23
9/10/2021 1:00:00 PM 16.01 60.818 0.361 7.61 385.89 10.19
9/10/2021 1:15:00 PM 16.17 61.106 0.361 7.67 404.48 10.17
9/10/2021 1:30:00 PM 16.3 61.34 0.363 7.71 410.49 10.14
9/10/2021 1:45:00 PM 16.39 61.502 0.363 7.65 416.11 10.14
9/10/2021 2:00:00 PM 16.49 61.682 0.364 7.69 415.8 10.24
9/10/2021 2:15:00 PM 16.53 61.754 0.364 7.62 415.45 10.15
9/10/2021 2:30:00 PM 16.73 62.114 0.363 7.68 409.29 10.15
9/10/2021 2:45:00 PM 16.76 62.168 0.362 7.74 415.15 10.13
9/10/2021 3:00:00 PM 16.87 62.366 0.362 7.74 408.26 10.17
9/10/2021 3:15:00 PM 17.2 62.96 0.362 7.75 422.44 10.16
9/10/2021 3:30:00 PM 17.44 63.392 0.363 7.81 423.32 10.16
9/10/2021 3:45:00 PM 17.52 63.536 0.362 7.83 418.24 10.01
9/10/2021 4:00:00 PM 17.61 63.698 0.362 7.79 417.49 10.08
9/10/2021 4:15:00 PM 17.81 64.058 0.362 7.84 409.98 10.07
9/10/2021 4:30:00 PM 17.9 64.22 0.362 7.85 415.7 9.97
9/10/2021 4:45:00 PM 17.97 64.346 0.362 7.84 399.18 9.84
9/10/2021 5:00:00 PM 18.03 64.454 0.362 7.86 423.86 9.86
9/10/2021 5:15:00 PM 18.02 64.436 0.362 7.88 432.76 9.77
9/10/2021 5:30:00 PM 17.98 64.364 0.362 7.85 436.99 9.57
9/10/2021 5:45:00 PM 17.9 64.22 0.362 7.82 433.18 9.51
9/10/2021 6:00:00 PM 17.86 64.148 0.362 7.84 447.64 9.45
9/10/2021 6:15:00 PM 17.81 64.058 0.363 7.8 483.54 9.46
9/10/2021 6:30:00 PM 17.76 63.968 0.364 7.77 487.84 9.32
9/10/2021 6:45:00 PM 17.66 63.788 0.364 7.74 484.16 9.18
9/10/2021 7:00:00 PM 17.56 63.608 0.364 7.67 485.49 9.2
9/10/2021 7:15:00 PM 17.5 63.5 0.365 7.66 487.96 9.1
9/10/2021 7:30:00 PM 17.41 63.338 0.365 7.66 492.15 9
9/10/2021 7:45:00 PM 17.34 63.212 0.365 7.64 496.46 9.01
9/10/2021 8:00:00 PM 17.29 63.122 0.366 7.64 502.53 8.67
9/10/2021 8:15:00 PM 17.21 62.978 0.366 7.63 499.33 8.83
9/10/2021 8:30:00 PM 17.15 62.87 0.366 7.61 501.66 8.9
9/10/2021 8:45:00 PM 17.1 62.78 0.367 7.61 497.85 8.9
9/10/2021 9:00:00 PM 17.04 62.672 0.367 7.6 503.06 8.89
9/10/2021 9:15:00 PM 16.98 62.564 0.367 7.59 502.56 8.76
9/10/2021 9:30:00 PM 16.93 62.474 0.367 7.59 498.13 8.52
9/10/2021 9:45:00 PM 16.87 62.366 0.366 7.6 497.16 8.81
9/10/2021 10:00:00 PM 16.8 62.24 0.367 7.59 501.16 8.9
9/10/2021 10:15:00 PM 16.76 62.168 0.367 7.59 502.76 8.9
9/10/2021 10:30:00 PM 16.66 61.988 0.367 7.58 495.52 8.87
9/10/2021 10:45:00 PM 16.58 61.844 0.367 7.56 498.11 8.86
9/10/2021 11:00:00 PM 16.5 61.7 0.367 7.58 498.53 8.9
9/10/2021 11:15:00 PM 16.37 61.466 0.367 7.61 496.64 8.82
9/10/2021 11:30:00 PM 16.28 61.304 0.368 7.6 496 8.87
9/10/2021 11:45:00 PM 16.18 61.124 0.368 7.58 507.52 8.89
9/11/2021 12:00:00 AM 16.06 60.908 0.368 7.57 507.92 8.91
9/11/2021 12:15:00 AM 15.95 60.71 0.368 7.56 498.6 9.08
9/11/2021 12:30:00 AM 15.85 60.53 0.368 7.56 487.35 8.97
9/11/2021 12:45:00 AM 15.72 60.296 0.368 7.54 484.19 8.7
9/11/2021 1:00:00 AM 15.63 60.134 0.368 7.53 482.2 8.91
9/11/2021 1:15:00 AM 15.54 59.972 0.369 7.52 492.48 8.75
9/11/2021 1:30:00 AM 15.44 59.792 0.369 7.51 493.42 9.1
9/11/2021 1:45:00 AM 15.34 59.612 0.369 7.52 505.53 9.2
9/11/2021 2:00:00 AM 15.25 59.45 0.369 7.51 508.03 9.18
9/11/2021 2:15:00 AM 15.14 59.252 0.37 7.52 508.23 9.11
9/11/2021 2:30:00 AM 15.05 59.09 0.37 7.55 517.8 9.25
9/11/2021 2:45:00 AM 14.98 58.964 0.37 7.56 478.05 9.25
9/11/2021 3:00:00 AM 14.93 58.874 0.37 7.55 467.13 9.28
9/11/2021 3:15:00 AM 14.87 58.766 0.37 7.55 458.03 8.95
9/11/2021 3:30:00 AM 14.82 58.676 0.37 7.54 452.46 9.25
9/11/2021 3:45:00 AM 14.77 58.586 0.37 7.54 448.49 9.29
9/11/2021 4:00:00 AM 14.73 58.514 0.371 7.54 454.79 9.35
9/11/2021 4:15:00 AM 14.68 58.424 0.37 7.54 454.03 9.33
9/11/2021 4:30:00 AM 14.64 58.352 0.371 7.55 449.76 9.34
9/11/2021 4:45:00 AM 14.58 58.244 0.371 7.54 456.63 9.38
9/11/2021 5:00:00 AM 14.54 58.172 0.371 7.52 457.58 9.4
9/11/2021 5:15:00 AM 14.49 58.082 0.371 7.52 456.05 9.34
9/11/2021 5:30:00 AM 14.44 57.992 0.371 7.51 461.55 9.41
9/11/2021 5:45:00 AM 14.39 57.902 0.372 7.49 460.59 9.35
9/11/2021 6:00:00 AM 14.32 57.776 0.372 7.49 480.87 9.43
9/11/2021 6:15:00 AM 14.27 57.686 0.372 7.52 455.74 9.48
9/11/2021 6:30:00 AM 14.21 57.578 0.372 7.54 457.58 9.41
9/11/2021 6:45:00 AM 14.15 57.47 0.372 7.56 455.65 9.44
9/11/2021 7:00:00 AM 14.1 57.38 0.373 7.56 454.7 9.4
9/11/2021 7:15:00 AM 14.04 57.272 0.373 7.56 466.14 9.5
9/11/2021 7:30:00 AM 13.99 57.182 0.373 7.57 444.66 9.57
9/11/2021 7:45:00 AM 13.94 57.092 0.373 7.58 440.85 9.46
9/11/2021 8:00:00 AM 13.9 57.02 0.373 7.56 444.26 9.61
9/11/2021 8:15:00 AM 13.87 56.966 0.373 7.57 446.45 9.64
9/11/2021 8:30:00 AM 14.06 57.308 0.372 7.58 443.85 9.73
9/11/2021 8:45:00 AM 14.03 57.254 0.372 7.59 439 9.83
9/11/2021 9:00:00 AM 14.04 57.272 0.372 7.6 431.39 9.8
9/11/2021 9:15:00 AM 14.04 57.272 0.372 7.58 440.25 9.98
9/11/2021 9:30:00 AM 14.05 57.29 0.372 7.59 442.28 9.98
9/11/2021 9:45:00 AM 14.08 57.344 0.372 7.6 427.57 10.06
9/11/2021 10:00:00 AM 14.19 57.542 0.372 7.58 429.42 9.99
9/11/2021 10:15:00 AM 14.26 57.668 0.372 7.55 442.15 9.93
9/11/2021 10:30:00 AM 14.34 57.812 0.373 7.52 448.2 10.13
9/11/2021 10:45:00 AM 14.38 57.884 0.373 7.54 424.91 10.14
9/11/2021 11:00:00 AM 14.47 58.046 0.373 7.54 422.97 10.13
9/11/2021 11:15:00 AM 14.55 58.19 0.373 7.51 420.11 8.9
9/11/2021 11:30:00 AM 14.63 58.334 0.374 7.5 418.77 9.89
9/11/2021 11:45:00 AM 14.72 58.496 0.374 7.51 423.65 10.23
9/11/2021 12:00:00 PM 14.85 58.73 0.374 7.56 411.39 10.16
9/11/2021 12:15:00 PM 15.02 59.036 0.374 7.57 413.08 10.04
9/11/2021 12:30:00 PM 15.18 59.324 0.374 7.56 412.24 9.87
9/11/2021 12:45:00 PM 15.38 59.684 0.374 7.55 408.81 10.26
9/11/2021 1:00:00 PM 15.6 60.08 0.374 7.57 410.48 10.21
9/11/2021 1:15:00 PM 15.83 60.494 0.374 7.6 400.04 9.95
9/11/2021 1:30:00 PM 15.93 60.674 0.374 7.64 393.59 10.26
9/11/2021 1:45:00 PM 16.04 60.872 0.374 7.65 396.4 10.37
9/11/2021 2:00:00 PM 16.17 61.106 0.374 7.67 386.47 10.24
9/11/2021 2:15:00 PM 16.33 61.394 0.374 7.65 409.31 10.24
9/11/2021 2:30:00 PM 16.54 61.772 0.374 7.66 386.26 10.2
9/11/2021 2:45:00 PM 16.74 62.132 0.374 7.66 380.84 10.24
9/11/2021 3:00:00 PM 16.84 62.312 0.375 7.65 384.32 10.22
9/11/2021 3:15:00 PM 17.06 62.708 0.374 7.66 379.58 10.22
9/11/2021 3:30:00 PM 17.27 63.086 0.375 7.66 381.57 10.28
9/11/2021 3:45:00 PM 17.42 63.356 0.375 7.66 383.14 10.22
9/11/2021 4:00:00 PM 17.51 63.518 0.375 7.65 376.99 9.96
9/11/2021 4:15:00 PM 17.6 63.68 0.375 7.62 373.24 10.04
9/11/2021 4:30:00 PM 17.73 63.914 0.376 7.59 366.42 9.91
9/11/2021 4:45:00 PM 17.81 64.058 0.376 7.59 389.38 9.56
9/11/2021 5:00:00 PM 17.86 64.148 0.375 7.6 367.79 9.9
9/11/2021 5:15:00 PM 17.83 64.094 0.376 7.57 360.02 9.63
9/11/2021 5:30:00 PM 17.78 64.004 0.375 7.61 341.28 9.44
9/11/2021 5:45:00 PM 17.73 63.914 0.376 7.58 319.55 9.53
9/11/2021 6:00:00 PM 17.68 63.824 0.376 7.56 322.18 9.41
9/11/2021 6:15:00 PM 17.63 63.734 0.377 7.53 255.21 8.93
9/11/2021 6:30:00 PM 17.57 63.626 0.377 7.5 258.38 9
9/11/2021 6:45:00 PM 17.49 63.482 0.377 7.5 249.15 8.72
9/11/2021 7:00:00 PM 17.41 63.338 0.377 7.49 234.41 9.14
9/11/2021 7:15:00 PM 17.33 63.194 0.377 7.49 242.5 8.85
9/11/2021 7:30:00 PM 17.26 63.068 0.378 7.49 244.49 8.69
9/11/2021 7:45:00 PM 17.2 62.96 0.379 7.46 228.84 8.77
9/11/2021 8:00:00 PM 17.14 62.852 0.373 7.46 235.06 8.93
9/11/2021 8:15:00 PM 17.09 62.762 0.378 7.45 234.66 8.84
9/11/2021 8:30:00 PM 17.04 62.672 0.375 7.42 235.24 8.89
9/11/2021 8:45:00 PM 17.01 62.618 0.378 7.43 235.53 8.56
9/11/2021 9:00:00 PM 16.97 62.546 0.378 7.44 241.77 8.88
9/11/2021 9:15:00 PM 16.93 62.474 0.372 7.43 237.9 8.79
9/11/2021 9:30:00 PM 16.9 62.42 0.378 7.41 249.88 8.87
9/11/2021 9:45:00 PM 16.86 62.348 0.378 7.41 260.28 8.84
9/11/2021 10:00:00 PM 16.81 62.258 0.378 7.41 258.17 8.73
9/11/2021 10:15:00 PM 16.76 62.168 0.378 7.39 261.35 8.88
9/11/2021 10:30:00 PM 16.72 62.096 0.378 7.39 264.15 8.74
9/11/2021 10:45:00 PM 16.68 62.024 0.375 7.38 281.06 8.87
9/11/2021 11:00:00 PM 16.62 61.916 0.378 7.39 278.3 8.93
9/11/2021 11:15:00 PM 16.57 61.826 0.378 7.38 277.46 8.91
9/11/2021 11:30:00 PM 16.51 61.718 0.371 7.38 279.21 8.9
9/11/2021 11:45:00 PM 16.46 61.628 0.378 7.38 282.33 8.87
9/12/2021 12:00:00 AM 16.38 61.484 0.378 7.39 284.75 8.95
9/12/2021 12:15:00 AM 16.33 61.394 0.377 7.4 290.27 8.78
9/12/2021 12:30:00 AM 16.26 61.268 0.379 7.4 283.36 8.82
9/12/2021 12:45:00 AM 16.18 61.124 0.378 7.39 287.15 8.88
9/12/2021 1:00:00 AM 16.11 60.998 0.379 7.39 280.64 8.9
9/12/2021 1:15:00 AM 16.02 60.836 0.375 7.38 278.87 8.99
9/12/2021 1:30:00 AM 15.95 60.71 0.377 7.37 280.65 9.02
9/12/2021 1:45:00 AM 15.88 60.584 0.377 7.37 281.28 8.76
9/12/2021 2:00:00 AM 15.82 60.476 0.377 7.36 283.97 9.06
9/12/2021 2:15:00 AM 15.76 60.368 0.377 7.37 285.77 9.06
9/12/2021 2:30:00 AM 15.71 60.278 0.377 7.36 286.77 8.95
9/12/2021 2:45:00 AM 15.67 60.206 0.377 7.36 288.13 9.06
9/12/2021 3:00:00 AM 15.61 60.098 0.378 7.35 299.07 9.13
9/12/2021 3:15:00 AM 15.56 60.008 0.371 7.35 303.32 9.08
9/12/2021 3:30:00 AM 15.51 59.918 0.378 7.35 302.02 9.08
9/12/2021 3:45:00 AM 15.47 59.846 0.379 7.34 305.72 9.13
9/12/2021 4:00:00 AM 15.43 59.774 0.379 7.34 298.68 8.96
9/12/2021 4:15:00 AM 15.38 59.684 0.378 7.34 296.38 9.16
9/12/2021 4:30:00 AM 15.34 59.612 0.377 7.34 300.99 9.12
9/12/2021 4:45:00 AM 15.3 59.54 0.378 7.34 290.65 8.89
9/12/2021 5:00:00 AM 15.27 59.486 0.379 7.35 283.27 9.01
9/12/2021 5:15:00 AM 15.23 59.414 0.379 7.35 285.81 9.15
9/12/2021 5:30:00 AM 15.2 59.36 0.38 7.35 270.28 9.03
9/12/2021 5:45:00 AM 15.17 59.306 0.38 7.37 267.75 8.96
9/12/2021 6:00:00 AM 15.14 59.252 0.38 7.38 270.69 9.02
9/12/2021 6:15:00 AM 15.12 59.216 0.38 7.39 260.58 9.04
9/12/2021 6:30:00 AM 15.09 59.162 0.379 7.4 254.56 9.18
9/12/2021 6:45:00 AM 15.05 59.09 0.38 7.4 255.79 9.05
9/12/2021 7:00:00 AM 15.03 59.054 0.381 7.4 255.27 9.02
9/12/2021 7:15:00 AM 15 59 0.38 7.38 262.35 9.03
9/12/2021 7:30:00 AM 14.99 58.982 0.381 7.37 271.72 8.9
9/12/2021 7:45:00 AM 14.97 58.946 0.381 7.37 264.73 9.01
9/12/2021 8:00:00 AM 14.97 58.946 0.381 7.38 262.48 9.17
9/12/2021 8:15:00 AM 14.97 58.946 0.38 7.38 265.83 9.19
9/12/2021 8:30:00 AM 14.98 58.964 0.381 7.38 261.93 9.37
9/12/2021 8:45:00 AM 15.02 59.036 0.381 7.39 263 9.31
9/12/2021 9:00:00 AM 15.06 59.108 0.381 7.41 255.32 9.52
9/12/2021 9:15:00 AM 15.11 59.198 0.381 7.4 255.15 9.34
9/12/2021 9:30:00 AM 15.17 59.306 0.38 7.42 250.99 9.65
9/12/2021 9:45:00 AM 15.24 59.432 0.381 7.42 255.64 9.32
9/12/2021 10:00:00 AM 15.36 59.648 0.381 7.43 256.8 8.83
9/12/2021 10:15:00 AM 15.45 59.81 0.382 7.45 253.51 9.62
9/12/2021 10:30:00 AM 15.56 60.008 0.38 7.45 251.64 9.28
9/12/2021 10:45:00 AM 15.67 60.206 0.38 7.43 247.25 9.69
9/12/2021 11:00:00 AM 15.79 60.422 0.38 7.44 247.43 9.8
9/12/2021 11:15:00 AM 15.92 60.656 0.38 7.43 247.36 9.9
9/12/2021 11:30:00 AM 16.07 60.926 0.38 7.44 248.96 9.52
9/12/2021 11:45:00 AM 16.18 61.124 0.38 7.45 248.33 10.1
9/12/2021 12:00:00 PM 16.26 61.268 0.38 7.44 250.91 10.11
9/12/2021 12:15:00 PM 16.38 61.484 0.38 7.44 253.78 9.87
9/12/2021 12:30:00 PM 16.53 61.754 0.38 7.45 253.49 10.21
9/12/2021 12:45:00 PM 16.73 62.114 0.381 7.46 252.26 10.2
9/12/2021 1:00:00 PM 16.86 62.348 0.381 7.46 255.02 10.19
9/12/2021 1:15:00 PM 17.08 62.744 0.381 7.46 263.98 10.14
9/12/2021 1:30:00 PM 17.25 63.05 0.381 7.45 256.69 10.06
9/12/2021 1:45:00 PM 17.46 63.428 0.381 7.48 249.36 10.11
9/12/2021 2:00:00 PM 17.73 63.914 0.382 7.49 261.45 10.2
9/12/2021 2:15:00 PM 17.95 64.31 0.382 7.5 275.65 10.08
9/12/2021 2:30:00 PM 18.04 64.472 0.382 7.5 276.27 9.99
9/12/2021 2:45:00 PM 18.26 64.868 0.382 7.49 276.04 9.64
9/12/2021 3:00:00 PM 18.46 65.228 0.382 7.49 279.25 10.12
9/12/2021 3:15:00 PM 18.68 65.624 0.382 7.5 292.64 10.11
9/12/2021 3:30:00 PM 18.84 65.912 0.383 7.52 307.19 9.95
9/12/2021 3:45:00 PM 18.96 66.128 0.383 7.51 298.97 9.92
9/12/2021 4:00:00 PM 19.06 66.308 0.383 7.5 299.61 9.25
9/12/2021 4:15:00 PM 19.12 66.416 0.384 7.51 306.77 9.55
9/12/2021 4:30:00 PM 19.2 66.56 0.385 7.5 309.99 9.56
9/12/2021 4:45:00 PM 19.31 66.758 0.384 7.49 310.49 9.62
9/12/2021 5:00:00 PM 19.35 66.83 0.384 7.51 313.09 9.29
9/12/2021 5:15:00 PM 19.36 66.848 0.385 7.52 322.67 9.47
9/12/2021 5:30:00 PM 19.35 66.83 0.385 7.51 339.14 9.38
9/12/2021 5:45:00 PM 19.33 66.794 0.384 7.52 318.42 8.97
9/12/2021 6:00:00 PM 19.31 66.758 0.384 7.52 367.56 9.05
9/12/2021 6:15:00 PM 19.31 66.758 0.386 7.5 408.08 9.02
9/12/2021 6:30:00 PM 19.29 66.722 0.386 7.49 402.86 8.75
9/12/2021 6:45:00 PM 19.26 66.668 0.386 7.49 281.41 8.27
9/12/2021 7:00:00 PM 19.2 66.56 0.387 7.48 281.59 8.27
9/12/2021 7:15:00 PM 19.15 66.47 0.387 7.49 291.13 8.49
9/12/2021 7:30:00 PM 19.1 66.38 0.387 7.49 279.11 7.97
9/12/2021 7:45:00 PM 19.04 66.272 0.386 7.49 269.52 8.53
9/12/2021 8:00:00 PM 18.98 66.164 0.383 7.47 249.32 8.25
9/12/2021 8:15:00 PM 18.92 66.056 0.386 7.48 249.4 8.46
9/12/2021 8:30:00 PM 18.89 66.002 0.388 7.48 243.19 8.18
9/12/2021 8:45:00 PM 18.85 65.93 0.386 7.45 251.01 8.13
9/12/2021 9:00:00 PM 18.82 65.876 0.388 7.45 245.59 7.63
9/12/2021 9:15:00 PM 18.78 65.804 0.39 7.44 242.17 7.95
9/12/2021 9:30:00 PM 18.75 65.75 0.389 7.43 240.12 8.07
9/12/2021 9:45:00 PM 18.72 65.696 0.39 7.43 232.86 8.21
9/12/2021 10:00:00 PM 18.69 65.642 0.386 7.42 225.01 8.14
9/12/2021 10:15:00 PM 18.67 65.606 0.388 7.41 221.54 7.89
9/12/2021 10:30:00 PM 18.66 65.588 0.391 7.42 221.06 8.12
9/12/2021 10:45:00 PM 18.64 65.552 0.391 7.41 219.79 7.11
9/12/2021 11:00:00 PM 18.61 65.498 0.391 7.42 215.4 8.11
9/12/2021 11:15:00 PM 18.58 65.444 0.39 7.41 221.16 7.82
9/12/2021 11:30:00 PM 18.54 65.372 0.391 7.41 217.46 7.89
9/12/2021 11:45:00 PM 18.51 65.318 0.384 7.42 221.09 8.24
9/13/2021 12:00:00 AM 18.47 65.246 0.392 7.41 211.44 7.31
9/13/2021 12:15:00 AM 18.43 65.174 0.39 7.41 210.77 7.28
9/13/2021 12:30:00 AM 18.39 65.102 0.391 7.41 209.47 7.83
9/13/2021 12:45:00 AM 18.34 65.012 0.393 7.4 209.94 8.29
9/13/2021 1:00:00 AM 18.29 64.922 0.39 7.4 207.81 7.54
9/13/2021 1:15:00 AM 18.23 64.814 0.393 7.39 205.75 8.11
9/13/2021 1:30:00 AM 18.19 64.742 0.393 7.39 199.27 8.1
9/13/2021 1:45:00 AM 18.16 64.688 0.39 7.38 195.34 8.01
9/13/2021 2:00:00 AM 18.12 64.616 0.394 7.39 198.46 8.18
9/13/2021 2:15:00 AM 18.08 64.544 0.391 7.39 196.97 8.3
9/13/2021 2:30:00 AM 18.05 64.49 0.393 7.39 194.98 8.25
9/13/2021 2:45:00 AM 18.01 64.418 0.393 7.4 193.52 8.26
9/13/2021 3:00:00 AM 17.96 64.328 0.393 7.39 190.26 8.38
9/13/2021 3:15:00 AM 17.93 64.274 0.393 7.39 190.26 8.38
9/13/2021 3:30:00 AM 17.91 64.238 0.391 7.41 193.91 8.09
9/13/2021 3:45:00 AM 17.89 64.202 0.395 7.4 192.17 8.49
9/13/2021 4:00:00 AM 17.87 64.166 0.392 7.4 191.15 8.47
9/13/2021 4:15:00 AM 17.85 64.13 0.394 7.4 192.34 8.55
9/13/2021 4:30:00 AM 17.84 64.112 0.395 7.4 188.84 8.44
9/13/2021 4:45:00 AM 17.82 64.076 0.395 7.39 187.48 8.37
9/13/2021 5:00:00 AM 17.8 64.04 0.394 7.4 187.14 8.52
9/13/2021 5:15:00 AM 17.77 63.986 0.392 7.39 188.13 8.41
9/13/2021 5:30:00 AM 17.76 63.968 0.394 7.4 186.68 8.42
9/13/2021 5:45:00 AM 17.74 63.932 0.396 7.4 186.92 8.46
9/13/2021 6:00:00 AM 17.71 63.878 0.396 7.39 186.62 8.44
9/13/2021 6:15:00 AM 17.69 63.842 0.394 7.39 188.89 8.26
9/13/2021 6:30:00 AM 17.67 63.806 0.396 7.39 192.36 7.7
9/13/2021 6:45:00 AM 17.65 63.77 0.397 7.4 189.2 7.48
9/13/2021 7:00:00 AM 17.64 63.752 0.397 7.39 190.71 8.14
9/13/2021 7:15:00 AM 17.62 63.716 0.397 7.39 182.15 7.7
9/13/2021 7:30:00 AM 17.61 63.698 0.397 7.39 181.42 7.76
9/13/2021 7:45:00 AM 17.6 63.68 0.397 7.38 161.14 7.86
9/13/2021 8:00:00 AM 17.59 63.662 0.396 7.39 160.17 8.12
9/13/2021 8:15:00 AM 17.61 63.698 0.397 7.39 166.77 8.29
9/13/2021 8:30:00 AM 17.63 63.734 0.397 7.4 167.89 8.03
9/13/2021 8:45:00 AM 17.68 63.824 0.397 7.39 167.44 8.2
9/13/2021 9:00:00 AM 17.74 63.932 0.397 7.4 161.76 8.57
9/13/2021 9:15:00 AM 17.79 64.022 0.397 7.4 158.58 8.84
9/13/2021 9:30:00 AM 17.84 64.112 0.397 7.41 157.96 8.58
9/13/2021 9:45:00 AM 17.89 64.202 0.397 7.42 157.18 8.66
9/13/2021 10:00:00 AM 17.97 64.346 0.397 7.43 155.37 8.98
9/13/2021 10:15:00 AM 18.03 64.454 0.397 7.43 157.04 8.85
9/13/2021 10:30:00 AM 18.11 64.598 0.397 7.42 153.45 8.7
9/13/2021 10:45:00 AM 18.19 64.742 0.397 7.43 152.88 9.18
9/13/2021 11:00:00 AM -99999.99 -179968 -99999.99 -99999.99 -99999.99 -99999.99
9/13/2021 11:15:00 AM 18.56 65.408 0.409 8.05 4.48 9.67
9/13/2021 11:30:00 AM 18.61 65.498 0.41 8.05 9.59 9.65
9/13/2021 11:45:00 AM 18.68 65.624 0.41 8.11 6.69 9.73
9/13/2021 12:00:00 PM 18.79 65.82201 0.41 8.14 5.35 9.85
9/13/2021 12:15:00 PM 18.88 65.984 0.41 8.15 5.24 9.88
9/13/2021 12:30:00 PM 19 66.2 0.41 8.16 4.74 9.89
9/13/2021 12:45:00 PM 19.13 66.434 0.41 8.19 4.89 9.9
9/13/2021 1:00:00 PM 19.21 66.578 0.41 8.19 5 9.87
9/13/2021 1:15:00 PM 19.51 67.118 0.41 8.19 6.91 9.9
9/13/2021 1:30:00 PM 19.58 67.244 0.41 8.22 5.06 9.95
9/13/2021 1:45:00 PM 19.65 67.37 0.41 8.23 4.68 9.91
9/13/2021 2:00:00 PM 19.97 67.946 0.41 8.23 4.4 9.92
9/13/2021 2:15:00 PM 20.17 68.306 0.41 8.24 4.51 9.97
9/13/2021 2:30:00 PM 20.38 68.684 0.41 8.27 4.54 9.99
9/13/2021 2:45:00 PM 20.56 69.008 0.41 8.29 4.97 9.98
9/13/2021 3:00:00 PM 20.62 69.116 0.41 8.3 4.32 9.96
9/13/2021 3:15:00 PM 20.67 69.206 0.41 8.31 4.36 9.92
9/13/2021 3:30:00 PM 20.63 69.134 0.41 8.29 4.37 9.85
9/13/2021 3:45:00 PM 20.68 69.224 0.411 8.29 4.52 9.78
9/13/2021 4:00:00 PM 20.66 69.188 0.411 8.28 4.34 9.73
9/13/2021 4:15:00 PM 20.69 69.242 0.411 8.3 4.28 9.67
9/13/2021 4:30:00 PM 20.66 69.188 0.411 8.28 4.42 9.59
9/13/2021 4:45:00 PM 20.65 69.17 0.411 8.27 4.4 9.45
9/13/2021 5:00:00 PM 20.64 69.152 0.412 8.25 4.4 9.3
9/13/2021 5:15:00 PM 20.65 69.17 0.412 8.23 4.3 9.25
9/13/2021 5:30:00 PM 20.71 69.278 0.412 8.22 4.26 9.2
9/13/2021 5:45:00 PM 20.72 69.296 0.412 8.21 4.26 9.15
9/13/2021 6:00:00 PM 20.68 69.224 0.412 8.19 4.26 9.13
9/13/2021 6:15:00 PM 20.63 69.134 0.412 8.16 4.23 9.06
9/13/2021 6:30:00 PM 20.58 69.044 0.412 8.13 4.22 8.94
9/13/2021 6:45:00 PM 20.53 68.954 0.413 8.11 4.31 8.82
9/13/2021 7:00:00 PM 20.5 68.9 0.413 8.06 4.32 8.72
9/13/2021 7:15:00 PM 20.48 68.864 0.413 8.05 4.17 8.61
9/13/2021 7:30:00 PM 20.47 68.846 0.414 8.02 4.27 8.55
9/13/2021 7:45:00 PM 20.45 68.81 0.414 7.98 4.53 8.49
9/13/2021 8:00:00 PM 20.44 68.792 0.414 7.99 4.72 8.42
9/13/2021 8:15:00 PM 20.42 68.756 0.414 7.97 4.41 8.41
9/13/2021 8:30:00 PM 20.42 68.756 0.414 7.96 4.43 8.37
9/13/2021 8:45:00 PM 20.41 68.738 0.415 7.95 4.41 8.32
9/13/2021 9:00:00 PM 20.4 68.72 0.415 7.93 4.44 8.28
9/13/2021 9:15:00 PM 20.38 68.684 0.415 7.93 4.18 8.34
9/13/2021 9:30:00 PM 20.35 68.63 0.416 7.91 4.14 8.31
9/13/2021 9:45:00 PM 20.31 68.558 0.416 7.91 4.23 8.33
9/13/2021 10:00:00 PM 20.27 68.486 0.416 7.89 4.33 8.32
9/13/2021 10:15:00 PM 20.22 68.396 0.416 7.89 4.22 8.33
9/13/2021 10:30:00 PM 20.17 68.306 0.416 7.88 4.17 8.3
9/13/2021 10:45:00 PM 20.12 68.216 0.417 7.89 4.25 8.25
9/13/2021 11:00:00 PM 20.08 68.144 0.417 7.89 4.26 8.32
9/13/2021 11:15:00 PM 20.03 68.054 0.417 7.89 4.19 8.34
9/13/2021 11:30:00 PM 19.97 67.946 0.418 7.89 4.17 8.33
9/13/2021 11:45:00 PM 19.92 67.856 0.418 7.89 4.19 8.36
9/14/2021 12:00:00 AM 19.87 67.766 0.418 7.87 4.23 8.37
9/14/2021 12:15:00 AM 19.83 67.694 0.419 7.88 4.28 8.36
9/14/2021 12:30:00 AM 19.8 67.64 0.419 7.89 4.25 8.39
9/14/2021 12:45:00 AM 19.78 67.604 0.419 7.87 4.15 8.36
9/14/2021 1:00:00 AM 19.74 67.532 0.42 7.88 4.21 8.42
9/14/2021 1:15:00 AM 19.7 67.46 0.42 7.89 4.35 8.37
9/14/2021 1:30:00 AM 19.67 67.406 0.42 7.88 4.27 8.38
9/14/2021 1:45:00 AM 19.64 67.352 0.421 7.88 4.18 8.43
9/14/2021 2:00:00 AM 19.6 67.28 0.421 7.88 4.34 8.4
9/14/2021 2:15:00 AM 19.55 67.19 0.421 7.87 4.19 8.43
9/14/2021 2:30:00 AM 19.48 67.064 0.422 7.88 4.16 8.42
9/14/2021 2:45:00 AM 19.42 66.956 0.422 7.87 4.02 8.42
9/14/2021 3:00:00 AM 19.36 66.848 0.423 7.87 4.33 8.46
9/14/2021 3:15:00 AM 19.3 66.74 0.423 7.86 4.56 8.48
9/14/2021 3:30:00 AM 19.24 66.632 0.423 7.86 4.75 8.48
9/14/2021 3:45:00 AM 19.18 66.524 0.423 7.85 4.57 8.48
9/14/2021 4:00:00 AM 19.13 66.434 0.423 7.87 4.42 8.47
9/14/2021 4:15:00 AM 19.09 66.362 0.423 7.85 4.39 8.48
9/14/2021 4:30:00 AM 19.04 66.272 0.424 7.87 4.24 8.48
9/14/2021 4:45:00 AM 18.99 66.182 0.424 7.87 4.25 8.52
9/14/2021 5:00:00 AM 18.94 66.092 0.424 7.86 4.24 8.55
9/14/2021 5:15:00 AM 18.9 66.02 0.424 7.87 4.18 8.55
9/14/2021 5:30:00 AM 18.87 65.966 0.424 7.88 4.26 8.48
9/14/2021 5:45:00 AM 18.83 65.894 0.425 7.86 4.37 8.52
9/14/2021 6:00:00 AM 18.79 65.82201 0.425 7.86 4.29 8.56
9/14/2021 6:15:00 AM 18.76 65.768 0.425 7.87 4.41 8.55
9/14/2021 6:30:00 AM 18.72 65.696 0.425 7.87 4.44 8.6
9/14/2021 6:45:00 AM 18.68 65.624 0.425 7.87 4.52 8.6
9/14/2021 7:00:00 AM 18.65 65.57 0.425 7.87 4.84 8.59
9/14/2021 7:15:00 AM 18.61 65.498 0.426 7.87 4.3 8.59
9/14/2021 7:30:00 AM 18.58 65.444 0.425 7.87 4.36 8.64
9/14/2021 7:45:00 AM 18.55 65.39 0.425 7.88 4.4 8.55
9/14/2021 8:00:00 AM 18.53 65.354 0.425 7.88 4.2 8.7
9/14/2021 8:15:00 AM 18.51 65.318 0.425 7.89 4.34 8.78
9/14/2021 8:30:00 AM 18.49 65.282 0.425 7.9 4.14 8.73
9/14/2021 8:45:00 AM 18.5 65.3 0.425 7.89 5.14 8.9
9/14/2021 9:00:00 AM 18.53 65.354 0.425 7.91 4.36 8.95
9/14/2021 9:15:00 AM 18.54 65.372 0.425 7.94 4.11 9.03
9/14/2021 9:30:00 AM 18.58 65.444 0.425 7.95 4.12 9.12
9/14/2021 9:45:00 AM 18.62 65.516 0.425 7.97 4.14 9.23
9/14/2021 10:00:00 AM 18.73 65.714 0.425 7.99 4.06 9.3
9/14/2021 10:15:00 AM 18.84 65.912 0.425 7.99 4.09 9.39
9/14/2021 10:30:00 AM 18.91 66.038 0.425 8.01 4.15 9.43
9/14/2021 10:45:00 AM 18.99 66.182 0.425 8.05 4.01 9.49
9/14/2021 11:00:00 AM 19.1 66.38 0.425 8.06 4.01 9.61
9/14/2021 11:15:00 AM 19.23 66.614 0.425 8.08 4.17 9.55
9/14/2021 11:30:00 AM 19.36 66.848 0.425 8.09 4.07 9.66
9/14/2021 11:45:00 AM 19.5 67.1 0.425 8.11 3.95 9.72
9/14/2021 12:00:00 PM 19.64 67.352 0.425 8.14 3.99 9.69
9/14/2021 12:15:00 PM 19.75 67.55 0.426 8.15 4.04 9.73
9/14/2021 12:30:00 PM 19.88 67.784 0.426 8.16 4.02 9.71
9/14/2021 12:45:00 PM 20.05 68.09 0.426 8.16 4.25 9.65
9/14/2021 1:00:00 PM 20.18 68.324 0.426 8.19 3.94 9.77
9/14/2021 1:15:00 PM 20.35 68.63 0.426 8.2 4.14 9.7
9/14/2021 1:30:00 PM 20.46 68.828 0.426 8.21 4.13 9.78
9/14/2021 1:45:00 PM 20.58 69.044 0.426 8.23 4.16 9.76
9/14/2021 2:00:00 PM 20.78 69.404 0.426 8.24 4.17 9.8
9/14/2021 2:15:00 PM 20.9 69.62 0.426 8.26 4.07 9.72
9/14/2021 2:30:00 PM 20.94 69.692 0.427 8.25 4.11 9.79
9/14/2021 2:45:00 PM 20.96 69.728 0.428 8.27 4.02 9.72
9/14/2021 3:00:00 PM 21.1 69.98 0.43 8.28 4.07 9.65
9/14/2021 3:15:00 PM 21.2 70.16 0.431 8.3 3.97 9.72
9/14/2021 3:30:00 PM 21.34 70.412 0.43 8.29 3.99 9.73
9/14/2021 3:45:00 PM 21.28 70.304 0.429 8.29 4.06 9.64
9/14/2021 4:00:00 PM 21.39 70.502 0.428 8.29 4.1 9.53
9/14/2021 4:15:00 PM 21.48 70.664 0.428 8.3 4.06 9.58
9/14/2021 4:30:00 PM 21.49 70.682 0.427 8.29 4.03 9.53
9/14/2021 4:45:00 PM 21.51 70.718 0.427 8.3 4.1 9.45
9/14/2021 5:00:00 PM 21.57 70.826 0.427 8.3 4.07 9.41
9/14/2021 5:15:00 PM 21.57 70.826 0.428 8.28 3.96 9.33
9/14/2021 5:30:00 PM 21.54 70.772 0.428 8.28 4.01 9.25
9/14/2021 5:45:00 PM 21.51 70.718 0.428 8.25 4.2 9.11
9/14/2021 6:00:00 PM 21.48 70.664 0.428 8.23 4.24 8.98
9/14/2021 6:15:00 PM 21.45 70.61 0.428 8.19 4.23 8.88
9/14/2021 6:30:00 PM 21.42 70.556 0.429 8.18 4.21 8.8
9/14/2021 6:45:00 PM 21.39 70.502 0.429 8.15 5.34 8.69
9/14/2021 7:00:00 PM 21.35 70.43 0.429 8.14 4.06 8.63
9/14/2021 7:15:00 PM 21.28 70.304 0.43 8.12 4.23 8.52
9/14/2021 7:30:00 PM 21.2 70.16 0.43 8.08 4.25 8.45
9/14/2021 7:45:00 PM 21.12 70.016 0.43 8.06 4.14 8.38
9/14/2021 8:00:00 PM 21.04 69.872 0.43 8.03 4.34 8.32
9/14/2021 8:15:00 PM 20.97 69.746 0.431 8.02 4.21 8.13
9/14/2021 8:30:00 PM 20.9 69.62 0.431 8.01 4.06 8.23
9/14/2021 8:45:00 PM 20.84 69.512 0.431 7.99 4.13 8.18
9/14/2021 9:00:00 PM 20.77 69.386 0.431 7.98 4.25 8.16
9/14/2021 9:15:00 PM 20.7 69.26 0.432 7.98 4.2 8.2
9/14/2021 9:30:00 PM 20.64 69.152 0.431 7.98 3.41 8.2
9/14/2021 9:45:00 PM 20.58 69.044 0.432 7.96 4.14 8.2
9/14/2021 10:00:00 PM 20.52 68.936 0.432 7.97 4.07 8.22
9/14/2021 10:15:00 PM 20.47 68.846 0.432 7.95 4.07 8.21
9/14/2021 10:30:00 PM 20.41 68.738 0.432 7.95 4.01 8.21
9/14/2021 10:45:00 PM 20.35 68.63 0.432 7.95 4.1 8.19
9/14/2021 11:00:00 PM 20.3 68.54 0.432 7.94 4.22 8.2
9/14/2021 11:15:00 PM 20.24 68.432 0.433 7.94 4.12 8.2
9/14/2021 11:30:00 PM 20.19 68.342 0.433 7.93 3.96 8.23
9/14/2021 11:45:00 PM 20.14 68.252 0.433 7.93 4.06 8.24
9/15/2021 12:00:00 AM 20.07 68.126 0.434 7.92 4.04 8.22
9/15/2021 12:15:00 AM 20.01 68.018 0.434 7.93 4.19 8.21
9/15/2021 12:30:00 AM 19.96 67.92799 0.434 7.92 4.26 8.25
9/15/2021 12:45:00 AM 19.9 67.82 0.434 7.91 4.04 8.24
9/15/2021 1:00:00 AM 19.83 67.694 0.435 7.91 4.34 8.24
9/15/2021 1:15:00 AM 19.77 67.586 0.435 7.91 4.09 8.28
9/15/2021 1:30:00 AM 19.71 67.478 0.436 7.91 3.96 8.3
9/15/2021 1:45:00 AM 19.64 67.352 0.436 7.9 4.11 8.29
9/15/2021 2:00:00 AM 19.57 67.226 0.436 7.91 4.12 8.31
9/15/2021 2:15:00 AM 19.51 67.118 0.436 7.91 4.06 8.33
9/15/2021 2:30:00 AM 19.44 66.992 0.437 7.9 4.09 8.34
9/15/2021 2:45:00 AM 19.37 66.866 0.437 7.9 4.1 8.38
9/15/2021 3:00:00 AM 19.3 66.74 0.438 7.9 4.04 8.39
9/15/2021 3:15:00 AM 19.22 66.596 0.438 7.9 4.21 8.36
9/15/2021 3:30:00 AM 19.15 66.47 0.438 7.89 4.06 8.39
9/15/2021 3:45:00 AM 19.09 66.362 0.438 7.89 4.15 8.43
9/15/2021 4:00:00 AM 19.01 66.218 0.439 7.89 4.05 8.41
9/15/2021 4:15:00 AM 18.94 66.092 0.439 7.89 4.07 8.45
9/15/2021 4:30:00 AM 18.88 65.984 0.439 7.89 4.09 8.47
9/15/2021 4:45:00 AM 18.81 65.858 0.44 7.89 3.97 8.44
9/15/2021 5:00:00 AM 18.74 65.732 0.44 7.89 4.05 8.47
9/15/2021 5:15:00 AM 18.68 65.624 0.44 7.88 4.13 8.49
9/15/2021 5:30:00 AM 18.62 65.516 0.44 7.89 4.24 8.5
9/15/2021 5:45:00 AM 18.56 65.408 0.44 7.89 4.07 8.48
9/15/2021 6:00:00 AM 18.49 65.282 0.44 7.9 4.07 8.5
9/15/2021 6:15:00 AM 18.44 65.192 0.44 7.89 4.25 8.51
9/15/2021 6:30:00 AM 18.39 65.102 0.441 7.89 4.13 8.53
9/15/2021 6:45:00 AM 18.35 65.03 0.441 7.89 4.19 8.52
9/15/2021 7:00:00 AM 18.31 64.958 0.441 7.89 4.24 8.57
9/15/2021 7:15:00 AM 18.27 64.886 0.441 7.88 4.11 8.61
9/15/2021 7:30:00 AM 18.27 64.886 0.441 7.89 4.1 8.56
9/15/2021 7:45:00 AM 18.28 64.904 0.441 7.89 4.18 8.64
9/15/2021 8:00:00 AM 18.28 64.904 0.441 7.9 4.12 8.61
9/15/2021 8:15:00 AM 18.28 64.904 0.441 7.91 3.93 8.72
9/15/2021 8:30:00 AM 18.3 64.94 0.441 7.91 4.09 8.84
9/15/2021 8:45:00 AM 18.32 64.976 0.441 7.94 4.12 8.89
9/15/2021 9:00:00 AM 18.36 65.048 0.441 7.94 4.05 8.98
9/15/2021 9:15:00 AM 18.43 65.174 0.44 7.95 4.27 9.07
9/15/2021 9:30:00 AM 18.44 65.192 0.441 7.97 4.16 9.07
9/15/2021 9:45:00 AM 18.49 65.282 0.44 7.98 4 9.17
9/15/2021 10:00:00 AM 18.61 65.498 0.44 7.99 4.01 9.23
9/15/2021 10:15:00 AM 18.63 65.534 0.44 7.99 4.21 9.29
9/15/2021 10:30:00 AM 18.66 65.588 0.44 8 4.04 9.18
9/15/2021 10:45:00 AM 18.71 65.67799 0.44 8.02 4.03 9.26
9/15/2021 11:00:00 AM 18.76 65.768 0.441 8.02 4.02 9.24
9/15/2021 11:15:00 AM 18.77 65.786 0.44 8.04 4.05 9.24
9/15/2021 11:30:00 AM 18.75 65.75 0.438 8.02 4.99 9.17
9/15/2021 11:45:00 AM 18.78 65.804 0.437 8 4.44 9.15
9/15/2021 12:00:00 PM 18.87 65.966 0.437 8.02 4.09 9.15
9/15/2021 12:15:00 PM 19.01 66.218 0.438 8.05 4.18 9.31
9/15/2021 12:30:00 PM 19.13 66.434 0.438 8.08 4.01 9.38
9/15/2021 12:45:00 PM 19.23 66.614 0.438 8.11 4.06 9.6
9/15/2021 1:00:00 PM 19.24 66.632 0.439 8.11 4 9.62
9/15/2021 1:15:00 PM 19.25 66.65 0.439 8.12 3.92 9.59
9/15/2021 1:30:00 PM 19.32 66.776 0.439 8.13 3.94 9.6
9/15/2021 1:45:00 PM 19.33 66.794 0.435 8.11 5.74 9.49
9/15/2021 2:00:00 PM 19.26 66.668 0.419 8.09 11.9 9.28
9/15/2021 2:15:00 PM 19.19 66.542 0.409 8.04 9.33 9.13
9/15/2021 2:30:00 PM 19.15 66.47 0.408 7.98 7.67 9.03
9/15/2021 2:45:00 PM 19.14 66.452 0.407 7.96 7.44 8.98
9/15/2021 3:00:00 PM 19.14 66.452 0.409 7.95 6.43 8.96
9/15/2021 3:15:00 PM 19.15 66.47 0.409 7.98 6.05 9.06
9/15/2021 3:30:00 PM 19.13 66.434 0.41 7.99 9.05 9.12
9/15/2021 3:45:00 PM 19.08 66.344 0.405 7.97 16.85 9.08
9/15/2021 4:00:00 PM 18.99 66.182 0.392 7.92 23.47 9.01
9/15/2021 4:15:00 PM 18.86 65.948 0.375 7.87 43.21 8.89
9/15/2021 4:30:00 PM 18.84 65.912 0.365 7.85 65.3 8.85
9/15/2021 4:45:00 PM 18.88 65.984 0.357 7.85 82.99 8.81
9/15/2021 5:00:00 PM 18.92 66.056 0.355 7.85 110.59 8.8
9/15/2021 5:15:00 PM 18.97 66.146 0.357 7.86 86.44 8.76
9/15/2021 5:30:00 PM 19 66.2 0.36 7.87 65.79 8.76
9/15/2021 5:45:00 PM 19.03 66.254 0.364 7.87 51.42 8.75
9/15/2021 6:00:00 PM 19.02 66.236 0.366 7.87 35.38 8.73
9/15/2021 6:15:00 PM 19.01 66.218 0.369 7.86 31.84 8.74
9/15/2021 6:30:00 PM 18.99 66.182 0.374 7.85 26.99 8.71
9/15/2021 6:45:00 PM 18.97 66.146 0.38 7.84 20.02 8.71
9/15/2021 7:00:00 PM 18.95 66.11 0.386 7.83 21.59 8.65
9/15/2021 7:15:00 PM 18.93 66.074 0.39 7.83 19.99 8.62
9/15/2021 7:30:00 PM 18.91 66.038 0.393 7.82 17.98 8.64
9/15/2021 7:45:00 PM 18.89 66.002 0.394 7.82 21.63 8.64
9/15/2021 8:00:00 PM 18.88 65.984 0.395 7.81 18.46 8.64
9/15/2021 8:15:00 PM 18.87 65.966 0.394 7.81 15.72 8.63
9/15/2021 8:30:00 PM 18.86 65.948 0.394 7.81 19.59 8.62
9/15/2021 8:45:00 PM 18.84 65.912 0.395 7.81 17.25 8.62
9/15/2021 9:00:00 PM 18.82 65.876 0.398 7.82 15.33 8.61
9/15/2021 9:15:00 PM 18.79 65.82201 0.401 7.81 15.21 8.61
9/15/2021 9:30:00 PM 18.76 65.768 0.404 7.8 14.52 8.61
9/15/2021 9:45:00 PM 18.74 65.732 0.407 7.8 14.08 8.62
9/15/2021 10:00:00 PM 18.72 65.696 0.409 7.8 13.78 8.63
9/15/2021 10:15:00 PM 18.69 65.642 0.411 7.8 13.38 8.58
9/15/2021 10:30:00 PM 18.67 65.606 0.412 7.8 12.74 8.6
9/15/2021 10:45:00 PM 18.65 65.57 0.414 7.8 13.44 8.64
9/15/2021 11:00:00 PM 18.63 65.534 0.415 7.81 11.82 8.63
9/15/2021 11:15:00 PM 18.6 65.48 0.417 7.81 12.95 8.65
9/15/2021 11:30:00 PM 18.58 65.444 0.417 7.81 11.92 8.63
9/15/2021 11:45:00 PM 18.56 65.408 0.418 7.81 11.87 8.62
9/16/2021 12:00:00 AM 18.53 65.354 0.417 7.83 10.33 8.67
9/16/2021 12:15:00 AM 18.51 65.318 0.417 7.82 10.65 8.68
9/16/2021 12:30:00 AM 18.48 65.264 0.416 7.83 10.32 8.66
9/16/2021 12:45:00 AM 18.46 65.228 0.414 7.83 9.78 8.69
9/16/2021 1:00:00 AM 18.44 65.192 0.414 7.83 9.64 8.7
9/16/2021 1:15:00 AM 18.4 65.12 0.413 7.83 9.07 8.71
9/16/2021 1:30:00 AM 18.37 65.066 0.412 7.84 9.52 8.71
9/16/2021 1:45:00 AM 18.35 65.03 0.411 7.83 9.42 8.71
9/16/2021 2:00:00 AM 18.33 64.994 0.411 7.84 9.32 8.73
9/16/2021 2:15:00 AM 18.31 64.958 0.411 7.84 9.8 8.7
9/16/2021 2:30:00 AM 18.3 64.94 0.411 7.85 9.9 8.71
9/16/2021 2:45:00 AM 18.28 64.904 0.411 7.86 10.19 8.74
9/16/2021 3:00:00 AM 18.26 64.868 0.411 7.86 10.27 8.74
9/16/2021 3:15:00 AM 18.25 64.85 0.412 7.87 12.02 8.76
9/16/2021 3:30:00 AM 18.25 64.85 0.414 7.87 13.7 8.75
9/16/2021 3:45:00 AM 18.25 64.85 0.416 7.88 12.2 8.75
9/16/2021 4:00:00 AM 18.24 64.832 0.416 7.88 13.42 8.76
9/16/2021 4:15:00 AM 18.23 64.814 0.416 7.88 13.76 8.78
9/16/2021 4:30:00 AM 18.21 64.778 0.416 7.89 14.31 8.79
9/16/2021 4:45:00 AM 18.19 64.742 0.415 7.9 13.91 8.8
9/16/2021 5:00:00 AM 18.17 64.706 0.416 7.9 13.89 8.81
9/16/2021 5:15:00 AM 18.15 64.67 0.416 7.91 12.29 8.82
9/16/2021 5:30:00 AM 18.13 64.634 0.417 7.91 12.74 8.82
9/16/2021 5:45:00 AM 18.11 64.598 0.416 7.91 12.18 8.83
9/16/2021 6:00:00 AM 18.09 64.562 0.416 7.92 12.17 8.84
9/16/2021 6:15:00 AM 18.07 64.526 0.414 7.91 11.02 8.82
9/16/2021 6:30:00 AM 18.05 64.49 0.413 7.92 11.29 8.84
9/16/2021 6:45:00 AM 18.03 64.454 0.412 7.92 12.12 8.84
9/16/2021 7:00:00 AM 18.01 64.418 0.411 7.91 11.91 8.84
9/16/2021 7:15:00 AM 17.99 64.382 0.41 7.92 11.57 8.85
9/16/2021 7:30:00 AM 17.97 64.346 0.409 7.92 11.39 8.87
9/16/2021 7:45:00 AM 17.96 64.328 0.409 7.92 10.7 8.86
9/16/2021 8:00:00 AM 17.95 64.31 0.408 7.92 10.5 8.87
9/16/2021 8:15:00 AM 17.93 64.274 0.408 7.92 11.06 8.91
9/16/2021 8:30:00 AM 17.93 64.274 0.408 7.93 10.61 8.96
9/16/2021 8:45:00 AM 17.93 64.274 0.407 7.93 8.73 8.97
9/16/2021 9:00:00 AM 17.93 64.274 0.407 7.94 8.91 9.02
9/16/2021 9:15:00 AM 17.91 64.238 0.407 7.94 8.82 9.03
9/16/2021 9:30:00 AM 17.92 64.256 0.408 7.95 8.66 9.06
9/16/2021 9:45:00 AM 17.93 64.274 0.408 7.96 8.78 9.08
9/16/2021 10:00:00 AM 17.94 64.292 0.408 7.97 7.98 9.16
9/16/2021 10:15:00 AM 17.96 64.328 0.409 7.98 7.97 9.23
9/16/2021 10:30:00 AM 18.01 64.418 0.41 7.99 8.19 9.3
9/16/2021 10:45:00 AM 18.05 64.49 0.412 8.01 7.72 9.36
9/16/2021 11:00:00 AM 18.07 64.526 0.413 8.02 8 9.38
9/16/2021 11:15:00 AM 18.09 64.562 0.414 8.02 17.64 9.41
9/16/2021 11:30:00 AM 18.12 64.616 0.416 8.04 8.68 9.47
9/16/2021 11:45:00 AM 18.15 64.67 0.417 8.05 8.6 9.5
9/16/2021 12:00:00 PM 18.16 64.688 0.419 8.05 7.14 9.48
9/16/2021 12:15:00 PM 18.2 64.76 0.42 8.06 7.17 9.49
9/16/2021 12:30:00 PM 18.25 64.85 0.422 8.07 6.9 9.53
9/16/2021 12:45:00 PM 18.28 64.904 0.423 8.08 6.47 9.55
9/16/2021 1:00:00 PM 18.31 64.958 0.424 8.08 6.69 9.55
9/16/2021 1:15:00 PM 18.34 65.012 0.425 8.1 6.74 9.59
9/16/2021 1:30:00 PM 18.36 65.048 0.427 8.1 6.3 9.58
9/16/2021 1:45:00 PM 18.37 65.066 0.428 8.1 6.38 9.55
9/16/2021 2:00:00 PM 18.4 65.12 0.429 8.09 6.09 9.53
9/16/2021 2:15:00 PM 18.48 65.264 0.43 8.11 7.03 9.57
9/16/2021 2:30:00 PM 18.52 65.336 0.431 8.11 6.17 9.59
9/16/2021 2:45:00 PM 18.59 65.462 0.432 8.12 9.67 9.63
9/16/2021 3:00:00 PM 18.62 65.516 0.432 8.13 6.57 9.62
9/16/2021 3:15:00 PM 18.65 65.57 0.433 8.14 6.14 9.59
9/16/2021 3:30:00 PM 18.71 65.67799 0.434 8.15 6.26 9.62
9/16/2021 3:45:00 PM 18.82 65.876 0.434 8.14 6.04 9.62
9/16/2021 4:00:00 PM 18.82 65.876 0.434 8.15 7.39 9.59
9/16/2021 4:15:00 PM 18.8 65.84 0.434 8.13 5.8 9.53
9/16/2021 4:30:00 PM 18.81 65.858 0.434 8.13 5.66 9.44
9/16/2021 4:45:00 PM 18.83 65.894 0.434 8.12 6.07 9.45
9/16/2021 5:00:00 PM 18.83 65.894 0.434 8.12 5.5 9.4
9/16/2021 5:15:00 PM 18.81 65.858 0.434 8.1 5.69 9.32
9/16/2021 5:30:00 PM 18.79 65.82201 0.434 8.08 4.4 9.22
9/16/2021 5:45:00 PM 18.78 65.804 0.434 8.07 5.57 9.16
9/16/2021 6:00:00 PM 18.77 65.786 0.434 8.05 6.34 9.07
9/16/2021 6:15:00 PM 18.76 65.768 0.434 8.04 5.35 9.03
9/16/2021 6:30:00 PM 18.76 65.768 0.434 8.02 5.46 9.02
9/16/2021 6:45:00 PM 18.76 65.768 0.433 8.01 5.68 8.97
9/16/2021 7:00:00 PM 18.75 65.75 0.433 8.01 5.53 8.96
9/16/2021 7:15:00 PM 18.75 65.75 0.433 7.99 5.36 8.91
9/16/2021 7:30:00 PM 18.74 65.732 0.433 7.98 5.75 8.86
9/16/2021 7:45:00 PM 18.73 65.714 0.433 7.97 5.6 8.86
9/16/2021 8:00:00 PM 18.72 65.696 0.433 7.96 5.82 8.85
9/16/2021 8:15:00 PM 18.72 65.696 0.433 7.95 5.74 8.83
9/16/2021 8:30:00 PM 18.7 65.66 0.433 7.94 5.78 8.82
9/16/2021 8:45:00 PM 18.69 65.642 0.434 7.93 5.88 8.76
9/16/2021 9:00:00 PM 18.67 65.606 0.434 7.92 5.75 8.8
9/16/2021 9:15:00 PM 18.67 65.606 0.434 7.91 5.76 8.77
9/16/2021 9:30:00 PM 18.65 65.57 0.434 7.91 5.44 8.77
9/16/2021 9:45:00 PM 18.64 65.552 0.435 7.91 5.77 8.75
9/16/2021 10:00:00 PM 18.61 65.498 0.436 7.9 5.91 8.78
9/16/2021 10:15:00 PM 18.59 65.462 0.436 7.9 6.11 8.73
9/16/2021 10:30:00 PM 18.57 65.426 0.437 7.91 5.7 8.71
9/16/2021 10:45:00 PM 18.56 65.408 0.437 7.9 5.38 8.76
9/16/2021 11:00:00 PM 18.54 65.372 0.438 7.9 5.53 8.72
9/16/2021 11:15:00 PM 18.52 65.336 0.438 7.91 5.29 8.73
9/16/2021 11:30:00 PM 18.48 65.264 0.439 7.9 5.27 8.74
9/16/2021 11:45:00 PM 18.44 65.192 0.439 7.9 5.54 8.78
9/17/2021 12:00:00 AM 18.42 65.156 0.439 7.9 5.56 8.73
9/17/2021 12:15:00 AM 18.39 65.102 0.44 7.89 5.32 8.74
9/17/2021 12:30:00 AM 18.35 65.03 0.44 7.9 5.34 8.73
9/17/2021 12:45:00 AM 18.33 64.994 0.44 7.91 5.88 8.75
9/17/2021 1:00:00 AM 18.32 64.976 0.44 7.9 6.33 8.77
9/17/2021 1:15:00 AM 18.3 64.94 0.439 7.9 6.27 8.8
9/17/2021 1:30:00 AM 18.28 64.904 0.439 7.9 5.77 8.78
9/17/2021 1:45:00 AM 18.26 64.868 0.438 7.9 5.48 8.77
9/17/2021 2:00:00 AM 18.25 64.85 0.438 7.9 6.12 8.78
9/17/2021 2:15:00 AM 18.24 64.832 0.437 7.89 5.62 8.77
9/17/2021 2:30:00 AM 18.23 64.814 0.436 7.89 6.27 8.74
9/17/2021 2:45:00 AM 18.22 64.796 0.435 7.88 5.85 8.77
9/17/2021 3:00:00 AM 18.2 64.76 0.434 7.89 5.83 8.77
9/17/2021 3:15:00 AM 18.16 64.688 0.433 7.87 5.98 8.79
9/17/2021 3:30:00 AM 18.12 64.616 0.431 7.88 6.4 8.8
9/17/2021 3:45:00 AM 18.11 64.598 0.43 7.88 6.62 8.73
9/17/2021 4:00:00 AM 18.1 64.58 0.429 7.88 6.99 8.79
9/17/2021 4:15:00 AM 18.09 64.562 0.428 7.87 9.05 8.73
9/17/2021 4:30:00 AM 18.08 64.544 0.427 7.87 6.72 8.75
9/17/2021 4:45:00 AM 18.06 64.508 0.426 7.87 6.83 8.75
9/17/2021 5:00:00 AM 18.05 64.49 0.425 7.87 6.41 8.8
9/17/2021 5:15:00 AM 18.04 64.472 0.423 7.86 6.46 8.81
9/17/2021 5:30:00 AM 18.03 64.454 0.423 7.86 6.9 8.82
9/17/2021 5:45:00 AM 18.02 64.436 0.422 7.86 6.65 8.78
9/17/2021 6:00:00 AM 17.99 64.382 0.421 7.86 7.13 8.79
9/17/2021 6:15:00 AM 17.96 64.328 0.42 7.85 7.01 8.83
9/17/2021 6:30:00 AM 17.93 64.274 0.42 7.85 7.42 8.83
9/17/2021 6:45:00 AM 17.9 64.22 0.419 7.85 7.02 8.82
9/17/2021 7:00:00 AM 17.9 64.22 0.418 7.85 7.4 8.71
9/17/2021 7:15:00 AM 17.9 64.22 0.418 7.84 7.23 8.8
9/17/2021 7:30:00 AM 17.9 64.22 0.417 7.85 7.09 8.79
9/17/2021 7:45:00 AM 17.9 64.22 0.417 7.86 7.04 8.85
9/17/2021 8:00:00 AM 17.91 64.238 0.416 7.86 7.21 8.93
9/17/2021 8:15:00 AM 17.91 64.238 0.416 7.86 8.52 8.94
9/17/2021 8:30:00 AM 17.91 64.238 0.416 7.86 8.27 8.93
9/17/2021 8:45:00 AM 17.94 64.292 0.415 7.88 6.93 9.06
9/17/2021 9:00:00 AM 17.98 64.364 0.415 7.88 7.89 9.16
9/17/2021 9:15:00 AM 17.99 64.382 0.415 7.91 6.92 9.22
9/17/2021 9:30:00 AM 18.05 64.49 0.414 7.91 6.49 9.24
9/17/2021 9:45:00 AM 18.13 64.634 0.414 7.93 6.69 9.26
9/17/2021 10:00:00 AM 18.23 64.814 0.413 7.95 7.01 9.42
9/17/2021 10:15:00 AM 18.3 64.94 0.413 7.97 6.47 9.52
9/17/2021 10:30:00 AM 18.39 65.102 0.412 8 6.32 9.52
9/17/2021 10:45:00 AM 18.43 65.174 0.412 8 6.89 9.58
9/17/2021 11:00:00 AM 18.46 65.228 0.411 8 6.5 9.63
9/17/2021 11:15:00 AM 18.43 65.174 0.411 8 6.3 9.55
9/17/2021 11:30:00 AM 18.46 65.228 0.41 8 6.19 9.47
9/17/2021 11:45:00 AM 18.52 65.336 0.41 8.01 25.9 9.54
9/17/2021 12:00:00 PM 18.61 65.498 0.409 8.02 7.39 9.57
9/17/2021 12:15:00 PM 18.69 65.642 0.409 8.06 6.33 9.74
9/17/2021 12:30:00 PM 18.71 65.67799 0.408 8.07 6.52 9.75
9/17/2021 12:45:00 PM 18.74 65.732 0.407 8.07 6.12 9.69
9/17/2021 1:00:00 PM 18.82 65.876 0.407 8.09 5.88 9.74
9/17/2021 1:15:00 PM 18.95 66.11 0.407 8.1 6.14 9.76
9/17/2021 1:30:00 PM 19.03 66.254 0.406 8.12 5.97 9.87
9/17/2021 1:45:00 PM 19.12 66.416 0.406 8.14 5.98 9.92
9/17/2021 2:00:00 PM 19.26 66.668 0.406 8.17 5.9 9.94
9/17/2021 2:15:00 PM 19.46 67.028 0.405 8.17 5.83 9.95
9/17/2021 2:30:00 PM 19.76 67.568 0.405 8.18 5.89 9.96
9/17/2021 2:45:00 PM 19.89 67.802 0.405 8.19 5.78 9.94
9/17/2021 3:00:00 PM 19.92 67.856 0.405 8.18 5.68 9.86
9/17/2021 3:15:00 PM 19.87 67.766 0.405 8.2 5.46 9.84
9/17/2021 3:30:00 PM 20.22 68.396 0.405 8.2 5.74 9.86
9/17/2021 3:45:00 PM 20.4 68.72 0.405 8.21 5.66 9.79
9/17/2021 4:00:00 PM 20.43 68.774 0.405 8.22 5.38 9.81
9/17/2021 4:15:00 PM 20.23 68.414 0.405 8.21 5.49 9.68
9/17/2021 4:30:00 PM 20.2 68.36 0.405 8.19 5.36 9.57
9/17/2021 4:45:00 PM 20.28 68.504 0.405 8.2 5.61 9.49
9/17/2021 5:00:00 PM 20.34 68.612 0.406 8.19 5.29 9.44
9/17/2021 5:15:00 PM 20.39 68.702 0.406 8.17 5.33 9.42
9/17/2021 5:30:00 PM 20.34 68.612 0.406 8.16 5.28 9.32
9/17/2021 5:45:00 PM 20.29 68.522 0.406 8.13 5.31 9.22
9/17/2021 6:00:00 PM 20.21 68.378 0.406 8.13 5.12 9.09
9/17/2021 6:15:00 PM 20.18 68.324 0.407 8.1 5.31 9.06
9/17/2021 6:30:00 PM 20.15 68.27 0.407 8.09 5.26 8.97
9/17/2021 6:45:00 PM 20.11 68.198 0.408 8.05 5.15 8.78
9/17/2021 7:00:00 PM 20.07 68.126 0.408 8.03 4.97 8.79
9/17/2021 7:15:00 PM 20.03 68.054 0.408 8.02 5.12 8.71
9/17/2021 7:30:00 PM 20 68 0.409 7.99 5.1 8.66
9/17/2021 7:45:00 PM 19.96 67.92799 0.409 7.98 5.25 8.61
9/17/2021 8:00:00 PM 19.92 67.856 0.409 7.96 7.2 8.56
9/17/2021 8:15:00 PM 19.88 67.784 0.41 7.95 7.13 8.55
9/17/2021 8:30:00 PM 19.82 67.676 0.41 7.94 5.5 8.45
9/17/2021 8:45:00 PM 19.77 67.586 0.41 7.94 5.67 8.53
9/17/2021 9:00:00 PM 19.72 67.496 0.41 7.92 5.44 8.5
9/17/2021 9:15:00 PM 19.67 67.406 0.41 7.92 5.35 8.49
9/17/2021 9:30:00 PM 19.62 67.316 0.411 7.92 5.22 8.49
9/17/2021 9:45:00 PM 19.56 67.208 0.411 7.91 5.09 8.49
9/17/2021 10:00:00 PM 19.5 67.1 0.411 7.9 5.03 8.5
9/17/2021 10:15:00 PM 19.46 67.028 0.411 7.91 5.03 8.51
9/17/2021 10:30:00 PM 19.4 66.92 0.411 7.9 5.22 8.49
9/17/2021 10:45:00 PM 19.34 66.812 0.411 7.89 4.96 8.52
9/17/2021 11:00:00 PM 19.3 66.74 0.411 7.9 5.61 8.51
9/17/2021 11:15:00 PM 19.25 66.65 0.412 7.88 5.15 8.51
9/17/2021 11:30:00 PM 19.21 66.578 0.411 7.89 4.75 8.53
9/17/2021 11:45:00 PM 19.17 66.506 0.411 7.89 4.95 8.55
9/18/2021 12:00:00 AM 19.12 66.416 0.411 7.89 4.66 8.51
9/18/2021 12:15:00 AM 19.07 66.326 0.411 7.88 5.02 8.55
9/18/2021 12:30:00 AM 19.03 66.254 0.411 7.88 4.87 8.53
9/18/2021 12:45:00 AM 18.98 66.164 0.411 7.89 5.18 8.54
9/18/2021 1:00:00 AM 18.94 66.092 0.411 7.88 4.83 8.57
9/18/2021 1:15:00 AM 18.89 66.002 0.411 7.88 4.85 8.59
9/18/2021 1:30:00 AM 18.85 65.93 0.411 7.88 4.95 8.61
9/18/2021 1:45:00 AM 18.81 65.858 0.411 7.87 4.96 8.61
9/18/2021 2:00:00 AM 18.77 65.786 0.41 7.86 4.86 8.6
9/18/2021 2:15:00 AM 18.73 65.714 0.41 7.88 4.85 8.64
9/18/2021 2:30:00 AM 18.7 65.66 0.41 7.87 4.84 8.63
9/18/2021 2:45:00 AM 18.66 65.588 0.41 7.86 4.87 8.62
9/18/2021 3:00:00 AM 18.62 65.516 0.409 7.87 5.02 8.65
9/18/2021 3:15:00 AM 18.58 65.444 0.409 7.86 4.66 8.63
9/18/2021 3:30:00 AM 18.55 65.39 0.409 7.85 4.72 8.64
9/18/2021 3:45:00 AM 18.51 65.318 0.408 7.86 5.26 8.67
9/18/2021 4:00:00 AM 18.48 65.264 0.408 7.86 4.75 8.66
9/18/2021 4:15:00 AM 18.45 65.21 0.407 7.85 8.05 8.64
9/18/2021 4:30:00 AM 18.42 65.156 0.407 7.85 8.56 8.66
9/18/2021 4:45:00 AM 18.4 65.12 0.407 7.85 5.64 8.62
9/18/2021 5:00:00 AM 18.37 65.066 0.406 7.84 4.97 8.64
9/18/2021 5:15:00 AM 18.35 65.03 0.406 7.83 5.03 8.66
9/18/2021 5:30:00 AM 18.33 64.994 0.406 7.84 4.85 8.67
9/18/2021 5:45:00 AM 18.31 64.958 0.406 7.85 4.69 8.69
9/18/2021 6:00:00 AM 18.29 64.922 0.405 7.85 4.72 8.68
9/18/2021 6:15:00 AM 18.27 64.886 0.405 7.85 4.8 8.72
9/18/2021 6:30:00 AM 18.25 64.85 0.404 7.84 4.84 8.7
9/18/2021 6:45:00 AM 18.22 64.796 0.404 7.85 4.92 8.74
9/18/2021 7:00:00 AM 18.2 64.76 0.404 7.83 5.14 8.71
9/18/2021 7:15:00 AM 18.18 64.724 0.403 7.84 4.97 8.71
9/18/2021 7:30:00 AM 18.16 64.688 0.403 7.85 4.8 8.75
9/18/2021 7:45:00 AM 18.15 64.67 0.403 7.86 5.05 8.77
9/18/2021 8:00:00 AM 18.14 64.652 0.403 7.86 4.7 8.81
9/18/2021 8:15:00 AM 18.12 64.616 0.402 7.86 8.2 8.81
9/18/2021 8:30:00 AM 18.11 64.598 0.402 7.86 5.41 8.85
9/18/2021 8:45:00 AM 18.11 64.598 0.402 7.86 4.74 8.89
9/18/2021 9:00:00 AM 18.11 64.598 0.402 7.87 4.91 8.91
9/18/2021 9:15:00 AM 18.12 64.616 0.401 7.89 4.62 9.02
9/18/2021 9:30:00 AM 18.15 64.67 0.401 7.91 4.43 9.04
9/18/2021 9:45:00 AM 18.16 64.688 0.401 7.92 4.58 9.21
9/18/2021 10:00:00 AM 18.24 64.832 0.401 7.93 4.48 9.18
9/18/2021 10:15:00 AM 18.32 64.976 0.4 7.93 4.63 9.31
9/18/2021 10:30:00 AM 18.4 65.12 0.4 7.94 4.5 9.33
9/18/2021 10:45:00 AM 18.49 65.282 0.4 7.94 5.01 9.42
9/18/2021 11:00:00 AM 18.57 65.426 0.4 7.95 5.04 9.37
9/18/2021 11:15:00 AM 18.62 65.516 0.4 7.96 4.92 9.44
9/18/2021 11:30:00 AM 18.69 65.642 0.399 7.96 4.88 9.46
9/18/2021 11:45:00 AM 18.75 65.75 0.399 7.99 4.64 9.43
9/18/2021 12:00:00 PM 18.82 65.876 0.399 8 4.78 9.42
9/18/2021 12:15:00 PM 18.95 66.11 0.399 8 4.72 9.42
9/18/2021 12:30:00 PM 19.09 66.362 0.399 8 4.78 9.39
9/18/2021 12:45:00 PM 19.25 66.65 0.399 8.02 4.58 9.5
9/18/2021 1:00:00 PM 19.49 67.082 0.399 8.04 4.67 9.49
9/18/2021 1:15:00 PM 19.66 67.388 0.398 8.08 4.59 9.66
9/18/2021 1:30:00 PM 19.69 67.442 0.399 8.09 4.5 9.71
9/18/2021 1:45:00 PM 19.82 67.676 0.399 8.13 4.88 9.75
9/18/2021 2:00:00 PM 19.92 67.856 0.401 8.14 4.61 9.8
9/18/2021 2:15:00 PM 20.25 68.45 0.401 8.15 4.49 9.68
9/18/2021 2:30:00 PM 20.39 68.702 0.4 8.2 4.5 9.89
9/18/2021 2:45:00 PM 20.65 69.17 0.4 8.22 4.59 9.78
9/18/2021 3:00:00 PM 20.85 69.53 0.399 8.22 4.81 9.84
9/18/2021 3:15:00 PM 21 69.8 0.399 8.22 4.4 9.83
9/18/2021 3:30:00 PM 20.98 69.764 0.398 8.23 4.57 9.71
9/18/2021 3:45:00 PM 20.99 69.782 0.398 8.19 4.48 9.65
9/18/2021 4:00:00 PM 20.83 69.494 0.398 8.21 4.6 9.58
9/18/2021 4:15:00 PM 20.95 69.71 0.398 8.21 4.55 9.51
9/18/2021 4:30:00 PM 21.19 70.142 0.398 8.23 4.52 9.53
9/18/2021 4:45:00 PM 21.29 70.32201 0.398 8.24 4.43 9.52
9/18/2021 5:00:00 PM 21.34 70.412 0.398 8.19 4.43 9.43
9/18/2021 5:15:00 PM 21.25 70.25 0.398 8.21 4.55 9.37
9/18/2021 5:30:00 PM 21.18 70.124 0.398 8.21 4.6 9.32
9/18/2021 5:45:00 PM 21.12 70.016 0.398 8.19 4.43 9.22
9/18/2021 6:00:00 PM 21.13 70.034 0.398 8.16 4.41 9.14
9/18/2021 6:15:00 PM 21.13 70.034 0.399 8.16 4.61 9.04
9/18/2021 6:30:00 PM 21.07 69.926 0.399 8.13 4.58 8.95
9/18/2021 6:45:00 PM 21.01 69.818 0.399 8.11 4.45 8.75
9/18/2021 7:00:00 PM 20.93 69.674 0.4 8.08 4.49 8.72
9/18/2021 7:15:00 PM 20.84 69.512 0.4 8.04 4.66 8.61
9/18/2021 7:30:00 PM 20.77 69.386 0.4 8.03 4.58 8.54
9/18/2021 7:45:00 PM 20.69 69.242 0.4 8.01 4.7 8.48
9/18/2021 8:00:00 PM 20.61 69.098 0.401 8 4.62 8.43
9/18/2021 8:15:00 PM 20.53 68.954 0.401 7.97 4.78 8.39
9/18/2021 8:30:00 PM 20.46 68.828 0.401 7.97 4.68 8.38
9/18/2021 8:45:00 PM 20.4 68.72 0.401 7.95 4.76 8.36
9/18/2021 9:00:00 PM 20.33 68.594 0.401 7.94 4.78 8.35
9/18/2021 9:15:00 PM 20.27 68.486 0.402 7.93 4.77 8.34
9/18/2021 9:30:00 PM 20.21 68.378 0.402 7.94 4.63 8.33
9/18/2021 9:45:00 PM 20.16 68.288 0.403 7.92 4.79 8.35
9/18/2021 10:00:00 PM 20.11 68.198 0.402 7.92 4.58 8.34
9/18/2021 10:15:00 PM 20.05 68.09 0.402 7.91 4.58 8.36
9/18/2021 10:30:00 PM 19.99 67.982 0.403 7.91 4.52 8.33
9/18/2021 10:45:00 PM 19.94 67.892 0.403 7.91 4.59 8.33
9/18/2021 11:00:00 PM 19.88 67.784 0.403 7.91 4.68 8.33
9/18/2021 11:15:00 PM 19.82 67.676 0.404 7.9 4.57 8.38
9/18/2021 11:30:00 PM 19.75 67.55 0.404 7.9 4.62 8.38
9/18/2021 11:45:00 PM 19.7 67.46 0.405 7.89 4.61 8.42
9/19/2021 12:00:00 AM 19.63 67.334 0.405 7.9 4.68 8.43
9/19/2021 12:15:00 AM 19.57 67.226 0.405 7.89 4.46 8.43
9/19/2021 12:30:00 AM 19.53 67.154 0.406 7.9 4.64 8.46
9/19/2021 12:45:00 AM 19.47 67.046 0.406 7.88 4.77 8.45
9/19/2021 1:00:00 AM 19.41 66.938 0.406 7.89 4.76 8.46
9/19/2021 1:15:00 AM 19.35 66.83 0.407 7.88 4.77 8.44
9/19/2021 1:30:00 AM 19.28 66.704 0.407 7.89 4.53 8.47
9/19/2021 1:45:00 AM 19.21 66.578 0.407 7.88 4.52 8.49
9/19/2021 2:00:00 AM 19.14 66.452 0.408 7.89 4.68 8.5
9/19/2021 2:15:00 AM 19.08 66.344 0.408 7.87 4.87 8.47
9/19/2021 2:30:00 AM 19.02 66.236 0.409 7.87 4.86 8.54
9/19/2021 2:45:00 AM 18.96 66.128 0.409 7.88 4.61 8.51
9/19/2021 3:00:00 AM 18.9 66.02 0.409 7.88 4.53 8.59
9/19/2021 3:15:00 AM 18.84 65.912 0.409 7.88 4.76 8.58
9/19/2021 3:30:00 AM 18.79 65.82201 0.41 7.89 4.59 8.57
9/19/2021 3:45:00 AM 18.73 65.714 0.41 7.88 5.16 8.59
9/19/2021 4:00:00 AM 18.68 65.624 0.41 7.88 5.17 8.61
9/19/2021 4:15:00 AM 18.62 65.516 0.41 7.88 4.89 8.58
9/19/2021 4:30:00 AM 18.57 65.426 0.411 7.88 4.87 8.62
9/19/2021 4:45:00 AM 18.53 65.354 0.411 7.87 4.65 8.62
9/19/2021 5:00:00 AM 18.48 65.264 0.411 7.87 4.7 8.6
9/19/2021 5:15:00 AM 18.44 65.192 0.411 7.88 4.74 8.64
9/19/2021 5:30:00 AM 18.4 65.12 0.412 7.88 4.97 8.63
9/19/2021 5:45:00 AM 18.35 65.03 0.412 7.88 4.77 8.66
9/19/2021 6:00:00 AM 18.31 64.958 0.412 7.88 4.66 8.71
9/19/2021 6:15:00 AM 18.26 64.868 0.412 7.87 4.79 8.66
9/19/2021 6:30:00 AM 18.23 64.814 0.412 7.87 4.84 8.68
9/19/2021 6:45:00 AM 18.19 64.742 0.413 7.87 5.09 8.69
9/19/2021 7:00:00 AM 18.16 64.688 0.413 7.88 4.92 8.71
9/19/2021 7:15:00 AM 18.13 64.634 0.413 7.88 4.74 8.72
9/19/2021 7:30:00 AM 18.1 64.58 0.413 7.88 4.71 8.72
9/19/2021 7:45:00 AM 18.07 64.526 0.413 7.89 4.68 8.76
9/19/2021 8:00:00 AM 18.06 64.508 0.414 7.9 4.56 8.8
9/19/2021 8:15:00 AM 18.05 64.49 0.414 7.9 4.65 8.84
9/19/2021 8:30:00 AM 18.04 64.472 0.413 7.92 4.54 8.93
9/19/2021 8:45:00 AM 18.06 64.508 0.414 7.93 5.74 8.99
9/19/2021 9:00:00 AM 18.04 64.472 0.414 7.96 4.75 9.13
9/19/2021 9:15:00 AM 18.05 64.49 0.414 7.95 4.71 9.22
9/19/2021 9:30:00 AM 18.03 64.454 0.414 7.98 4.66 9.21
9/19/2021 9:45:00 AM 17.98 64.364 0.414 8.01 5.14 9.34
9/19/2021 10:00:00 AM 18.07 64.526 0.414 7.99 4.72 9.36
9/19/2021 10:15:00 AM 18.14 64.652 0.414 8.02 4.68 9.4
9/19/2021 10:30:00 AM 18.26 64.868 0.414 8.02 4.59 9.47
9/19/2021 10:45:00 AM 18.31 64.958 0.414 8.04 4.91 9.42
9/19/2021 11:00:00 AM 18.37 65.066 0.414 8.04 4.71 9.47
9/19/2021 11:15:00 AM 18.42 65.156 0.414 8.03 4.68 9.46
9/19/2021 11:30:00 AM 18.44 65.192 0.415 8.03 4.7 9.42
9/19/2021 11:45:00 AM 18.44 65.192 0.415 8.03 4.59 9.45
9/19/2021 12:00:00 PM 18.47 65.246 0.415 8.05 4.61 9.42
9/19/2021 12:15:00 PM 18.55 65.39 0.416 8.06 4.52 9.46
9/19/2021 12:30:00 PM 18.66 65.588 0.416 8.07 4.55 9.44
9/19/2021 12:45:00 PM 18.79 65.82201 0.416 8.07 4.6 9.39
9/19/2021 1:00:00 PM 18.92 66.056 0.416 8.08 4.58 9.43
9/19/2021 1:15:00 PM 19.07 66.326 0.416 8.07 4.67 9.47
9/19/2021 1:30:00 PM 19.2 66.56 0.416 8.1 4.79 9.5
9/19/2021 1:45:00 PM 19.35 66.83 0.415 8.1 4.66 9.46
9/19/2021 2:00:00 PM 19.58 67.244 0.416 8.11 5.39 9.41
9/19/2021 2:15:00 PM 19.88 67.784 0.416 8.13 4.76 9.54
9/19/2021 2:30:00 PM 20.09 68.162 0.416 8.16 4.54 9.64
9/19/2021 2:45:00 PM 20.23 68.414 0.416 8.16 5.11 9.62
9/19/2021 3:00:00 PM 20.39 68.702 0.417 8.18 5.22 9.67
9/19/2021 3:15:00 PM 20.54 68.972 0.416 8.18 4.58 9.58
9/19/2021 3:30:00 PM 20.61 69.098 0.416 8.19 4.6 9.59
9/19/2021 3:45:00 PM 20.72 69.296 0.416 8.19 4.55 9.61
9/19/2021 4:00:00 PM 20.78 69.404 0.416 8.21 4.79 9.57
9/19/2021 4:15:00 PM 20.9 69.62 0.416 8.21 4.49 9.6
9/19/2021 4:30:00 PM 20.88 69.584 0.416 8.2 4.6 9.44
9/19/2021 4:45:00 PM 20.87 69.566 0.416 8.2 4.57 9.37
9/19/2021 5:00:00 PM 20.88 69.584 0.416 8.2 4.5 9.36
9/19/2021 5:15:00 PM 20.85 69.53 0.416 8.19 5.32 9.29
9/19/2021 5:30:00 PM 20.72 69.296 0.417 8.16 4.62 9.09
9/19/2021 5:45:00 PM 20.64 69.152 0.416 8.15 4.54 8.99
9/19/2021 6:00:00 PM 20.58 69.044 0.417 8.13 4.51 8.82
9/19/2021 6:15:00 PM 20.5 68.9 0.417 8.11 4.74 8.81
9/19/2021 6:30:00 PM 20.41 68.738 0.417 8.1 5.02 8.72
9/19/2021 6:45:00 PM 20.32 68.576 0.417 8.08 4.81 8.69
9/19/2021 7:00:00 PM 20.2 68.36 0.417 8.06 4.85 8.58
9/19/2021 7:15:00 PM 20.07 68.126 0.418 8.05 4.67 8.62
9/19/2021 7:30:00 PM 19.95 67.91 0.418 8.02 4.73 8.49
9/19/2021 7:45:00 PM 19.82 67.676 0.418 8.02 4.96 8.53
9/19/2021 8:00:00 PM 19.7 67.46 0.418 8 6.05 8.46
9/19/2021 8:15:00 PM 19.58 67.244 0.418 7.98 6.05 8.51
9/19/2021 8:30:00 PM 19.47 67.046 0.418 7.98 5.2 8.47
9/19/2021 8:45:00 PM 19.36 66.848 0.418 7.97 4.74 8.43
9/19/2021 9:00:00 PM 19.24 66.632 0.418 7.98 4.75 8.52
9/19/2021 9:15:00 PM 19.13 66.434 0.419 7.97 4.86 8.54
9/19/2021 9:30:00 PM 19.04 66.272 0.419 7.96 4.55 8.49
9/19/2021 9:45:00 PM 18.93 66.074 0.419 7.95 4.74 8.52
9/19/2021 10:00:00 PM 18.83 65.894 0.419 7.96 4.69 8.59
9/19/2021 10:15:00 PM 18.74 65.732 0.419 7.96 4.62 8.61
9/19/2021 10:30:00 PM 18.65 65.57 0.419 7.94 4.53 8.56
9/19/2021 10:45:00 PM 18.57 65.426 0.419 7.95 4.43 8.6
9/19/2021 11:00:00 PM 18.47 65.246 0.42 7.94 4.55 8.62
9/19/2021 11:15:00 PM 18.4 65.12 0.42 7.94 4.58 8.66
9/19/2021 11:30:00 PM 18.31 64.958 0.42 7.93 4.48 8.59
9/19/2021 11:45:00 PM 18.23 64.814 0.42 7.92 4.51 8.66
9/20/2021 12:00:00 AM 18.15 64.67 0.421 7.93 4.57 8.63
9/20/2021 12:15:00 AM 18.08 64.544 0.421 7.93 4.5 8.62
9/20/2021 12:30:00 AM 18.01 64.418 0.421 7.92 4.67 8.7
9/20/2021 12:45:00 AM 17.94 64.292 0.422 7.92 4.57 8.72
9/20/2021 1:00:00 AM 17.85 64.13 0.422 7.91 4.51 8.74
9/20/2021 1:15:00 AM 17.78 64.004 0.422 7.92 5.17 8.73
9/20/2021 1:30:00 AM 17.68 63.824 0.422 7.91 4.75 8.78
9/20/2021 1:45:00 AM 17.6 63.68 0.423 7.91 4.67 8.78
9/20/2021 2:00:00 AM 17.48 63.464 0.423 7.9 4.57 8.79
9/20/2021 2:15:00 AM 17.39 63.302 0.423 7.9 4.69 8.79
9/20/2021 2:30:00 AM 17.27 63.086 0.424 7.89 5.05 8.76
9/20/2021 2:45:00 AM 17.17 62.906 0.424 7.89 4.66 8.86
9/20/2021 3:00:00 AM 17.09 62.762 0.425 7.9 4.57 8.91
9/20/2021 3:15:00 AM 16.98 62.564 0.425 7.91 4.6 8.98
9/20/2021 3:30:00 AM 16.89 62.402 0.425 7.91 4.67 8.95
9/20/2021 3:45:00 AM 16.8 62.24 0.425 7.9 4.67 9.02
9/20/2021 4:00:00 AM 16.72 62.096 0.426 7.9 4.54 9.02
9/20/2021 4:15:00 AM 16.62 61.916 0.426 7.9 4.63 9
9/20/2021 4:30:00 AM 16.55 61.79 0.426 7.89 4.6 9.04
9/20/2021 4:45:00 AM 16.46 61.628 0.426 7.9 4.58 9.07
9/20/2021 5:00:00 AM 16.41 61.538 0.426 7.9 4.69 9.06
9/20/2021 5:15:00 AM 16.35 61.43 0.426 7.9 4.55 9.13
9/20/2021 5:30:00 AM 16.29 61.322 0.427 7.9 4.53 8.99
9/20/2021 5:45:00 AM 16.23 61.214 0.427 7.9 4.75 9.11
9/20/2021 6:00:00 AM 16.17 61.106 0.427 7.91 4.86 9.18
9/20/2021 6:15:00 AM 16.1 60.98 0.428 7.91 4.61 9.17
9/20/2021 6:30:00 AM 16.05 60.89 0.428 7.9 4.59 9.21
9/20/2021 6:45:00 AM 16 60.8 0.428 7.9 4.73 9.21
9/20/2021 7:00:00 AM 15.94 60.692 0.429 7.91 5.65 9.04
9/20/2021 7:15:00 AM 15.89 60.602 0.429 7.91 5.07 9.29
9/20/2021 7:30:00 AM 15.84 60.512 0.429 7.91 5.02 9.17
9/20/2021 7:45:00 AM 15.8 60.44 0.429 7.93 4.94 9.16
9/20/2021 8:00:00 AM 15.77 60.386 0.429 7.91 4.47 9.3
9/20/2021 8:15:00 AM 15.75 60.35 0.429 7.93 5.26 9.16
9/20/2021 8:30:00 AM 15.74 60.332 0.429 7.93 4.56 9.42
9/20/2021 8:45:00 AM 15.74 60.332 0.429 7.94 4.69 9.48
9/20/2021 9:00:00 AM 15.75 60.35 0.429 7.97 4.55 9.65
9/20/2021 9:15:00 AM 15.77 60.386 0.429 7.97 4.55 9.68
9/20/2021 9:30:00 AM 15.78 60.404 0.429 8 4.58 9.66
9/20/2021 9:45:00 AM 15.83 60.494 0.429 8.01 4.6 9.81
9/20/2021 10:00:00 AM 15.99 60.782 0.429 8.01 4.65 9.88
9/20/2021 10:15:00 AM 16.2 61.16 0.429 8.02 4.64 9.99
9/20/2021 10:30:00 AM 16.31 61.358 0.429 8.03 4.65 10.05
9/20/2021 10:45:00 AM 16.37 61.466 0.429 8.04 4.61 9.91
9/20/2021 11:00:00 AM 16.47 61.646 0.429 8.06 4.49 10.02
9/20/2021 11:15:00 AM 16.56 61.808 0.429 8.06 4.48 10.05
9/20/2021 11:30:00 AM 16.64 61.952 0.429 8.07 4.9 10.09
9/20/2021 11:45:00 AM 16.74 62.132 0.429 8.1 6.77 9.78
9/20/2021 12:00:00 PM 16.86 62.348 0.429 8.12 5.3 10.08
9/20/2021 12:15:00 PM 16.99 62.582 0.429 8.13 4.68 10.18
9/20/2021 12:30:00 PM 17.13 62.834 0.429 8.16 4.56 10.2
9/20/2021 12:45:00 PM 17.27 63.086 0.429 8.14 4.57 10.13
9/20/2021 1:00:00 PM 17.45 63.41 0.429 8.2 4.51 10.39
9/20/2021 1:15:00 PM 17.63 63.734 0.429 8.19 4.56 10.26
9/20/2021 1:30:00 PM 17.82 64.076 0.429 8.22 4.57 10.08
9/20/2021 1:45:00 PM 18.06 64.508 0.429 8.22 4.52 10.24
9/20/2021 2:00:00 PM 18.22 64.796 0.429 8.22 4.56 10.16
9/20/2021 2:15:00 PM 18.42 65.156 0.429 8.24 4.62 10.22
9/20/2021 2:30:00 PM 18.6 65.48 0.429 8.25 4.56 10.27
9/20/2021 2:45:00 PM 18.71 65.67799 0.429 8.27 4.63 10.29
9/20/2021 3:00:00 PM 18.81 65.858 0.429 8.3 4.48 10.28
9/20/2021 3:15:00 PM 18.9 66.02 0.429 8.3 4.49 10.31
9/20/2021 3:30:00 PM 18.9 66.02 0.429 8.3 4.74 10.25
9/20/2021 3:45:00 PM 18.9 66.02 0.429 8.31 4.53 10.26
9/20/2021 4:00:00 PM 18.92 66.056 0.429 8.32 4.49 10.19
9/20/2021 4:15:00 PM 18.92 66.056 0.429 8.31 4.51 10.05
9/20/2021 4:30:00 PM 18.93 66.074 0.429 8.28 4.41 9.96
9/20/2021 4:45:00 PM 18.98 66.164 0.43 8.28 4.45 9.92
9/20/2021 5:00:00 PM 19.04 66.272 0.43 8.27 4.61 9.68
9/20/2021 5:15:00 PM 19.03 66.254 0.43 8.28 4.51 9.75
9/20/2021 5:30:00 PM 19 66.2 0.43 8.26 4.58 9.6
9/20/2021 5:45:00 PM 18.97 66.146 0.43 8.23 4.97 9.48
9/20/2021 6:00:00 PM 18.94 66.092 0.431 8.2 4.62 9.35
9/20/2021 6:15:00 PM 18.93 66.074 0.431 8.17 4.55 9.28
9/20/2021 6:30:00 PM 18.9 66.02 0.431 8.13 4.68 9.16
9/20/2021 6:45:00 PM 18.88 65.984 0.431 8.14 4.56 9.07
9/20/2021 7:00:00 PM 18.87 65.966 0.432 8.1 4.52 9.01
9/20/2021 7:15:00 PM 18.86 65.948 0.432 8.09 4.57 8.92
9/20/2021 7:30:00 PM 18.83 65.894 0.432 8.07 4.64 8.89
9/20/2021 7:45:00 PM 18.79 65.82201 0.432 8.04 4.72 8.77
9/20/2021 8:00:00 PM 18.74 65.732 0.433 8.02 4.66 8.75
9/20/2021 8:15:00 PM 18.69 65.642 0.433 8.01 4.68 8.67
9/20/2021 8:30:00 PM 18.65 65.57 0.433 7.99 4.65 8.7
9/20/2021 8:45:00 PM 18.6 65.48 0.433 7.98 4.67 8.65
9/20/2021 9:00:00 PM 18.55 65.39 0.433 7.98 4.61 8.67
9/20/2021 9:15:00 PM 18.51 65.318 0.433 7.98 4.6 8.68
9/20/2021 9:30:00 PM 18.45 65.21 0.433 7.97 4.55 8.67
9/20/2021 9:45:00 PM 18.4 65.12 0.434 7.97 4.67 8.7
9/20/2021 10:00:00 PM 18.35 65.03 0.434 7.96 4.61 8.64
9/20/2021 10:15:00 PM 18.29 64.922 0.434 7.95 4.62 8.7
9/20/2021 10:30:00 PM 18.23 64.814 0.434 7.95 4.51 8.62
9/20/2021 10:45:00 PM 18.17 64.706 0.434 7.95 4.51 8.72
9/20/2021 11:00:00 PM 18.12 64.616 0.434 7.94 4.38 8.68
9/20/2021 11:15:00 PM 18.05 64.49 0.435 7.94 4.49 8.7
9/20/2021 11:30:00 PM 17.98 64.364 0.435 7.93 4.45 8.62
9/20/2021 11:45:00 PM 17.91 64.238 0.435 7.93 4.59 8.72
9/21/2021 12:00:00 AM 17.85 64.13 0.435 7.92 4.67 8.67
9/21/2021 12:15:00 AM 17.81 64.058 0.435 7.92 4.46 8.74
9/21/2021 12:30:00 AM 17.76 63.968 0.436 7.92 4.52 8.71
9/21/2021 12:45:00 AM 17.71 63.878 0.436 7.92 4.54 8.73
9/21/2021 1:00:00 AM 17.67 63.806 0.436 7.9 4.59 8.76
9/21/2021 1:15:00 AM 17.62 63.716 0.437 7.9 4.47 8.78
9/21/2021 1:30:00 AM 17.58 63.644 0.437 7.91 4.6 8.75
9/21/2021 1:45:00 AM 17.52 63.536 0.437 7.93 4.54 8.72
9/21/2021 2:00:00 AM 17.48 63.464 0.438 7.91 4.59 8.84
9/21/2021 2:15:00 AM 17.44 63.392 0.438 7.91 4.53 8.8
9/21/2021 2:30:00 AM 17.41 63.338 0.438 7.9 4.55 8.85
9/21/2021 2:45:00 AM 17.37 63.266 0.438 7.9 4.69 8.74
9/21/2021 3:00:00 AM 17.34 63.212 0.439 7.89 4.59 8.83
9/21/2021 3:15:00 AM 17.32 63.176 0.439 7.89 4.58 8.55
9/21/2021 3:30:00 AM 17.29 63.122 0.439 7.89 4.57 8.8
9/21/2021 3:45:00 AM 17.27 63.086 0.44 7.89 4.72 8.85
9/21/2021 4:00:00 AM 17.23 63.014 0.44 7.89 4.66 8.78
9/21/2021 4:15:00 AM 17.2 62.96 0.441 7.91 4.71 8.9
9/21/2021 4:30:00 AM 17.17 62.906 0.441 7.91 4.59 8.95
9/21/2021 4:45:00 AM 17.14 62.852 0.441 7.9 4.61 8.69
9/21/2021 5:00:00 AM 17.11 62.798 0.441 7.91 4.79 8.94
9/21/2021 5:15:00 AM 17.08 62.744 0.442 7.9 4.78 8.91
9/21/2021 5:30:00 AM 17.02 62.636 0.442 7.9 4.76 8.84
9/21/2021 5:45:00 AM 16.99 62.582 0.442 7.91 4.69 8.95
9/21/2021 6:00:00 AM 16.96 62.528 0.442 7.89 4.73 8.93
9/21/2021 6:15:00 AM 16.93 62.474 0.443 7.89 4.7 8.89
9/21/2021 6:30:00 AM 16.85 62.33 0.443 7.89 4.99 8.9
9/21/2021 6:45:00 AM 16.79 62.222 0.443 7.9 4.69 8.76
9/21/2021 7:00:00 AM 16.74 62.132 0.443 7.91 4.83 9.03
9/21/2021 7:15:00 AM 16.71 62.078 0.443 7.9 4.68 9
9/21/2021 7:30:00 AM 16.71 62.078 0.444 7.9 4.66 9
9/21/2021 7:45:00 AM 16.7 62.06 0.444 7.9 4.68 8.98
9/21/2021 8:00:00 AM 16.7 62.06 0.444 7.9 4.62 9.02
9/21/2021 8:15:00 AM 16.71 62.078 0.444 7.92 4.73 9.06
9/21/2021 8:30:00 AM 16.73 62.114 0.444 7.95 4.77 9.09
9/21/2021 8:45:00 AM 16.74 62.132 0.444 7.95 4.96 9.32
9/21/2021 9:00:00 AM 16.78 62.204 0.444 7.96 4.64 9.28
9/21/2021 9:15:00 AM 16.82 62.276 0.444 7.98 5.24 9.29
9/21/2021 9:30:00 AM 16.88 62.384 0.444 8.01 4.65 9.39
9/21/2021 9:45:00 AM 16.94 62.492 0.444 8.04 5.65 9.8
9/21/2021 10:00:00 AM 16.99 62.582 0.443 8.05 4.7 9.83
9/21/2021 10:15:00 AM 17.03 62.654 0.443 8.06 4.76 9.77
9/21/2021 10:30:00 AM 17.09 62.762 0.444 8.05 4.62 9.78
9/21/2021 10:45:00 AM 17.18 62.924 0.443 8.09 4.64 9.91
9/21/2021 11:00:00 AM 17.21 62.978 0.443 8.09 4.83 9.8
9/21/2021 11:15:00 AM 17.29 63.122 0.443 8.11 4.63 9.87
9/21/2021 11:30:00 AM 17.4 63.32 0.444 8.13 4.67 10.12
9/21/2021 11:45:00 AM 17.5 63.5 0.443 8.16 4.65 10.23
9/21/2021 12:00:00 PM 17.55 63.59 0.443 8.14 4.89 10.07
9/21/2021 12:15:00 PM 17.63 63.734 0.443 8.18 4.8 10.17
9/21/2021 12:30:00 PM 17.7 63.86 0.443 8.17 4.71 10.09
9/21/2021 12:45:00 PM 17.8 64.04 0.443 8.18 5.07 10.04
9/21/2021 1:00:00 PM 17.84 64.112 0.443 8.19 4.72 10.02
9/21/2021 1:15:00 PM 17.96 64.328 0.443 8.21 4.63 10.11
9/21/2021 1:30:00 PM 18.14 64.652 0.443 8.24 4.54 10.1
9/21/2021 1:45:00 PM 18.29 64.922 0.442 8.26 4.51 10.12
9/21/2021 2:00:00 PM 18.35 65.03 0.443 8.27 4.38 9.99
9/21/2021 2:15:00 PM 18.58 65.444 0.443 8.29 4.54 10.06
9/21/2021 2:30:00 PM 18.73 65.714 0.443 8.29 4.39 10.4
9/21/2021 2:45:00 PM 18.66 65.588 0.442 8.28 4.54 10.25
9/21/2021 3:00:00 PM 18.65 65.57 0.443 8.3 4.35 10.27
9/21/2021 3:15:00 PM 18.72 65.696 0.443 8.3 4.41 10.15
9/21/2021 3:30:00 PM 18.83 65.894 0.443 8.31 4.37 10.27
9/21/2021 3:45:00 PM 18.8 65.84 0.443 8.31 4.34 10.15
9/21/2021 4:00:00 PM 18.75 65.75 0.443 8.31 4.34 10.12
9/21/2021 4:15:00 PM 18.71 65.67799 0.444 8.3 4.33 9.99
9/21/2021 4:30:00 PM 18.71 65.67799 0.444 8.29 4.37 9.84
9/21/2021 4:45:00 PM 18.76 65.768 0.444 8.29 4.39 9.88
9/21/2021 5:00:00 PM 18.79 65.82201 0.444 8.27 4.41 9.77
9/21/2021 5:15:00 PM 18.8 65.84 0.444 8.26 4.64 9.65
9/21/2021 5:30:00 PM 18.8 65.84 0.444 8.25 4.43 9.71
9/21/2021 5:45:00 PM 18.77 65.786 0.445 8.24 4.49 9.67
9/21/2021 6:00:00 PM 18.73 65.714 0.445 8.22 4.56 9.51
9/21/2021 6:15:00 PM 18.7 65.66 0.445 8.21 4.77 9.46
9/21/2021 6:30:00 PM 18.68 65.624 0.445 8.16 4.43 9.31
9/21/2021 6:45:00 PM 18.65 65.57 0.446 8.15 4.63 9.23
9/21/2021 7:00:00 PM 18.62 65.516 0.446 8.12 4.48 9.05
9/21/2021 7:15:00 PM 18.6 65.48 0.446 8.08 4.54 8.82
9/21/2021 7:30:00 PM 18.58 65.444 0.446 8.06 4.57 8.86
9/21/2021 7:45:00 PM 18.56 65.408 0.446 8.04 4.5 8.8
9/21/2021 8:00:00 PM 18.55 65.39 0.446 8.03 4.5 8.73
9/21/2021 8:15:00 PM 18.54 65.372 0.444 8.01 4.54 8.66
9/21/2021 8:30:00 PM 18.53 65.354 0.444 8 4.66 8.68
9/21/2021 8:45:00 PM 18.52 65.336 0.443 7.98 4.64 8.63
9/21/2021 9:00:00 PM 18.5 65.3 0.442 7.97 4.67 8.63
9/21/2021 9:15:00 PM 18.5 65.3 0.442 7.97 4.66 8.64
9/21/2021 9:30:00 PM 18.49 65.282 0.441 7.95 4.62 8.54
9/21/2021 9:45:00 PM 18.48 65.264 0.44 7.94 4.7 8.61
9/21/2021 10:00:00 PM 18.47 65.246 0.439 7.94 4.76 8.65
9/21/2021 10:15:00 PM 18.46 65.228 0.439 7.94 4.53 8.54
9/21/2021 10:30:00 PM 18.45 65.21 0.438 7.94 4.69 8.67
9/21/2021 10:45:00 PM 18.44 65.192 0.438 7.94 4.79 8.6
9/21/2021 11:00:00 PM 18.43 65.174 0.438 7.91 4.6 8.41
9/21/2021 11:15:00 PM 18.41 65.138 0.438 7.93 4.75 8.3
9/21/2021 11:30:00 PM 18.39 65.102 0.437 7.91 4.93 8.57
9/21/2021 11:45:00 PM 18.38 65.084 0.437 7.9 4.65 8.43
9/22/2021 12:00:00 AM 18.36 65.048 0.437 7.91 4.55 8.59
9/22/2021 12:15:00 AM 18.34 65.012 0.438 7.91 4.57 8.34
9/22/2021 12:30:00 AM 18.32 64.976 0.438 7.9 4.47 8.56
9/22/2021 12:45:00 AM 18.3 64.94 0.438 7.91 4.52 8.65
9/22/2021 1:00:00 AM 18.29 64.922 0.438 7.9 4.59 8.59
9/22/2021 1:15:00 AM 18.26 64.868 0.438 7.89 4.59 8.45
9/22/2021 1:30:00 AM 18.25 64.85 0.438 7.88 4.65 8.5
9/22/2021 1:45:00 AM 18.22 64.796 0.438 7.89 4.74 8.67
9/22/2021 2:00:00 AM 18.2 64.76 0.438 7.88 4.87 8.56
9/22/2021 2:15:00 AM 18.18 64.724 0.438 7.9 4.74 8.57
9/22/2021 2:30:00 AM 18.17 64.706 0.439 7.89 4.48 8.34
9/22/2021 2:45:00 AM 18.15 64.67 0.439 7.9 4.59 8.47
9/22/2021 3:00:00 AM 18.13 64.634 0.44 7.89 4.62 8.46
9/22/2021 3:15:00 AM 18.11 64.598 0.44 7.89 4.62 8.64
9/22/2021 3:30:00 AM 18.09 64.562 0.441 7.88 4.54 8.52
9/22/2021 3:45:00 AM 18.06 64.508 0.442 7.89 4.62 8.69
9/22/2021 4:00:00 AM 18.04 64.472 0.442 7.89 4.49 8.38
9/22/2021 4:15:00 AM 18.02 64.436 0.442 7.89 4.6 8.71
9/22/2021 4:30:00 AM 18 64.4 0.443 7.89 4.55 8.6
9/22/2021 4:45:00 AM 17.97 64.346 0.443 7.89 4.65 8.55
9/22/2021 5:00:00 AM 17.96 64.328 0.444 7.9 4.5 8.58
9/22/2021 5:15:00 AM 17.95 64.31 0.444 7.89 4.55 8.47
9/22/2021 5:30:00 AM 17.94 64.292 0.444 7.9 4.49 8.63
9/22/2021 5:45:00 AM 17.92 64.256 0.444 7.89 4.66 8.71
9/22/2021 6:00:00 AM 17.91 64.238 0.444 7.9 4.52 8.75
9/22/2021 6:15:00 AM 17.9 64.22 0.445 7.9 4.51 8.49
9/22/2021 6:30:00 AM 17.89 64.202 0.445 7.89 4.53 8.58
9/22/2021 6:45:00 AM 17.89 64.202 0.445 7.9 4.58 8.73
9/22/2021 7:00:00 AM 17.88 64.184 0.446 7.9 4.37 8.64
9/22/2021 7:15:00 AM 17.88 64.184 0.445 7.9 4.49 8.67
9/22/2021 7:30:00 AM 17.88 64.184 0.445 7.9 4.79 8.74
9/22/2021 7:45:00 AM 17.88 64.184 0.446 7.91 5.44 8.55
9/22/2021 8:00:00 AM 17.88 64.184 0.446 7.89 4.84 8.57
9/22/2021 8:15:00 AM 17.88 64.184 0.446 7.91 5.02 8.77
9/22/2021 8:30:00 AM 17.89 64.202 0.446 7.91 4.66 8.8
9/22/2021 8:45:00 AM 17.89 64.202 0.446 7.92 4.45 8.8
9/22/2021 9:00:00 AM 17.92 64.256 0.446 7.93 4.41 8.88
9/22/2021 9:15:00 AM 17.97 64.346 0.446 7.93 4.52 9
9/22/2021 9:30:00 AM 18.01 64.418 0.446 7.95 4.46 8.99
9/22/2021 9:45:00 AM 18.04 64.472 0.446 7.96 4.42 9.2
9/22/2021 10:00:00 AM 18.05 64.49 0.446 7.98 4.44 9.27
9/22/2021 10:15:00 AM 18.08 64.544 0.446 7.99 4.47 9.08
9/22/2021 10:30:00 AM 18.11 64.598 0.446 8.01 4.45 9.31
9/22/2021 10:45:00 AM 18.14 64.652 0.446 8.02 4.29 9.29
9/22/2021 11:00:00 AM 18.16 64.688 0.445 8.02 4.55 9.39
9/22/2021 11:15:00 AM 18.18 64.724 0.443 8.02 4.5 9.33
9/22/2021 11:30:00 AM 18.22 64.796 0.441 8.02 4.54 9.3
9/22/2021 11:45:00 AM 18.31 64.958 0.44 8.03 4.54 9.43
9/22/2021 12:00:00 PM 18.39 65.102 0.438 8.05 4.6 9.56
9/22/2021 12:15:00 PM 18.43 65.174 0.437 8.07 4.68 9.61
9/22/2021 12:30:00 PM 18.47 65.246 0.436 8.08 4.72 9.62
9/22/2021 12:45:00 PM 18.46 65.228 0.435 8.08 4.93 9.57
9/22/2021 1:00:00 PM 18.46 65.228 0.432 8.08 5.09 9.57
9/22/2021 1:15:00 PM 18.53 65.354 0.429 8.07 5.44 9.5
9/22/2021 1:30:00 PM 18.64 65.552 0.429 8.09 5.98 9.65
9/22/2021 1:45:00 PM 18.68 65.624 0.43 8.09 5.47 9.69
9/22/2021 2:00:00 PM 18.68 65.624 0.431 8.1 5.46 9.63
9/22/2021 2:15:00 PM 18.67 65.606 0.429 8.09 6.38 9.54
9/22/2021 2:30:00 PM 18.69 65.642 0.426 8.09 7.35 9.53
9/22/2021 2:45:00 PM 18.72 65.696 0.423 8.08 9.33 9.5
9/22/2021 3:00:00 PM 18.72 65.696 0.42 8.07 10.73 9.46
9/22/2021 3:15:00 PM 18.73 65.714 0.418 8.07 12.77 9.43
9/22/2021 3:30:00 PM 18.74 65.732 0.418 8.07 12.94 9.41
9/22/2021 3:45:00 PM 18.76 65.768 0.419 8.07 13.36 9.35
9/22/2021 4:00:00 PM 18.82 65.876 0.419 8.07 12.31 9.35
9/22/2021 4:15:00 PM 18.88 65.984 0.42 8.08 11.89 9.34
9/22/2021 4:30:00 PM 18.89 66.002 0.42 8.07 12.47 9.31
9/22/2021 4:45:00 PM 18.91 66.038 0.421 8.06 12.68 9.24
9/22/2021 5:00:00 PM 18.93 66.074 0.421 8.05 10.71 9.2
9/22/2021 5:15:00 PM 18.94 66.092 0.421 8.04 10.86 9.14
9/22/2021 5:30:00 PM 18.92 66.056 0.42 8.02 11.07 9.06
9/22/2021 5:45:00 PM 18.92 66.056 0.419 8.01 10.86 9
9/22/2021 6:00:00 PM 18.91 66.038 0.418 8 10.23 8.97
9/22/2021 6:15:00 PM 18.91 66.038 0.417 7.99 8.66 8.91
9/22/2021 6:30:00 PM 18.9 66.02 0.417 7.99 9.64 8.9
9/22/2021 6:45:00 PM 18.89 66.002 0.416 7.97 9.55 8.84
9/22/2021 7:00:00 PM 18.89 66.002 0.416 7.97 9.32 8.81
9/22/2021 7:15:00 PM 18.88 65.984 0.415 7.96 9.76 8.78
9/22/2021 7:30:00 PM 18.87 65.966 0.413 7.95 10.28 8.74
9/22/2021 7:45:00 PM 18.86 65.948 0.413 7.94 11.13 8.73
9/22/2021 8:00:00 PM 18.85 65.93 0.412 7.94 9.77 8.7
9/22/2021 8:15:00 PM 18.84 65.912 0.412 7.93 9.98 8.69
9/22/2021 8:30:00 PM 18.83 65.894 0.411 7.93 10.01 8.68
9/22/2021 8:45:00 PM 18.82 65.876 0.411 7.92 10.83 8.68
9/22/2021 9:00:00 PM 18.81 65.858 0.41 7.92 9.79 8.66
9/22/2021 9:15:00 PM 18.8 65.84 0.41 7.92 11.9 8.67
9/22/2021 9:30:00 PM 18.76 65.768 0.406 7.92 10.25 8.67
9/22/2021 9:45:00 PM 18.73 65.714 0.405 7.91 9.78 8.65
9/22/2021 10:00:00 PM 18.7 65.66 0.404 7.9 10.31 8.65
9/22/2021 10:15:00 PM 18.66 65.588 0.402 7.9 10.39 8.65
9/22/2021 10:30:00 PM 18.62 65.516 0.4 7.89 11.31 8.66
9/22/2021 10:45:00 PM 18.59 65.462 0.398 7.89 12.64 8.66
9/22/2021 11:00:00 PM 18.55 65.39 0.396 7.88 12.67 8.66
9/22/2021 11:15:00 PM 18.52 65.336 0.394 7.88 12.57 8.67
9/22/2021 11:30:00 PM 18.47 65.246 0.392 7.87 13.57 8.67
9/22/2021 11:45:00 PM 18.43 65.174 0.39 7.86 14.65 8.67
9/23/2021 12:00:00 AM 18.38 65.084 0.388 7.86 15 8.69
9/23/2021 12:15:00 AM 18.32 64.976 0.386 7.86 14.59 8.69
9/23/2021 12:30:00 AM 18.27 64.886 0.385 7.85 13.24 8.71
9/23/2021 12:45:00 AM 18.22 64.796 0.383 7.85 18.92 8.7
9/23/2021 1:00:00 AM 18.17 64.706 0.382 7.84 16.1 8.73
9/23/2021 1:15:00 AM 18.14 64.652 0.383 7.83 17.65 8.72
9/23/2021 1:30:00 AM 18.11 64.598 0.383 7.83 22.28 8.73
9/23/2021 1:45:00 AM 18.07 64.526 0.383 7.83 32.92 8.73
9/23/2021 2:00:00 AM 18.04 64.472 0.382 7.82 24.86 8.74
9/23/2021 2:15:00 AM 17.98 64.364 0.379 7.82 40.69 8.76
9/23/2021 2:30:00 AM 17.92 64.256 0.375 7.81 34.53 8.77
9/23/2021 2:45:00 AM 17.88 64.184 0.371 7.81 39.44 8.78
9/23/2021 3:00:00 AM 17.82 64.076 0.366 7.79 48.65 8.79
9/23/2021 3:15:00 AM 17.78 64.004 0.363 7.78 44.5 8.78
9/23/2021 3:30:00 AM 17.74 63.932 0.361 7.76 65.45 8.78
9/23/2021 3:45:00 AM 17.7 63.86 0.358 7.75 59.96 8.79
9/23/2021 4:00:00 AM 17.65 63.77 0.35 7.74 103.33 8.79
9/23/2021 4:15:00 AM 17.59 63.662 0.343 7.72 110.06 8.82
9/23/2021 4:30:00 AM 17.55 63.59 0.337 7.7 99.88 8.81
9/23/2021 4:45:00 AM 17.5 63.5 0.333 7.67 116.75 8.8
9/23/2021 5:00:00 AM 17.46 63.428 0.332 7.65 134.99 8.8
9/23/2021 5:15:00 AM 17.42 63.356 0.329 7.65 127.73 8.8
9/23/2021 5:30:00 AM 17.38 63.284 0.323 7.64 147.04 8.82
9/23/2021 5:45:00 AM 17.35 63.23 0.317 7.63 154.63 8.82
9/23/2021 6:00:00 AM 17.32 63.176 0.31 7.62 149.86 8.83
9/23/2021 6:15:00 AM 17.3 63.14 0.304 7.62 85.3 8.83
9/23/2021 6:30:00 AM 17.28 63.104 0.298 7.61 94.49 8.83
9/23/2021 6:45:00 AM 17.25 63.05 0.291 7.6 97.64 8.83
9/23/2021 7:00:00 AM 17.23 63.014 0.285 7.6 104.56 8.82
9/23/2021 7:15:00 AM 17.2 62.96 0.283 7.6 90.38 8.83
9/23/2021 7:30:00 AM 17.18 62.924 0.282 7.59 88.06 8.83
9/23/2021 7:45:00 AM 17.15 62.87 0.283 7.59 87.26 8.84
9/23/2021 8:00:00 AM 17.14 62.852 0.283 7.6 84.22 8.84
9/23/2021 8:15:00 AM 17.11 62.798 0.281 7.6 82.1 8.84
9/23/2021 8:30:00 AM 17.09 62.762 0.279 7.6 84.82 8.84
9/23/2021 8:45:00 AM 17.07 62.726 0.276 7.6 79.56 8.85
9/23/2021 9:00:00 AM 17.04 62.672 0.274 7.6 76 8.86
9/23/2021 9:15:00 AM 17.02 62.636 0.271 7.6 74.02 8.87
9/23/2021 9:30:00 AM 16.98 62.564 0.266 7.59 74.57 8.88
9/23/2021 9:45:00 AM 16.95 62.51 0.26 7.59 71.63 8.89
9/23/2021 10:00:00 AM 16.93 62.474 0.253 7.58 72.1 8.89
9/23/2021 10:15:00 AM 16.9 62.42 0.246 7.57 70.96 8.91
9/23/2021 10:30:00 AM 16.89 62.402 0.24 7.57 72.42 8.91
9/23/2021 10:45:00 AM 16.89 62.402 0.235 7.56 69.49 8.92
9/23/2021 11:00:00 AM 16.9 62.42 0.231 7.56 75.02 8.93
9/23/2021 11:15:00 AM 16.87 62.366 0.229 7.56 70.27 8.94
9/23/2021 11:30:00 AM 16.85 62.33 0.226 7.55 65.33 8.95
9/23/2021 11:45:00 AM 16.81 62.258 0.223 7.55 64.17 8.96
9/23/2021 12:00:00 PM 16.79 62.222 0.221 7.55 60.7 8.97
9/23/2021 12:15:00 PM 16.79 62.222 0.218 7.54 60.02 8.98
9/23/2021 12:30:00 PM 16.78 62.204 0.215 7.54 56.06 8.99
9/23/2021 12:45:00 PM 16.81 62.258 0.212 7.53 54.63 9
9/23/2021 1:00:00 PM 16.8 62.24 0.21 7.54 55.05 9.01
9/23/2021 1:15:00 PM 16.81 62.258 0.209 7.53 53.57 9.02
9/23/2021 1:30:00 PM 16.79 62.222 0.208 7.53 54.3 9.03
9/23/2021 1:45:00 PM 16.78 62.204 0.207 7.53 48.98 9.03
9/23/2021 2:00:00 PM 16.77 62.186 0.207 7.53 49.4 9.04
9/23/2021 2:15:00 PM 16.74 62.132 0.207 7.53 50.42 9.05
9/23/2021 2:30:00 PM 16.73 62.114 0.207 7.54 47.17 9.06
9/23/2021 2:45:00 PM 16.7 62.06 0.207 7.53 47.43 9.06
9/23/2021 3:00:00 PM 16.65 61.97 0.207 7.53 45.02 9.07
9/23/2021 3:15:00 PM 16.63 61.934 0.206 7.53 41.45 9.08
9/23/2021 3:30:00 PM 16.6 61.88 0.206 7.53 46.22 9.09
9/23/2021 3:45:00 PM 16.57 61.826 0.206 7.53 36.04 9.09
9/23/2021 4:00:00 PM 16.54 61.772 0.205 7.53 41.88 9.11
9/23/2021 4:15:00 PM 16.5 61.7 0.205 7.53 38.32 9.11
9/23/2021 4:30:00 PM 16.46 61.628 0.205 7.54 36.71 9.12
9/23/2021 4:45:00 PM 16.42 61.556 0.204 7.53 36.59 9.13
9/23/2021 5:00:00 PM 16.38 61.484 0.204 7.53 37.46 9.14
9/23/2021 5:15:00 PM 16.33 61.394 0.204 7.53 35.99 9.14
9/23/2021 5:30:00 PM 16.27 61.286 0.203 7.53 33.09 9.16
9/23/2021 5:45:00 PM 16.22 61.196 0.202 7.54 34.26 9.17
9/23/2021 6:00:00 PM 16.16 61.088 0.202 7.53 33.81 9.18
9/23/2021 6:15:00 PM 16.11 60.998 0.201 7.53 32.24 9.19
9/23/2021 6:30:00 PM 16.06 60.908 0.201 7.53 30.06 9.2
9/23/2021 6:45:00 PM 16.01 60.818 0.2 7.53 31.76 9.21
9/23/2021 7:00:00 PM 15.95 60.71 0.2 7.53 32.11 9.23
9/23/2021 7:15:00 PM 15.9 60.62 0.199 7.53 31.49 9.24
9/23/2021 7:30:00 PM 15.85 60.53 0.199 7.52 28.48 9.24
9/23/2021 7:45:00 PM 15.8 60.44 0.198 7.52 30.36 9.25
9/23/2021 8:00:00 PM 15.75 60.35 0.198 7.52 29.36 9.27
9/23/2021 8:15:00 PM 15.71 60.278 0.198 7.52 28.7 9.27
9/23/2021 8:30:00 PM 15.65 60.17 0.197 7.52 30.5 9.28
9/23/2021 8:45:00 PM 15.6 60.08 0.197 7.52 28.47 9.29
9/23/2021 9:00:00 PM 15.54 59.972 0.197 7.52 30.42 9.31
9/23/2021 9:15:00 PM 15.49 59.882 0.197 7.51 22.08 9.32
9/23/2021 9:30:00 PM 15.43 59.774 0.196 7.52 25.52 9.34
9/23/2021 9:45:00 PM 15.38 59.684 0.196 7.51 28.41 9.33
9/23/2021 10:00:00 PM 15.32 59.576 0.196 7.51 24.94 9.36
9/23/2021 10:15:00 PM 15.26 59.468 0.196 7.51 28.65 9.38
9/23/2021 10:30:00 PM 15.21 59.378 0.196 7.52 22.73 9.39
9/23/2021 10:45:00 PM 15.15 59.27 0.196 7.51 23.49 9.4
9/23/2021 11:00:00 PM 15.1 59.18 0.196 7.51 38.97 9.42
9/23/2021 11:15:00 PM 15.04 59.072 0.196 7.51 20.92 9.44
9/23/2021 11:30:00 PM 14.98 58.964 0.196 7.51 24.75 9.45
9/23/2021 11:45:00 PM 14.93 58.874 0.196 7.51 22.67 9.47
9/24/2021 12:00:00 AM 14.89 58.802 0.196 7.51 21.11 9.48
9/24/2021 12:15:00 AM 14.83 58.694 0.196 7.52 24.55 9.5
9/24/2021 12:30:00 AM 14.78 58.604 0.196 7.51 23.95 9.51
9/24/2021 12:45:00 AM 14.73 58.514 0.196 7.51 23.54 9.51
9/24/2021 1:00:00 AM 14.69 58.442 0.196 7.51 19.18 9.53
9/24/2021 1:15:00 AM 14.64 58.352 0.196 7.51 20.19 9.54
9/24/2021 1:30:00 AM 14.61 58.298 0.196 7.51 21.89 9.55
9/24/2021 1:45:00 AM 14.56 58.208 0.196 7.51 31.79 9.56
9/24/2021 2:00:00 AM 14.51 58.118 0.196 7.52 21.1 9.58
9/24/2021 2:15:00 AM 14.46 58.028 0.196 7.51 21.65 9.59
9/24/2021 2:30:00 AM 14.41 57.938 0.197 7.51 28.62 9.61
9/24/2021 2:45:00 AM 14.36 57.848 0.197 7.51 19.78 9.61
9/24/2021 3:00:00 AM 14.31 57.758 0.197 7.52 22.16 9.63
9/24/2021 3:15:00 AM 14.26 57.668 0.197 7.51 20.33 9.64
9/24/2021 3:30:00 AM 14.22 57.596 0.198 7.51 17.14 9.65
9/24/2021 3:45:00 AM 14.17 57.506 0.198 7.51 19.86 9.66
9/24/2021 4:00:00 AM 14.12 57.416 0.198 7.52 35.01 9.68
9/24/2021 4:15:00 AM 14.07 57.326 0.198 7.52 18.17 9.7
9/24/2021 4:30:00 AM 14.02 57.236 0.198 7.51 28.2 9.7
9/24/2021 4:45:00 AM 13.98 57.164 0.199 7.51 24.82 9.71
9/24/2021 5:00:00 AM 13.93 57.074 0.199 7.52 22.05 9.73
9/24/2021 5:15:00 AM 14.06 57.308 0.198 7.52 15.58 9.68
9/24/2021 5:30:00 AM 14.01 57.218 0.198 7.52 21.52 9.69
9/24/2021 5:45:00 AM 13.96 57.128 0.198 7.52 18.91 9.71
9/24/2021 6:00:00 AM 13.91 57.038 0.199 7.52 19.11 9.72
9/24/2021 6:15:00 AM 13.86 56.948 0.199 7.52 18.72 9.73
9/24/2021 6:30:00 AM 13.82 56.876 0.199 7.52 16.5 9.74
9/24/2021 6:45:00 AM 13.78 56.804 0.2 7.51 17.35 9.75
9/24/2021 7:00:00 AM 13.72 56.696 0.2 7.52 18.5 9.77
9/24/2021 7:15:00 AM 13.67 56.606 0.2 7.52 17.07 9.79
9/24/2021 7:30:00 AM 13.63 56.534 0.2 7.52 19.5 9.8
9/24/2021 7:45:00 AM 13.58 56.444 0.2 7.52 16.28 9.82
9/24/2021 8:00:00 AM 13.54 56.372 0.201 7.52 15.13 9.83
9/24/2021 8:15:00 AM 13.52 56.336 0.201 7.52 14.89 9.84
9/24/2021 8:30:00 AM 13.51 56.318 0.201 7.53 13.6 9.87
9/24/2021 8:45:00 AM 13.49 56.282 0.201 7.53 16.4 9.91
9/24/2021 9:00:00 AM 13.49 56.282 0.202 7.53 18.99 9.93
9/24/2021 9:15:00 AM 13.49 56.282 0.202 7.54 14.01 9.95
9/24/2021 9:30:00 AM 13.5 56.3 0.202 7.54 13.19 9.96
9/24/2021 9:45:00 AM 13.5 56.3 0.202 7.54 15.12 9.98
9/24/2021 10:00:00 AM 13.52 56.336 0.203 7.55 15.63 9.99
9/24/2021 10:15:00 AM 13.53 56.354 0.203 7.55 15.08 10
9/24/2021 10:30:00 AM 13.56 56.408 0.203 7.55 12.73 10
9/24/2021 10:45:00 AM 13.59 56.462 0.204 7.55 14.75 10.02
9/24/2021 11:00:00 AM 13.64 56.552 0.204 7.56 16.14 10.02
9/24/2021 11:15:00 AM 13.68 56.624 0.204 7.57 12.75 10.03
9/24/2021 11:30:00 AM 13.73 56.714 0.205 7.57 13.76 10.05
9/24/2021 11:45:00 AM 13.78 56.804 0.205 7.57 12.04 10.04
9/24/2021 12:00:00 PM 13.86 56.948 0.205 7.58 11.77 10.05
9/24/2021 12:15:00 PM 13.93 57.074 0.205 7.58 14.08 10.06
9/24/2021 12:30:00 PM 14.02 57.236 0.206 7.58 12.62 10.06
9/24/2021 12:45:00 PM 14.12 57.416 0.206 7.58 13.2 10.06
9/24/2021 1:00:00 PM 14.21 57.578 0.206 7.59 11.84 10.06
9/24/2021 1:15:00 PM 14.33 57.794 0.207 7.6 12.63 10.08
9/24/2021 1:30:00 PM 14.46 58.028 0.207 7.61 12.72 10.09
9/24/2021 1:45:00 PM 14.6 58.28 0.207 7.62 12.12 10.1
9/24/2021 2:00:00 PM 14.72 58.496 0.208 7.62 12.85 10.09
9/24/2021 2:15:00 PM 14.83 58.694 0.208 7.62 11.95 10.08
9/24/2021 2:30:00 PM 14.93 58.874 0.208 7.63 13.1 10.07
9/24/2021 2:45:00 PM 15.02 59.036 0.209 7.64 11.09 10.07
9/24/2021 3:00:00 PM 15.07 59.126 0.209 7.64 14.47 10.05
9/24/2021 3:15:00 PM 15.15 59.27 0.209 7.63 14.39 10.06
9/24/2021 3:30:00 PM 15.18 59.324 0.21 7.65 11.85 10.05
9/24/2021 3:45:00 PM 15.23 59.414 0.21 7.64 11.47 10.03
9/24/2021 4:00:00 PM 15.28 59.504 0.21 7.64 9.79 10.02
9/24/2021 4:15:00 PM 15.28 59.504 0.211 7.65 11.05 10
9/24/2021 4:30:00 PM 15.25 59.45 0.211 7.65 12.28 9.99
9/24/2021 4:45:00 PM 15.23 59.414 0.211 7.64 10.74 9.97
9/24/2021 5:00:00 PM 15.22 59.396 0.212 7.63 11.79 9.94
9/24/2021 5:15:00 PM 15.19 59.342 0.212 7.63 10.93 9.91
9/24/2021 5:30:00 PM 15.17 59.306 0.212 7.62 10.76 9.87
9/24/2021 5:45:00 PM 15.16 59.288 0.213 7.62 10.25 9.85
9/24/2021 6:00:00 PM 15.15 59.27 0.213 7.61 10.02 9.82
9/24/2021 6:15:00 PM 15.14 59.252 0.213 7.61 11.15 9.79
9/24/2021 6:30:00 PM 15.12 59.216 0.213 7.6 11.56 9.78
9/24/2021 6:45:00 PM 15.11 59.198 0.214 7.59 13.93 9.73
9/24/2021 7:00:00 PM 15.09 59.162 0.214 7.59 11.09 9.72
9/24/2021 7:15:00 PM 15.06 59.108 0.214 7.59 10.8 9.69
9/24/2021 7:30:00 PM 15.03 59.054 0.215 7.59 10.02 9.67
9/24/2021 7:45:00 PM 15.01 59.018 0.215 7.58 105.72 9.65
9/24/2021 8:00:00 PM 14.97 58.946 0.215 7.58 11.23 9.65
9/24/2021 8:15:00 PM 14.94 58.892 0.216 7.58 11.57 9.64
9/24/2021 8:30:00 PM 14.9 58.82 0.216 7.58 10.44 9.64
9/24/2021 8:45:00 PM 14.86 58.748 0.216 7.57 11.17 9.63
9/24/2021 9:00:00 PM 14.82 58.676 0.217 7.57 11.22 9.63
9/24/2021 9:15:00 PM 14.77 58.586 0.217 7.57 10.9 9.64
9/24/2021 9:30:00 PM 14.73 58.514 0.217 7.56 10.77 9.62
9/24/2021 9:45:00 PM 14.67 58.406 0.217 7.57 11.73 9.64
9/24/2021 10:00:00 PM 14.62 58.316 0.218 7.56 11.71 9.64
9/24/2021 10:15:00 PM 14.57 58.226 0.218 7.56 11.93 9.65
9/24/2021 10:30:00 PM 14.51 58.118 0.219 7.56 14.17 9.64
9/24/2021 10:45:00 PM 14.46 58.028 0.219 7.56 12.04 9.68
9/24/2021 11:00:00 PM 14.4 57.92 0.219 7.57 10.58 9.68
9/24/2021 11:15:00 PM 14.35 57.83 0.219 7.55 11.07 9.68
9/24/2021 11:30:00 PM 14.29 57.722 0.22 7.55 10.2 9.68
9/24/2021 11:45:00 PM 14.23 57.614 0.22 7.56 11.41 9.71
9/25/2021 12:00:00 AM 14.18 57.524 0.22 7.56 10.72 9.72
9/25/2021 12:15:00 AM 14.12 57.416 0.221 7.56 11.48 9.73
9/25/2021 12:30:00 AM 14.06 57.308 0.221 7.56 10.8 9.74
9/25/2021 12:45:00 AM 14 57.2 0.221 7.56 11.62 9.76
9/25/2021 1:00:00 AM 13.95 57.11 0.221 7.56 10.35 9.76
9/25/2021 1:15:00 AM 13.89 57.002 0.222 7.55 10.53 9.78
9/25/2021 1:30:00 AM 13.84 56.912 0.222 7.56 10.38 9.8
9/25/2021 1:45:00 AM 13.78 56.804 0.222 7.56 10.42 9.8
9/25/2021 2:00:00 AM 13.72 56.696 0.223 7.56 9.52 9.82
9/25/2021 2:15:00 AM 13.66 56.588 0.223 7.56 10.83 9.84
9/25/2021 2:30:00 AM 13.6 56.48 0.223 7.55 9.95 9.85
9/25/2021 2:45:00 AM 13.54 56.372 0.224 7.55 11.14 9.86
9/25/2021 3:00:00 AM 13.48 56.264 0.224 7.55 10.87 9.85
9/25/2021 3:15:00 AM 13.42 56.156 0.224 7.56 10.36 9.89
9/25/2021 3:30:00 AM 13.37 56.066 0.224 7.56 10 9.9
9/25/2021 3:45:00 AM 13.31 55.958 0.225 7.55 9.72 9.91
9/25/2021 4:00:00 AM 13.26 55.868 0.225 7.55 9.24 9.92
9/25/2021 4:15:00 AM 13.21 55.778 0.225 7.55 12.29 9.93
9/25/2021 4:30:00 AM 13.16 55.688 0.226 7.56 10.3 9.94
9/25/2021 4:45:00 AM 13.11 55.598 0.226 7.56 9.55 9.97
9/25/2021 5:00:00 AM 13.06 55.508 0.226 7.56 10.39 9.97
9/25/2021 5:15:00 AM 13.02 55.436 0.226 7.56 10.04 9.98
9/25/2021 5:30:00 AM 12.98 55.364 0.227 7.56 10.46 9.98
9/25/2021 5:45:00 AM 12.93 55.274 0.227 7.56 10.16 9.99
9/25/2021 6:00:00 AM 12.89 55.202 0.227 7.56 10.3 10.03
9/25/2021 6:15:00 AM 12.84 55.112 0.228 7.56 10.02 10.03
9/25/2021 6:30:00 AM 12.8 55.04 0.228 7.56 10.83 10.05
9/25/2021 6:45:00 AM 12.76 54.968 0.228 7.56 9.78 10.06
9/25/2021 7:00:00 AM 12.72 54.896 0.228 7.57 10.07 10.06
9/25/2021 7:15:00 AM 12.69 54.842 0.229 7.57 9.72 10.09
9/25/2021 7:30:00 AM 12.66 54.788 0.229 7.56 8.44 10.1
9/25/2021 7:45:00 AM 12.63 54.734 0.229 7.56 9.4 10.09
9/25/2021 8:00:00 AM 12.6 54.68 0.23 7.57 46.79 10.13
9/25/2021 8:15:00 AM 12.58 54.644 0.23 7.58 10.07 10.16
9/25/2021 8:30:00 AM 12.57 54.626 0.23 7.57 10.38 10.19
9/25/2021 8:45:00 AM 12.57 54.626 0.23 7.58 11.13 10.24
9/25/2021 9:00:00 AM 12.57 54.626 0.231 7.6 9.83 10.28
9/25/2021 9:15:00 AM 12.6 54.68 0.231 7.59 8.93 10.32
9/25/2021 9:30:00 AM 12.59 54.662 0.231 7.6 8.79 10.34
9/25/2021 9:45:00 AM 12.6 54.68 0.232 7.6 7.79 10.33
9/25/2021 10:00:00 AM 12.63 54.734 0.232 7.61 8.13 10.35
9/25/2021 10:15:00 AM 12.66 54.788 0.232 7.61 7.74 10.36
9/25/2021 10:30:00 AM 12.69 54.842 0.232 7.62 8.04 10.35
9/25/2021 10:45:00 AM 12.73 54.914 0.233 7.62 7.96 10.35
9/25/2021 11:00:00 AM 12.78 55.004 0.233 7.62 7.65 10.36
9/25/2021 11:15:00 AM 12.86 55.148 0.233 7.62 7.44 10.36
9/25/2021 11:30:00 AM 12.93 55.274 0.234 7.63 7.16 10.37
9/25/2021 11:45:00 AM 13.03 55.454 0.234 7.64 7.54 10.4
9/25/2021 12:00:00 PM 13.14 55.652 0.234 7.65 7.3 10.44
9/25/2021 12:15:00 PM 13.25 55.85 0.234 7.67 8.14 10.46
9/25/2021 12:30:00 PM 13.33 55.994 0.235 7.67 7.46 10.46
9/25/2021 12:45:00 PM 13.46 56.228 0.235 7.67 8.05 10.47
9/25/2021 1:00:00 PM 13.55 56.39 0.235 7.69 8.84 10.48
9/25/2021 1:15:00 PM 13.67 56.606 0.236 7.7 7.06 10.49
9/25/2021 1:30:00 PM 13.81 56.858 0.236 7.69 6.79 10.46
9/25/2021 1:45:00 PM 13.91 57.038 0.236 7.69 7.22 10.45
9/25/2021 2:00:00 PM 14.02 57.236 0.236 7.7 6.65 10.42
9/25/2021 2:15:00 PM 14.12 57.416 0.237 7.72 7.43 10.47
9/25/2021 2:30:00 PM 14.22 57.596 0.237 7.73 7.56 10.47
9/25/2021 2:45:00 PM 14.29 57.722 0.237 7.74 7.9 10.47
9/25/2021 3:00:00 PM 14.36 57.848 0.238 7.73 8.15 10.43
9/25/2021 3:15:00 PM 14.42 57.956 0.238 7.73 6.57 10.44
9/25/2021 3:30:00 PM 14.47 58.046 0.238 7.73 6.61 10.39
9/25/2021 3:45:00 PM 14.51 58.118 0.239 7.73 6.9 10.4
9/25/2021 4:00:00 PM 14.5 58.1 0.239 7.74 6.7 10.19
9/25/2021 4:15:00 PM 14.53 58.154 0.239 7.74 6.83 10.35
9/25/2021 4:30:00 PM 14.53 58.154 0.239 7.74 6.66 10.36
9/25/2021 4:45:00 PM 14.62 58.316 0.24 7.74 9.56 10.34
9/25/2021 5:00:00 PM 14.6 58.28 0.24 7.75 7.12 10.3
9/25/2021 5:15:00 PM 14.6 58.28 0.241 7.74 6.4 10.25
9/25/2021 5:30:00 PM 14.59 58.262 0.241 7.73 6.6 10.19
9/25/2021 5:45:00 PM 14.58 58.244 0.241 7.71 6.31 10.14
9/25/2021 6:00:00 PM 14.56 58.208 0.242 7.71 6.86 10.1
9/25/2021 6:15:00 PM 14.55 58.19 0.242 7.7 6.22 10.06
9/25/2021 6:30:00 PM 14.52 58.136 0.243 7.69 6.31 10.01
9/25/2021 6:45:00 PM 14.52 58.136 0.243 7.68 6.99 9.97
9/25/2021 7:00:00 PM 14.52 58.136 0.243 7.68 6.14 9.91
9/25/2021 7:15:00 PM 14.51 58.118 0.244 7.67 6.34 9.89
9/25/2021 7:30:00 PM 14.51 58.118 0.244 7.66 6.82 9.82
9/25/2021 7:45:00 PM 14.52 58.136 0.244 7.67 6.79 9.83
9/25/2021 8:00:00 PM 14.52 58.136 0.244 7.66 6.75 9.8
9/25/2021 8:15:00 PM 14.52 58.136 0.245 7.65 6.7 9.78
9/25/2021 8:30:00 PM 14.52 58.136 0.245 7.64 6.66 9.74
9/25/2021 8:45:00 PM 14.51 58.118 0.245 7.65 7.57 9.72
9/25/2021 9:00:00 PM 14.5 58.1 0.246 7.64 6.98 9.73
9/25/2021 9:15:00 PM 14.49 58.082 0.246 7.64 7.06 9.7
9/25/2021 9:30:00 PM 14.48 58.064 0.247 7.63 7.01 9.7
9/25/2021 9:45:00 PM 14.47 58.046 0.247 7.63 7.37 9.7
9/25/2021 10:00:00 PM 14.46 58.028 0.247 7.62 7.39 9.68
9/25/2021 10:15:00 PM 14.45 58.01 0.248 7.63 7.26 9.68
9/25/2021 10:30:00 PM 14.45 58.01 0.248 7.63 7.26 9.69
9/25/2021 10:45:00 PM 14.44 57.992 0.248 7.63 7.2 9.68
9/25/2021 11:00:00 PM 14.44 57.992 0.249 7.62 6.9 9.68
9/25/2021 11:15:00 PM 14.43 57.974 0.249 7.62 7.21 9.68
9/25/2021 11:30:00 PM 14.4 57.92 0.249 7.63 8.96 9.68
9/25/2021 11:45:00 PM 14.39 57.902 0.249 7.62 7.29 9.63
9/26/2021 12:00:00 AM 14.36 57.848 0.25 7.62 7.03 9.67
9/26/2021 12:15:00 AM 14.33 57.794 0.25 7.62 6.79 9.67
9/26/2021 12:30:00 AM 14.3 57.74 0.251 7.61 7.21 9.68
9/26/2021 12:45:00 AM 14.26 57.668 0.251 7.62 7.47 9.69
9/26/2021 1:00:00 AM 14.23 57.614 0.251 7.61 7.01 9.69
9/26/2021 1:15:00 AM 14.18 57.524 0.251 7.62 6.9 9.7
9/26/2021 1:30:00 AM 14.14 57.452 0.252 7.62 6.9 9.71
9/26/2021 1:45:00 AM 14.08 57.344 0.252 7.62 7.36 9.72
9/26/2021 2:00:00 AM 14.03 57.254 0.252 7.62 7.54 9.73
9/26/2021 2:15:00 AM 13.98 57.164 0.253 7.62 6.67 9.74
9/26/2021 2:30:00 AM 13.93 57.074 0.253 7.62 6.55 9.75
9/26/2021 2:45:00 AM 13.88 56.984 0.253 7.63 7.14 9.77
9/26/2021 3:00:00 AM 13.83 56.894 0.254 7.62 6.82 9.76
9/26/2021 3:15:00 AM 13.78 56.804 0.254 7.62 6.84 9.77
9/26/2021 3:30:00 AM 13.74 56.732 0.254 7.62 7.07 9.76
9/26/2021 3:45:00 AM 13.7 56.66 0.254 7.62 7.16 9.79
9/26/2021 4:00:00 AM 13.66 56.588 0.255 7.61 6.8 9.8
9/26/2021 4:15:00 AM 13.62 56.516 0.255 7.62 6.92 9.82
9/26/2021 4:30:00 AM 13.58 56.444 0.255 7.62 6.82 9.82
9/26/2021 4:45:00 AM 13.55 56.39 0.255 7.62 7.05 9.84
9/26/2021 5:00:00 AM 13.52 56.336 0.256 7.63 6.63 9.82
9/26/2021 5:15:00 AM 13.47 56.246 0.256 7.62 6.81 9.86
9/26/2021 5:30:00 AM 13.43 56.174 0.256 7.63 7.2 9.87
9/26/2021 5:45:00 AM 13.39 56.102 0.257 7.61 6.87 9.87
9/26/2021 6:00:00 AM 13.34 56.012 0.257 7.63 7.23 9.9
9/26/2021 6:15:00 AM 13.3 55.94 0.257 7.63 7.91 9.89
9/26/2021 6:30:00 AM 13.25 55.85 0.257 7.62 6.98 9.9
9/26/2021 6:45:00 AM 13.21 55.778 0.258 7.63 6.91 9.94
9/26/2021 7:00:00 AM 13.16 55.688 0.258 7.63 8.04 9.94
9/26/2021 7:15:00 AM 13.12 55.616 0.258 7.63 9.05 9.95
9/26/2021 7:30:00 AM 13.08 55.544 0.258 7.64 6.96 9.99
9/26/2021 7:45:00 AM 13.05 55.49 0.259 7.64 6.58 10
9/26/2021 8:00:00 AM 13 55.4 0.259 7.64 7.45 10.03
9/26/2021 8:15:00 AM 12.97 55.346 0.259 7.65 8.05 10.05
9/26/2021 8:30:00 AM 12.94 55.292 0.259 7.65 6.47 10.09
9/26/2021 8:45:00 AM 12.91 55.238 0.26 7.65 6.32 10.14
9/26/2021 9:00:00 AM 12.9 55.22 0.26 7.65 6.47 10.14
9/26/2021 9:15:00 AM 12.89 55.202 0.26 7.65 7.18 10.18
9/26/2021 9:30:00 AM 12.89 55.202 0.26 7.66 6.18 10.22
9/26/2021 9:45:00 AM 12.9 55.22 0.26 7.67 6.94 10.23
9/26/2021 10:00:00 AM 12.94 55.292 0.261 7.66 5.9 10.24
9/26/2021 10:15:00 AM 12.92 55.256 0.261 7.68 5.69 10.28
9/26/2021 10:30:00 AM 12.93 55.274 0.261 7.69 5.8 10.31
9/26/2021 10:45:00 AM 12.95 55.31 0.261 7.69 6.07 10.32
9/26/2021 11:00:00 AM 12.98 55.364 0.261 7.7 5.92 10.35
9/26/2021 11:15:00 AM 13.04 55.472 0.262 7.7 12.51 10.33
9/26/2021 11:30:00 AM 13.1 55.58 0.262 7.72 6.27 10.38
9/26/2021 11:45:00 AM 13.16 55.688 0.262 7.73 6.77 10.37
9/26/2021 12:00:00 PM 13.24 55.832 0.263 7.73 5.89 10.4
9/26/2021 12:15:00 PM 13.33 55.994 0.264 7.73 5.65 10.4
9/26/2021 12:30:00 PM 13.44 56.192 0.265 7.75 5.56 10.41
9/26/2021 12:45:00 PM 13.55 56.39 0.264 7.76 5.93 10.41
9/26/2021 1:00:00 PM 13.67 56.606 0.264 7.75 6.2 10.41
9/26/2021 1:15:00 PM 13.79 56.822 0.264 7.76 6.51 10.41
9/26/2021 1:30:00 PM 13.94 57.092 0.264 7.77 5.22 10.4
9/26/2021 1:45:00 PM 14.1 57.38 0.264 7.78 5.86 10.41
9/26/2021 2:00:00 PM 14.25 57.65 0.264 7.8 6.15 10.41
9/26/2021 2:15:00 PM 14.42 57.956 0.265 7.8 5.65 10.41
9/26/2021 2:30:00 PM 14.59 58.262 0.265 7.81 5.6 10.4
9/26/2021 2:45:00 PM 14.75 58.55 0.265 7.82 5.25 10.38
9/26/2021 3:00:00 PM 14.89 58.802 0.265 7.82 5.35 10.36
9/26/2021 3:15:00 PM 15.01 59.018 0.265 7.82 5.6 10.35
9/26/2021 3:30:00 PM 15.11 59.198 0.266 7.84 5.24 10.34
9/26/2021 3:45:00 PM 15.17 59.306 0.266 7.84 6.03 10.32
9/26/2021 4:00:00 PM 15.13 59.234 0.266 7.84 6.42 10.28
9/26/2021 4:15:00 PM 15.15 59.27 0.267 7.83 6.02 10.28
9/26/2021 4:30:00 PM 15.18 59.324 0.267 7.84 5.33 10.27
9/26/2021 4:45:00 PM 15.13 59.234 0.267 7.84 6.94 10.24
9/26/2021 5:00:00 PM 15.05 59.09 0.268 7.83 5.65 10.21
9/26/2021 5:15:00 PM 15 59 0.268 7.83 6.06 10.15
9/26/2021 5:30:00 PM 14.98 58.964 0.269 7.81 7.8 10.08
9/26/2021 5:45:00 PM 14.97 58.946 0.269 7.8 7.05 10.06
9/26/2021 6:00:00 PM 14.95 58.91 0.269 7.8 7.09 10.03
9/26/2021 6:15:00 PM 14.95 58.91 0.269 7.78 5.3 10
9/26/2021 6:30:00 PM 14.9 58.82 0.27 7.78 5.56 9.97
9/26/2021 6:45:00 PM 14.85 58.73 0.27 7.76 5.49 9.91
9/26/2021 7:00:00 PM 14.79 58.622 0.27 7.75 5.62 9.85
9/26/2021 7:15:00 PM 14.73 58.514 0.271 7.74 5.67 9.83
9/26/2021 7:30:00 PM 14.67 58.406 0.271 7.74 5.77 9.8
9/26/2021 7:45:00 PM 14.6 58.28 0.271 7.73 5.72 9.79
9/26/2021 8:00:00 PM 14.54 58.172 0.272 7.73 5.98 9.78
9/26/2021 8:15:00 PM 14.48 58.064 0.272 7.72 6.45 9.77
9/26/2021 8:30:00 PM 14.43 57.974 0.272 7.72 6.42 9.77
9/26/2021 8:45:00 PM 14.39 57.902 0.273 7.72 5.81 9.76
9/26/2021 9:00:00 PM 14.34 57.812 0.273 7.72 5.95 9.77
9/26/2021 9:15:00 PM 14.3 57.74 0.273 7.71 5.63 9.76
9/26/2021 9:30:00 PM 14.26 57.668 0.274 7.71 6.12 9.76
9/26/2021 9:45:00 PM 14.22 57.596 0.274 7.71 5.95 9.76
9/26/2021 10:00:00 PM 14.18 57.524 0.274 7.7 5.72 9.75
9/26/2021 10:15:00 PM 14.15 57.47 0.274 7.7 6.15 9.75
9/26/2021 10:30:00 PM 14.11 57.398 0.275 7.7 6.86 9.74
9/26/2021 10:45:00 PM 14.07 57.326 0.275 7.7 5.99 9.74
9/26/2021 11:00:00 PM 14.04 57.272 0.275 7.7 6.28 9.75
9/26/2021 11:15:00 PM 14 57.2 0.276 7.69 5.88 9.75
9/26/2021 11:30:00 PM 13.96 57.128 0.276 7.69 6.15 9.75
9/26/2021 11:45:00 PM 13.92 57.056 0.276 7.69 5.92 9.76
9/27/2021 12:00:00 AM 13.87 56.966 0.277 7.69 5.93 9.78
9/27/2021 12:15:00 AM 13.83 56.894 0.277 7.69 6.64 9.79
9/27/2021 12:30:00 AM 13.78 56.804 0.277 7.69 5.97 9.8
9/27/2021 12:45:00 AM 13.73 56.714 0.277 7.7 5.97 9.81
9/27/2021 1:00:00 AM 13.67 56.606 0.278 7.69 5.76 9.79
9/27/2021 1:15:00 AM 13.62 56.516 0.278 7.69 5.85 9.85
9/27/2021 1:30:00 AM 13.56 56.408 0.278 7.69 5.77 9.86
9/27/2021 1:45:00 AM 13.5 56.3 0.279 7.7 4.7 9.87
9/27/2021 2:00:00 AM 13.45 56.21 0.279 7.69 6.13 9.88
9/27/2021 2:15:00 AM 13.39 56.102 0.279 7.68 5.47 9.9
9/27/2021 2:30:00 AM 13.34 56.012 0.28 7.68 5.38 9.91
9/27/2021 2:45:00 AM 13.29 55.922 0.28 7.69 5.83 9.92
9/27/2021 3:00:00 AM 13.24 55.832 0.28 7.69 5.73 9.93
9/27/2021 3:15:00 AM 13.19 55.742 0.28 7.68 5.84 9.94
9/27/2021 3:30:00 AM 13.14 55.652 0.281 7.69 5.68 9.95
9/27/2021 3:45:00 AM 13.1 55.58 0.281 7.68 5.84 9.97
9/27/2021 4:00:00 AM 13.06 55.508 0.281 7.68 5.57 9.98
9/27/2021 4:15:00 AM 13.02 55.436 0.282 7.68 5.76 9.99
9/27/2021 4:30:00 AM 12.98 55.364 0.282 7.69 5.95 9.98
9/27/2021 4:45:00 AM 12.95 55.31 0.282 7.69 6.33 10
9/27/2021 5:00:00 AM 12.93 55.274 0.283 7.69 5.81 10
9/27/2021 5:15:00 AM 12.91 55.238 0.283 7.69 5.53 10.01
9/27/2021 5:30:00 AM 12.89 55.202 0.283 7.69 5.31 10.03
9/27/2021 5:45:00 AM 12.86 55.148 0.283 7.69 5.62 10.05
9/27/2021 6:00:00 AM 12.84 55.112 0.284 7.69 6.18 10.03
9/27/2021 6:15:00 AM 12.82 55.076 0.284 7.69 6.1 10.04
9/27/2021 6:30:00 AM 12.78 55.004 0.284 7.69 5.85 10.07
9/27/2021 6:45:00 AM 12.74 54.932 0.285 7.69 6.26 10.07
9/27/2021 7:00:00 AM 12.7 54.86 0.285 7.69 7.47 10.07
9/27/2021 7:15:00 AM 12.67 54.806 0.285 7.69 8.77 10.08
9/27/2021 7:30:00 AM 12.63 54.734 0.285 7.69 9.44 10.11
9/27/2021 7:45:00 AM 12.6 54.68 0.286 7.7 5.85 10.12
9/27/2021 8:00:00 AM 12.58 54.644 0.286 7.7 5.75 10.17
9/27/2021 8:15:00 AM 12.58 54.644 0.286 7.71 5.54 10.21
9/27/2021 8:30:00 AM 12.59 54.662 0.286 7.72 5.23 10.28
9/27/2021 8:45:00 AM 12.58 54.644 0.287 7.72 5.32 10.29
9/27/2021 9:00:00 AM 12.56 54.608 0.287 7.73 5.38 10.32
9/27/2021 9:15:00 AM 12.56 54.608 0.287 7.73 5.23 10.33
9/27/2021 9:30:00 AM 12.58 54.644 0.287 7.73 5.11 10.35
9/27/2021 9:45:00 AM 12.63 54.734 0.287 7.73 5.9 10.37
9/27/2021 10:00:00 AM 12.68 54.824 0.287 7.75 5.28 10.42
9/27/2021 10:15:00 AM 12.74 54.932 0.288 7.76 5.19 10.43
9/27/2021 10:30:00 AM 12.8 55.04 0.288 7.76 5.26 10.44
9/27/2021 10:45:00 AM 12.84 55.112 0.288 7.78 4.82 10.47
9/27/2021 11:00:00 AM 12.91 55.238 0.288 7.78 5.01 10.49
9/27/2021 11:15:00 AM 12.98 55.364 0.288 7.79 5.56 10.5
9/27/2021 11:30:00 AM 13.08 55.544 0.288 7.81 6.1 10.52
9/27/2021 11:45:00 AM 13.19 55.742 0.289 7.81 5.59 10.51
9/27/2021 12:00:00 PM 13.31 55.958 0.289 7.82 5.39 10.51
9/27/2021 12:15:00 PM 13.45 56.21 0.289 7.83 5.32 10.52
9/27/2021 12:30:00 PM 13.6 56.48 0.289 7.84 6.96 10.53
9/27/2021 12:45:00 PM 13.76 56.768 0.289 7.85 5.85 10.54
9/27/2021 1:00:00 PM 13.91 57.038 0.29 7.86 6.97 10.52
9/27/2021 1:15:00 PM 14.07 57.326 0.29 7.87 4.98 10.53
9/27/2021 1:30:00 PM 14.23 57.614 0.29 7.88 5 10.53
9/27/2021 1:45:00 PM 14.42 57.956 0.29 7.9 5.23 10.51
9/27/2021 2:00:00 PM 14.6 58.28 0.29 7.9 6.43 10.52
9/27/2021 2:15:00 PM 14.8 58.64 0.29 7.91 6.08 10.52
9/27/2021 2:30:00 PM 14.98 58.964 0.291 7.92 6.79 10.51
9/27/2021 2:45:00 PM 15.18 59.324 0.291 7.93 4.84 10.48
9/27/2021 3:00:00 PM 15.37 59.666 0.291 7.95 4.88 10.46
9/27/2021 3:15:00 PM 15.53 59.954 0.291 7.95 9.27 10.4
9/27/2021 3:30:00 PM 15.68 60.224 0.291 7.95 5.19 10.39
9/27/2021 3:45:00 PM 15.78 60.404 0.291 7.98 4.99 10.36
9/27/2021 4:00:00 PM 15.9 60.62 0.291 7.97 4.51 10.33
9/27/2021 4:15:00 PM 15.95 60.71 0.291 7.97 4.93 10.3
9/27/2021 4:30:00 PM 15.97 60.746 0.292 7.98 4.52 10.26
9/27/2021 4:45:00 PM 15.98 60.764 0.292 7.97 4.69 10.2
9/27/2021 5:00:00 PM 15.97 60.746 0.292 7.97 4.89 10.18
9/27/2021 5:15:00 PM 15.94 60.692 0.292 7.95 4.65 10.12
9/27/2021 5:30:00 PM 15.91 60.638 0.293 7.95 4.82 10.07
9/27/2021 5:45:00 PM 15.87 60.566 0.293 7.94 4.52 10.01
9/27/2021 6:00:00 PM 15.85 60.53 0.293 7.92 4.9 9.95
9/27/2021 6:15:00 PM 15.83 60.494 0.294 7.9 4.96 9.88
9/27/2021 6:30:00 PM 15.81 60.458 0.294 7.9 4.67 9.83
9/27/2021 6:45:00 PM 15.79 60.422 0.294 7.87 5.18 9.75
9/27/2021 7:00:00 PM 15.76 60.368 0.295 7.86 4.93 9.67
9/27/2021 7:15:00 PM 15.73 60.314 0.295 7.84 5.02 9.62
9/27/2021 7:30:00 PM 15.7 60.26 0.295 7.83 5.12 9.58
9/27/2021 7:45:00 PM 15.67 60.206 0.296 7.81 5.01 9.55
9/27/2021 8:00:00 PM 15.63 60.134 0.296 7.81 5.36 9.52
9/27/2021 8:15:00 PM 15.6 60.08 0.296 7.8 5.02 9.51
9/27/2021 8:30:00 PM 15.55 59.99 0.297 7.79 4.92 9.51
9/27/2021 8:45:00 PM 15.51 59.918 0.297 7.79 5.29 9.48
9/27/2021 9:00:00 PM 15.47 59.846 0.297 7.78 5.12 9.48
9/27/2021 9:15:00 PM 15.42 59.756 0.298 7.78 5.23 9.49
9/27/2021 9:30:00 PM 15.38 59.684 0.298 7.77 4.91 9.48
9/27/2021 9:45:00 PM 15.33 59.594 0.298 7.77 4.99 9.48
9/27/2021 10:00:00 PM 15.29 59.522 0.299 7.77 5.02 9.44
9/27/2021 10:15:00 PM 15.25 59.45 0.299 7.77 5.05 9.47
9/27/2021 10:30:00 PM 15.22 59.396 0.299 7.76 5.06 9.46
9/27/2021 10:45:00 PM 15.19 59.342 0.299 7.76 5.05 9.47
9/27/2021 11:00:00 PM 15.16 59.288 0.3 7.75 4.85 9.46
9/27/2021 11:15:00 PM 15.14 59.252 0.3 7.75 4.97 9.47
9/27/2021 11:30:00 PM 15.12 59.216 0.3 7.75 5.15 9.47
9/27/2021 11:45:00 PM 15.09 59.162 0.301 7.75 5.15 9.47
9/28/2021 12:00:00 AM 15.07 59.126 0.301 7.74 5.04 9.47
9/28/2021 12:15:00 AM 15.05 59.09 0.302 7.75 5.01 9.45
9/28/2021 12:30:00 AM 15.04 59.072 0.302 7.75 5.13 9.47
9/28/2021 12:45:00 AM 15.03 59.054 0.302 7.75 4.93 9.47
9/28/2021 1:00:00 AM 15.02 59.036 0.303 7.74 5.05 9.49
9/28/2021 1:15:00 AM 15.01 59.018 0.303 7.74 5.07 9.47
9/28/2021 1:30:00 AM 15 59 0.303 7.74 5.3 9.48
9/28/2021 1:45:00 AM 14.99 58.982 0.304 7.74 5.02 9.48
9/28/2021 2:00:00 AM 14.97 58.946 0.304 7.74 5.55 9.49
9/28/2021 2:15:00 AM 14.96 58.928 0.304 7.74 4.94 9.48
9/28/2021 2:30:00 AM 14.94 58.892 0.304 7.73 5.37 9.48
9/28/2021 2:45:00 AM 14.9 58.82 0.305 7.73 5.02 9.5
9/28/2021 3:00:00 AM 14.87 58.766 0.305 7.73 5.29 9.51
9/28/2021 3:15:00 AM 14.85 58.73 0.305 7.73 5.59 9.51
9/28/2021 3:30:00 AM 14.82 58.676 0.306 7.73 5.09 9.51
9/28/2021 3:45:00 AM 14.78 58.604 0.306 7.73 5.1 9.51
9/28/2021 4:00:00 AM 14.75 58.55 0.306 7.73 5.61 9.54
9/28/2021 4:15:00 AM 14.72 58.496 0.306 7.73 57.56 9.53
9/28/2021 4:30:00 AM 14.69 58.442 0.307 7.72 6.1 9.54
9/28/2021 4:45:00 AM 14.67 58.406 0.307 7.73 5.43 9.52
9/28/2021 5:00:00 AM 14.66 58.388 0.307 7.73 5.08 9.56
9/28/2021 5:15:00 AM 14.65 58.37 0.308 7.73 5.34 9.56
9/28/2021 5:30:00 AM 14.65 58.37 0.308 7.73 5.36 9.57
9/28/2021 5:45:00 AM 14.65 58.37 0.308 7.73 5.07 9.57
9/28/2021 6:00:00 AM 14.65 58.37 0.308 7.72 5.35 9.53
9/28/2021 6:15:00 AM 14.66 58.388 0.309 7.73 5.2 9.55
9/28/2021 6:30:00 AM 14.66 58.388 0.309 7.72 5 9.54
9/28/2021 6:45:00 AM 14.67 58.406 0.309 7.73 5.47 9.56
9/28/2021 7:00:00 AM 14.68 58.424 0.31 7.73 5.16 9.58
9/28/2021 7:15:00 AM 14.7 58.46 0.309 7.72 6.13 9.56
9/28/2021 7:30:00 AM 14.7 58.46 0.309 7.72 5.35 9.55
9/28/2021 7:45:00 AM 14.71 58.478 0.31 7.72 5.35 9.54
9/28/2021 8:00:00 AM 14.72 58.496 0.31 7.72 5.26 9.57
9/28/2021 8:15:00 AM 14.73 58.514 0.311 7.73 4.04 9.57
9/28/2021 8:30:00 AM 14.75 58.55 0.311 7.72 5.2 9.59
9/28/2021 8:45:00 AM 14.76 58.568 0.311 7.72 4.96 9.58
9/28/2021 9:00:00 AM 14.77 58.586 0.312 7.73 4.96 9.62
9/28/2021 9:15:00 AM 14.8 58.64 0.311 7.73 5.4 9.65
9/28/2021 9:30:00 AM 14.81 58.658 0.312 7.74 4.88 9.66
9/28/2021 9:45:00 AM 14.83 58.694 0.312 7.74 5.12 9.68
9/28/2021 10:00:00 AM 14.85 58.73 0.312 7.75 6.27 9.7
9/28/2021 10:15:00 AM 14.86 58.748 0.313 7.75 7.31 9.71
9/28/2021 10:30:00 AM 14.87 58.766 0.313 7.75 5.42 9.71
9/28/2021 10:45:00 AM 14.89 58.802 0.313 7.76 4.75 9.74
9/28/2021 11:00:00 AM 14.91 58.838 0.313 7.77 5.58 9.78
9/28/2021 11:15:00 AM 14.93 58.874 0.314 7.77 4.44 9.77
9/28/2021 11:30:00 AM 14.94 58.892 0.314 7.77 115.07 9.8
9/28/2021 11:45:00 AM 14.97 58.946 0.314 7.78 6.63 9.82
9/28/2021 12:00:00 PM 15.01 59.018 0.314 7.8 4.78 9.9
9/28/2021 12:15:00 PM 15.04 59.072 0.314 7.81 4.65 9.93
9/28/2021 12:30:00 PM 15.14 59.252 0.314 7.83 4.34 10.04
9/28/2021 12:45:00 PM 15.24 59.432 0.314 7.87 4.45 10.15
9/28/2021 1:00:00 PM 15.37 59.666 0.315 7.89 4.61 10.21
9/28/2021 1:15:00 PM 15.4 59.72 0.315 7.9 4.31 10.24
9/28/2021 1:30:00 PM 15.49 59.882 0.315 7.91 4.35 10.23
9/28/2021 1:45:00 PM 15.64 60.152 0.315 7.94 4.72 10.26
9/28/2021 2:00:00 PM 15.86 60.548 0.315 7.95 4.55 10.29
9/28/2021 2:15:00 PM 15.96 60.728 0.316 7.96 4.68 10.27
9/28/2021 2:30:00 PM 16.08 60.944 0.316 7.98 4.54 10.27
9/28/2021 2:45:00 PM 16.08 60.944 0.316 8 4.5 10.3
9/28/2021 3:00:00 PM 16.31 61.358 0.316 8.01 4.58 10.3
9/28/2021 3:15:00 PM 16.49 61.682 0.316 8.02 4.78 10.27
9/28/2021 3:30:00 PM 16.59 61.862 0.316 8.01 4.52 10.21
9/28/2021 3:45:00 PM 16.41 61.538 0.317 8.01 4.48 10.11
9/28/2021 4:00:00 PM 16.65 61.97 0.317 8.02 4.65 10.13
9/28/2021 4:15:00 PM 16.73 62.114 0.317 8.01 4.47 10.12
9/28/2021 4:30:00 PM 16.77 62.186 0.317 8.01 4.48 10.03
9/28/2021 4:45:00 PM 16.78 62.204 0.318 8.01 4.43 9.96
9/28/2021 5:00:00 PM 16.85 62.33 0.318 8 4.93 9.92
9/28/2021 5:15:00 PM 16.88 62.384 0.318 8.01 4.57 9.89
9/28/2021 5:30:00 PM 16.86 62.348 0.318 7.98 4.38 9.77
9/28/2021 5:45:00 PM 16.8 62.24 0.318 7.98 4.45 9.75
9/28/2021 6:00:00 PM 16.77 62.186 0.319 7.97 5.19 9.7
9/28/2021 6:15:00 PM 16.72 62.096 0.319 7.95 4.71 9.64
9/28/2021 6:30:00 PM 16.66 61.988 0.319 7.94 4.45 9.58
9/28/2021 6:45:00 PM 16.58 61.844 0.32 7.92 4.68 9.53
9/28/2021 7:00:00 PM 16.52 61.736 0.32 7.91 4.82 9.47
9/28/2021 7:15:00 PM 16.46 61.628 0.32 7.89 4.51 9.43
9/28/2021 7:30:00 PM 16.4 61.52 0.32 7.88 5.25 9.38
9/28/2021 7:45:00 PM 16.36 61.448 0.321 7.87 4.81 9.37
9/28/2021 8:00:00 PM 16.31 61.358 0.321 7.86 5.22 9.35
9/28/2021 8:15:00 PM 16.27 61.286 0.321 7.86 4.89 9.35
9/28/2021 8:30:00 PM 16.21 61.178 0.321 7.85 4.88 9.33
9/28/2021 8:45:00 PM 16.15 61.07 0.322 7.84 4.9 9.33
9/28/2021 9:00:00 PM 16.08 60.944 0.322 7.84 4.88 9.33
9/28/2021 9:15:00 PM 16.01 60.818 0.322 7.84 5.1 9.35
9/28/2021 9:30:00 PM 15.94 60.692 0.323 7.83 4.95 9.34
9/28/2021 9:45:00 PM 15.87 60.566 0.323 7.82 4.87 9.33
9/28/2021 10:00:00 PM 15.8 60.44 0.323 7.82 4.86 9.35
9/28/2021 10:15:00 PM 15.72 60.296 0.324 7.82 4.93 9.37
9/28/2021 10:30:00 PM 15.64 60.152 0.324 7.81 4.69 9.37
9/28/2021 10:45:00 PM 15.56 60.008 0.324 7.81 5.08 9.4
9/28/2021 11:00:00 PM 15.5 59.9 0.324 7.81 5.04 9.4
9/28/2021 11:15:00 PM 15.44 59.792 0.325 7.81 4.84 9.4
9/28/2021 11:30:00 PM 15.38 59.684 0.325 7.81 5.13 9.41
9/28/2021 11:45:00 PM 15.32 59.576 0.325 7.8 7.5 9.44
9/29/2021 12:00:00 AM 15.26 59.468 0.325 7.8 5.48 9.42
9/29/2021 12:15:00 AM 15.21 59.378 0.325 7.79 4.94 9.41
9/29/2021 12:30:00 AM 15.16 59.288 0.325 7.79 4.9 9.45
9/29/2021 12:45:00 AM 15.12 59.216 0.326 7.79 4.96 9.47
9/29/2021 1:00:00 AM 15.07 59.126 0.326 7.79 4.77 9.48
9/29/2021 1:15:00 AM 15.02 59.036 0.326 7.79 4.78 9.47
9/29/2021 1:30:00 AM 14.97 58.946 0.326 7.78 4.69 9.47
9/29/2021 1:45:00 AM 14.91 58.838 0.326 7.78 4.71 9.49
9/29/2021 2:00:00 AM 14.87 58.766 0.327 7.78 6.08 9.49
9/29/2021 2:15:00 AM 14.82 58.676 0.327 7.78 5.01 9.5
9/29/2021 2:30:00 AM 14.78 58.604 0.327 7.79 4.63 9.52
9/29/2021 2:45:00 AM 14.73 58.514 0.327 7.78 4.75 9.55
9/29/2021 3:00:00 AM 14.69 58.442 0.327 7.78 5 9.54
9/29/2021 3:15:00 AM 14.65 58.37 0.328 7.78 4.71 9.52
9/29/2021 3:30:00 AM 14.6 58.28 0.328 7.78 4.97 9.52
9/29/2021 3:45:00 AM 14.55 58.19 0.328 7.78 4.76 9.57
9/29/2021 4:00:00 AM 14.5 58.1 0.328 7.78 4.83 9.59
9/29/2021 4:15:00 AM 14.46 58.028 0.329 7.78 4.83 9.55
9/29/2021 4:30:00 AM 14.41 57.938 0.329 7.77 4.92 9.6
9/29/2021 4:45:00 AM 14.36 57.848 0.329 7.77 5.3 9.59
9/29/2021 5:00:00 AM 14.31 57.758 0.33 7.77 4.91 9.63
9/29/2021 5:15:00 AM 14.25 57.65 0.33 7.78 4.87 9.66
9/29/2021 5:30:00 AM 14.21 57.578 0.33 7.77 4.72 9.66
9/29/2021 5:45:00 AM 14.16 57.488 0.331 7.77 4.9 9.52
9/29/2021 6:00:00 AM 14.11 57.398 0.331 7.78 4.99 9.65
9/29/2021 6:15:00 AM 14.04 57.272 0.331 7.76 5.52 9.7
9/29/2021 6:30:00 AM 13.99 57.182 0.332 7.77 4.92 9.67
9/29/2021 6:45:00 AM 13.95 57.11 0.332 7.77 4.9 9.73
9/29/2021 7:00:00 AM 13.9 57.02 0.333 7.77 4.78 9.74
9/29/2021 7:15:00 AM 13.86 56.948 0.333 7.77 4.81 9.74
9/29/2021 7:30:00 AM 13.81 56.858 0.333 7.78 5.13 9.79
9/29/2021 7:45:00 AM 13.77 56.786 0.333 7.77 5.13 9.74
9/29/2021 8:00:00 AM 13.73 56.714 0.334 7.79 4.96 9.83
9/29/2021 8:15:00 AM 13.72 56.696 0.334 7.81 4.82 9.93
9/29/2021 8:30:00 AM 13.71 56.678 0.334 7.81 4.83 9.97
9/29/2021 8:45:00 AM 13.72 56.696 0.334 7.81 5.35 10
9/29/2021 9:00:00 AM 13.72 56.696 0.335 7.84 5.47 10.13
9/29/2021 9:15:00 AM 13.76 56.768 0.335 7.84 5.6 10.22
9/29/2021 9:30:00 AM 13.79 56.822 0.335 7.86 4.87 10.28
9/29/2021 9:45:00 AM 13.8 56.84 0.335 7.87 4.84 10.31
9/29/2021 10:00:00 AM 13.83 56.894 0.335 7.87 4.53 10.32
9/29/2021 10:15:00 AM 13.84 56.912 0.336 7.88 4.49 10.34
9/29/2021 10:30:00 AM 13.86 56.948 0.336 7.89 4.59 10.35
9/29/2021 10:45:00 AM 13.89 57.002 0.336 7.89 4.54 10.34
9/29/2021 11:00:00 AM 13.94 57.092 0.337 7.9 4.42 10.33
9/29/2021 11:15:00 AM 13.93 57.074 0.337 7.9 5.15 10.34
9/29/2021 11:30:00 AM 13.94 57.092 0.337 7.92 4.59 10.37
9/29/2021 11:45:00 AM 13.99 57.182 0.337 7.92 4.41 10.38
9/29/2021 12:00:00 PM 14.05 57.29 0.338 7.91 4.42 10.37
9/29/2021 12:15:00 PM 14.15 57.47 0.338 7.93 4.54 10.4
9/29/2021 12:30:00 PM 14.23 57.614 0.338 7.92 4.34 10.39
9/29/2021 12:45:00 PM 14.38 57.884 0.339 7.92 4.5 10.38
9/29/2021 1:00:00 PM 14.54 58.172 0.339 7.97 4.51 10.44
9/29/2021 1:15:00 PM 14.65 58.37 0.339 7.97 4.52 10.41
9/29/2021 1:30:00 PM 14.8 58.64 0.339 7.99 4.44 10.42
9/29/2021 1:45:00 PM 14.92 58.856 0.339 8 4.43 10.45
9/29/2021 2:00:00 PM 15.11 59.198 0.34 8.01 4.35 10.46
9/29/2021 2:15:00 PM 15.22 59.396 0.339 8 4.55 10.48
9/29/2021 2:30:00 PM 15.4 59.72 0.34 8.03 4.46 10.49
9/29/2021 2:45:00 PM 15.58 60.044 0.34 8.05 4.46 10.42
9/29/2021 3:00:00 PM 15.76 60.368 0.341 8.06 4.49 10.49
9/29/2021 3:15:00 PM 15.86 60.548 0.341 8.07 4.39 10.44
9/29/2021 3:30:00 PM 16.02 60.836 0.341 8.08 4.5 10.42
9/29/2021 3:45:00 PM 16.11 60.998 0.341 8.09 4.3 10.34
9/29/2021 4:00:00 PM 16.14 61.052 0.341 8.1 4.73 10.32
9/29/2021 4:15:00 PM 16.29 61.322 0.342 8.1 4.51 10.31
9/29/2021 4:30:00 PM 16.35 61.43 0.342 8.11 4.54 10.27
9/29/2021 4:45:00 PM 16.32 61.376 0.342 8.11 4.68 10.23
9/29/2021 5:00:00 PM 16.24 61.232 0.342 8.09 4.6 10.15
9/29/2021 5:15:00 PM 16.18 61.124 0.343 8.08 4.58 10.07
9/29/2021 5:30:00 PM 16.1 60.98 0.343 8.06 4.49 10.01
9/29/2021 5:45:00 PM 16.01 60.818 0.343 8.05 4.47 9.93
9/29/2021 6:00:00 PM 15.92 60.656 0.344 8.03 4.98 9.89
9/29/2021 6:15:00 PM 15.84 60.512 0.344 8.01 4.45 9.84
9/29/2021 6:30:00 PM 15.73 60.314 0.344 8 4.6 9.81
9/29/2021 6:45:00 PM 15.64 60.152 0.345 7.98 4.52 9.77
9/29/2021 7:00:00 PM 15.56 60.008 0.345 7.97 4.73 9.7
9/29/2021 7:15:00 PM 15.48 59.864 0.346 7.96 4.73 9.67
9/29/2021 7:30:00 PM 15.4 59.72 0.346 7.94 4.63 9.66
9/29/2021 7:45:00 PM 15.33 59.594 0.346 7.93 4.8 9.61
9/29/2021 8:00:00 PM 15.27 59.486 0.346 7.92 4.65 9.62
9/29/2021 8:15:00 PM 15.2 59.36 0.347 7.91 5.02 9.61
9/29/2021 8:30:00 PM 15.14 59.252 0.347 7.91 5.03 9.61
9/29/2021 8:45:00 PM 15.07 59.126 0.347 7.9 4.74 9.58
9/29/2021 9:00:00 PM 15 59 0.347 7.9 4.92 9.62
9/29/2021 9:15:00 PM 14.93 58.874 0.348 7.89 4.81 9.62
9/29/2021 9:30:00 PM 14.85 58.73 0.348 7.89 4.75 9.63
9/29/2021 9:45:00 PM 14.77 58.586 0.348 7.89 4.83 9.64
9/29/2021 10:00:00 PM 14.68 58.424 0.348 7.88 5.04 9.63
9/29/2021 10:15:00 PM 14.59 58.262 0.349 7.87 5 9.64
9/29/2021 10:30:00 PM 14.49 58.082 0.349 7.88 4.91 9.67
9/29/2021 10:45:00 PM 14.4 57.92 0.349 7.87 4.79 9.7
9/29/2021 11:00:00 PM 14.3 57.74 0.349 7.87 4.8 9.68
9/29/2021 11:15:00 PM 14.21 57.578 0.35 7.87 4.73 9.69
9/29/2021 11:30:00 PM 14.12 57.416 0.35 7.86 5.35 9.76
9/29/2021 11:45:00 PM 14.03 57.254 0.35 7.85 6.38 9.77
9/30/2021 12:00:00 AM 13.97 57.146 0.35 7.86 5.19 9.76
9/30/2021 12:15:00 AM 13.88 56.984 0.35 7.85 5.33 9.77
9/30/2021 12:30:00 AM 13.81 56.858 0.351 7.85 5 9.8
9/30/2021 12:45:00 AM 13.74 56.732 0.351 7.85 4.72 9.82
9/30/2021 1:00:00 AM 13.67 56.606 0.351 7.85 5 9.83
9/30/2021 1:15:00 AM 13.61 56.498 0.351 7.85 4.78 9.86
9/30/2021 1:30:00 AM 13.55 56.39 0.351 7.85 4.92 9.88
9/30/2021 1:45:00 AM 13.48 56.264 0.352 7.84 4.81 9.85
9/30/2021 2:00:00 AM 13.43 56.174 0.352 7.84 5.03 9.9
9/30/2021 2:15:00 AM 13.37 56.066 0.352 7.84 4.83 9.91
9/30/2021 2:30:00 AM 13.31 55.958 0.352 7.84 4.75 9.91
9/30/2021 2:45:00 AM 13.26 55.868 0.352 7.84 5.02 9.92
9/30/2021 3:00:00 AM 13.21 55.778 0.353 7.84 5.05 9.95
9/30/2021 3:15:00 AM 13.16 55.688 0.353 7.84 5.15 9.97
9/30/2021 3:30:00 AM 13.1 55.58 0.353 7.84 5.11 9.96
9/30/2021 3:45:00 AM 13.04 55.472 0.353 7.84 4.99 9.99
9/30/2021 4:00:00 AM 12.98 55.364 0.354 7.84 5.06 9.99
9/30/2021 4:15:00 AM 12.92 55.256 0.354 7.84 4.88 10.02
9/30/2021 4:30:00 AM 12.87 55.166 0.354 7.84 5.03 10.04
9/30/2021 4:45:00 AM 12.82 55.076 0.354 7.84 4.98 10.05
9/30/2021 5:00:00 AM 12.76 54.968 0.355 7.84 4.77 10.06
9/30/2021 5:15:00 AM 12.71 54.878 0.355 7.84 5.09 10.1
9/30/2021 5:30:00 AM 12.64 54.752 0.355 7.85 4.99 10.12
9/30/2021 5:45:00 AM 12.58 54.644 0.356 7.84 4.93 10.14
9/30/2021 6:00:00 AM 12.52 54.536 0.356 7.85 5.06 10.14
9/30/2021 6:15:00 AM 12.44 54.392 0.356 7.84 5.03 10.17
9/30/2021 6:30:00 AM 12.37 54.266 0.357 7.84 4.86 10.19
9/30/2021 6:45:00 AM 12.31 54.158 0.357 7.83 4.92 10.18
9/30/2021 7:00:00 AM 12.24 54.032 0.357 7.84 5.08 10.23
9/30/2021 7:15:00 AM 12.18 53.924 0.357 7.84 5.09 10.23
9/30/2021 7:30:00 AM 12.11 53.798 0.358 7.84 5.03 10.29
9/30/2021 7:45:00 AM 12.06 53.708 0.358 7.84 4.91 10.3
9/30/2021 8:00:00 AM 12.01 53.618 0.358 7.84 4.83 10.35
9/30/2021 8:15:00 AM 11.97 53.546 0.358 7.85 4.94 10.42
9/30/2021 8:30:00 AM 11.94 53.492 0.358 7.86 5.01 10.5
9/30/2021 8:45:00 AM 11.9 53.42 0.358 7.88 4.93 10.59
9/30/2021 9:00:00 AM 11.87 53.366 0.358 7.88 4.79 10.64
9/30/2021 9:15:00 AM 11.86 53.348 0.358 7.88 5.05 10.63
9/30/2021 9:30:00 AM 11.86 53.348